Darstellungsparameter: Aktuell verwendete Einstellungen:
Skalierung der Graphiken ... ?
xyx+y,   Skalierungsfaktor:      Skalierung: Modus: x, Faktor: 1
Darstellungszeitraum ... ?
Vom - - bis: - -   Zeitraum: 07.12.2005 - 06.06.2006
Min/Max/Avg-Anzeige ... ?
Zeige MMA aktuell
Zeige MMA Monat
Zeige MMA alles
Zeige --A aktuell
Zeige --A Monat
Zeige --A alles
Keine MMA-Anzeige
MMA:
Minimum Maximum Average (ber die Originaldaten)
MMA-Basis: 23.02.2003 - 07.06.2011
Quicknavigation für Darstellung... ?
Tage:      1T, 2T, 3T, 5T -1T -2T -3T -5T +1T +2T +3T +5T
Wochen: 1W, 2W, 3W -1W -2W -3W +1W +2W +3W
Monate: 1M, 3M, 6M -1M -3M -6M +1M +3M +6M
Jahre:    1J, 3J, 5J, 10J -1J -3J -5J -10J +1J +3J +5J +10J
Nutze für die Darstellung ... ?
Originaldaten oder Mittelwerte auf ...
Stundenbasis Tagesbasis Wochenbasis
Monatsbasis Jahresbasis      Datenbasis: Original-Daten
Darstellen als:
Statistik (Auto) Statistik J:M      Darstellung:
Zur Graphik,    zurück zur Übersicht aller Sensoren.
 
Tabellarische Datenbersicht: ?
 
Sensor: Nr:Datum:Temp:Abs-Feuchte:Windchill:Wind:
Aussen-T/F 1 07-12-2005 00:09:01 4 C 5.4 g/m*3 4 C 0 km/h
2 07-12-2005 00:19:02 3.9 C 5.49 g/m*3 3.9 C 0 km/h
3 07-12-2005 00:29:02 4 C 5.47 g/m*3 4 C 0 km/h
4 07-12-2005 00:39:01 4 C 5.47 g/m*3 4 C 0 km/h
5 07-12-2005 00:49:02 4 C 5.47 g/m*3 4 C 0 km/h
6 07-12-2005 00:59:02 3.9 C 5.56 g/m*3 3.9 C 0 km/h
7 07-12-2005 01:09:02 3.9 C 5.56 g/m*3 3.9 C 0 km/h
8 07-12-2005 01:19:02 3.9 C 5.49 g/m*3 3.9 C 0 km/h
9 07-12-2005 01:29:03 3.9 C 5.49 g/m*3 3.9 C 0 km/h
10 07-12-2005 01:39:02 3.8 C 5.46 g/m*3 3.8 C 0 km/h
11 07-12-2005 01:49:02 3.8 C 5.46 g/m*3 3.8 C 0 km/h
12 07-12-2005 01:59:02 3.8 C 5.4 g/m*3 3.8 C 0 km/h
13 07-12-2005 02:09:02 3.8 C 5.4 g/m*3 3.8 C 0 km/h
14 07-12-2005 02:19:02 3.8 C 5.4 g/m*3 3.8 C 0 km/h
15 07-12-2005 02:29:02 3.8 C 5.46 g/m*3 3.8 C 0 km/h
16 07-12-2005 02:39:02 3.8 C 5.52 g/m*3 3.8 C 0 km/h
17 07-12-2005 02:50:03 3.7 C 5.48 g/m*3 3.7 C 0 km/h
18 07-12-2005 03:00:03 3.7 C 5.55 g/m*3 3.7 C 0 km/h
19 07-12-2005 03:10:04 3.7 C 5.55 g/m*3 3.7 C 0 km/h
20 07-12-2005 03:20:04 3.7 C 5.55 g/m*3 3.7 C 0 km/h
21 07-12-2005 03:30:04 3.7 C 5.55 g/m*3 3.7 C 0 km/h
22 07-12-2005 03:40:03 3.7 C 5.55 g/m*3 3.7 C 0 km/h
23 07-12-2005 03:50:03 3.7 C 5.55 g/m*3 3.7 C 0 km/h
24 07-12-2005 04:00:03 3.7 C 5.55 g/m*3 3.7 C 0 km/h
25 07-12-2005 04:10:02 3.7 C 5.55 g/m*3 3.7 C 0 km/h
Sensor: Nr:Datum:Temp:Abs-Feuchte:Windchill:Wind:
Aussen-T/F 26 07-12-2005 04:20:03 3.5 C 5.47 g/m*3 3.5 C 0 km/h
27 07-12-2005 04:30:03 3.5 C 5.47 g/m*3 3.5 C 0 km/h
28 07-12-2005 04:40:03 3.4 C 5.5 g/m*3 3.4 C 0 km/h
29 07-12-2005 04:50:03 3.5 C 5.53 g/m*3 3.5 C 0 km/h
30 07-12-2005 05:00:03 3.4 C 5.5 g/m*3 3.4 C 0 km/h
31 07-12-2005 05:10:03 3.4 C 5.56 g/m*3 3.4 C 0 km/h
32 07-12-2005 05:20:03 3.4 C 5.56 g/m*3 3.4 C 0 km/h
33 07-12-2005 05:30:03 3.5 C 5.6 g/m*3 3.5 C 0 km/h
34 07-12-2005 05:40:03 3.6 C 5.63 g/m*3 3.6 C 0 km/h
35 07-12-2005 05:50:03 3.7 C 5.67 g/m*3 3.7 C 0 km/h
36 07-12-2005 06:00:03 3.7 C 5.67 g/m*3 3.7 C 0 km/h
37 07-12-2005 06:10:03 3.8 C 5.71 g/m*3 3.8 C 0 km/h
38 07-12-2005 06:20:02 3.7 C 5.67 g/m*3 3.7 C 0 km/h
39 07-12-2005 06:30:02 3.8 C 5.77 g/m*3 3.8 C 0 km/h
40 07-12-2005 06:40:02 3.8 C 5.77 g/m*3 3.8 C 0 km/h
41 07-12-2005 06:50:02 3.8 C 5.77 g/m*3 3.8 C 0 km/h
42 07-12-2005 07:00:02 3.8 C 5.77 g/m*3 3.8 C 0 km/h
43 07-12-2005 07:10:02 3.9 C 5.81 g/m*3 3.9 C 0 km/h
44 07-12-2005 07:20:01 4 C 5.85 g/m*3 4 C 0 km/h
45 07-12-2005 07:30:01 3.9 C 5.81 g/m*3 3.9 C 0 km/h
46 07-12-2005 07:40:01 4 C 5.85 g/m*3 4 C 0 km/h
47 07-12-2005 07:50:02 4.1 C 5.89 g/m*3 4.1 C 0 km/h
48 07-12-2005 08:00:02 4.1 C 5.89 g/m*3 4.1 C 0 km/h
49 07-12-2005 08:10:02 4.1 C 5.89 g/m*3 4.1 C 0 km/h
50 07-12-2005 08:20:01 4.2 C 5.93 g/m*3 4.2 C 0 km/h
Sensor: Nr:Datum:Temp:Abs-Feuchte:Windchill:Wind:
Aussen-T/F 51 07-12-2005 08:30:01 4.2 C 5.93 g/m*3 4.2 C 0 km/h
52 07-12-2005 08:40:02 4.2 C 5.93 g/m*3 4.2 C 0 km/h
53 07-12-2005 08:50:02 4.3 C 5.97 g/m*3 4.3 C 0 km/h
54 07-12-2005 09:00:03 4.3 C 5.97 g/m*3 4.3 C 0 km/h
55 07-12-2005 09:10:01 4.3 C 5.9 g/m*3 4.3 C 0 km/h
56 07-12-2005 09:20:01 4.4 C 5.94 g/m*3 4.4 C 0 km/h
57 07-12-2005 09:30:01 4.5 C 5.98 g/m*3 4.5 C 0 km/h
58 07-12-2005 09:40:02 4.5 C 5.92 g/m*3 4.5 C 0 km/h
59 07-12-2005 09:50:02 4.7 C 6 g/m*3 4.7 C 0 km/h
60 07-12-2005 10:00:03 4.7 C 5.93 g/m*3 4.7 C 0 km/h
61 07-12-2005 10:10:01 4.8 C 5.97 g/m*3 4.8 C 0 km/h
62 07-12-2005 10:20:01 4.8 C 5.97 g/m*3 4.8 C 0 km/h
63 07-12-2005 10:30:01 4.9 C 5.94 g/m*3 4.9 C 0 km/h
64 07-12-2005 10:40:01 5.1 C 5.95 g/m*3 5.1 C 0 km/h
65 07-12-2005 10:50:02 5.2 C 5.99 g/m*3 5.2 C 0 km/h
66 07-12-2005 11:00:02 5.2 C 5.92 g/m*3 5.2 C 0 km/h
67 07-12-2005 11:10:01 5.4 C 5.93 g/m*3 5.4 C 0 km/h
68 07-12-2005 11:20:01 5.4 C 5.93 g/m*3 5.4 C 0 km/h
69 07-12-2005 11:30:01 5.6 C 5.94 g/m*3 5.6 C 0 km/h
70 07-12-2005 11:40:02 5.7 C 5.98 g/m*3 5.7 C 0 km/h
71 07-12-2005 11:50:01 5.9 C 5.91 g/m*3 5.9 C 0 km/h
72 07-12-2005 12:00:01 6 C 5.81 g/m*3 6 C 0 km/h
73 07-12-2005 12:10:01 6 C 5.73 g/m*3 6 C 0 km/h
74 07-12-2005 12:20:01 6.2 C 5.74 g/m*3 6.2 C 0 km/h
75 07-12-2005 12:30:01 6.4 C 5.74 g/m*3 6.4 C 0 km/h
Sensor: Nr:Datum:Temp:Abs-Feuchte:Windchill:Wind:
Aussen-T/F 76 07-12-2005 12:40:02 6.5 C 5.62 g/m*3 6.5 C 0 km/h
77 07-12-2005 12:50:02 6.6 C 5.59 g/m*3 6.6 C 0 km/h
78 07-12-2005 13:00:02 6.5 C 5.47 g/m*3 6.5 C 0 km/h
79 07-12-2005 13:10:02 6.5 C 5.47 g/m*3 6.5 C 0 km/h
80 07-12-2005 13:20:02 6.5 C 5.47 g/m*3 6.5 C 0 km/h
81 07-12-2005 13:30:02 6.7 C 5.47 g/m*3 6.7 C 0 km/h
82 07-12-2005 13:40:03 6.8 C 5.35 g/m*3 6.8 C 0 km/h
83 07-12-2005 13:50:02 6.8 C 5.35 g/m*3 6.8 C 0 km/h
84 07-12-2005 14:00:02 6.6 C 5.28 g/m*3 6.6 C 0 km/h
85 07-12-2005 14:10:02 6.5 C 5.25 g/m*3 6.5 C 0 km/h
86 07-12-2005 14:20:02 6.7 C 5.32 g/m*3 6.7 C 0 km/h
87 07-12-2005 14:30:02 6.5 C 5.25 g/m*3 6.5 C 0 km/h
88 07-12-2005 14:40:03 6.6 C 5.28 g/m*3 6.6 C 0 km/h
89 07-12-2005 14:50:02 6.7 C 5.32 g/m*3 6.7 C 0 km/h
90 07-12-2005 15:00:02 6.8 C 5.28 g/m*3 6.8 C 0 km/h
91 07-12-2005 15:10:02 6.7 C 5.24 g/m*3 6.7 C 0 km/h
92 07-12-2005 15:20:02 6.7 C 5.32 g/m*3 6.7 C 0 km/h
93 07-12-2005 15:30:02 6.6 C 5.36 g/m*3 6.6 C 0 km/h
94 07-12-2005 15:40:02 6.5 C 5.25 g/m*3 6.5 C 0 km/h
95 07-12-2005 15:50:02 6.3 C 5.33 g/m*3 6.3 C 0 km/h
96 07-12-2005 16:00:02 6.3 C 5.33 g/m*3 6.3 C 0 km/h
97 07-12-2005 16:10:02 6.3 C 5.33 g/m*3 6.3 C 0 km/h
98 07-12-2005 16:20:02 6.3 C 5.33 g/m*3 6.3 C 0 km/h
99 07-12-2005 16:30:02 6.3 C 5.33 g/m*3 6.3 C 0 km/h
100 07-12-2005 16:40:02 6.3 C 5.33 g/m*3 6.3 C 0 km/h
Sensor: Nr:Datum:Temp:Abs-Feuchte:Windchill:Wind:
Aussen-T/F 101 07-12-2005 16:50:02 6.2 C 5.29 g/m*3 6.2 C 0 km/h
102 07-12-2005 17:00:02 6.3 C 5.33 g/m*3 6.3 C 0 km/h
103 07-12-2005 17:10:01 6.2 C 5.29 g/m*3 6.2 C 0 km/h
104 07-12-2005 17:20:01 6.1 C 5.19 g/m*3 6.1 C 0 km/h
105 07-12-2005 17:30:01 5.9 C 5.26 g/m*3 5.9 C 0 km/h
106 07-12-2005 17:40:02 5.8 C 5.3 g/m*3 5.8 C 0 km/h
107 07-12-2005 17:50:02 5.7 C 5.27 g/m*3 5.7 C 0 km/h
108 07-12-2005 18:00:02 5.6 C 5.23 g/m*3 5.6 C 0 km/h
109 07-12-2005 18:10:02 5.5 C 5.27 g/m*3 5.5 C 0 km/h
110 07-12-2005 18:20:01 5.7 C 5.27 g/m*3 5.7 C 0 km/h
111 07-12-2005 18:30:01 5.8 C 5.3 g/m*3 5.8 C 0 km/h
112 07-12-2005 18:40:02 5.8 C 5.23 g/m*3 5.8 C 0 km/h
113 07-12-2005 18:50:02 5.9 C 5.26 g/m*3 5.9 C 0 km/h
114 07-12-2005 19:00:02 5.8 C 5.3 g/m*3 5.8 C 0 km/h
115 07-12-2005 19:10:02 5.7 C 5.34 g/m*3 5.7 C 0 km/h
116 07-12-2005 19:20:01 5.6 C 5.37 g/m*3 5.6 C 0 km/h
117 07-12-2005 19:30:01 5.6 C 5.44 g/m*3 5.6 C 0 km/h
118 07-12-2005 19:40:02 5.4 C 5.44 g/m*3 5.4 C 0 km/h
119 07-12-2005 19:50:02 5.3 C 5.48 g/m*3 5.3 C 0 km/h
120 07-12-2005 20:00:02 5.3 C 5.54 g/m*3 5.3 C 0 km/h
121 07-12-2005 20:10:02 5.2 C 5.51 g/m*3 5.2 C 0 km/h
122 07-12-2005 20:20:01 5.2 C 5.51 g/m*3 5.2 C 0 km/h
123 07-12-2005 20:30:01 5.3 C 5.48 g/m*3 5.3 C 0 km/h
124 07-12-2005 20:40:01 5.3 C 5.48 g/m*3 5.3 C 0 km/h
125 07-12-2005 20:50:02 5.3 C 5.48 g/m*3 5.3 C 0 km/h
Sensor: Nr:Datum:Temp:Abs-Feuchte:Windchill:Wind:
Aussen-T/F 126 07-12-2005 21:00:02 5.2 C 5.51 g/m*3 5.2 C 0 km/h
127 07-12-2005 21:10:03 5.2 C 5.44 g/m*3 5.2 C 0 km/h
128 07-12-2005 21:20:02 5.3 C 5.34 g/m*3 5.3 C 0 km/h
129 07-12-2005 21:30:03 5.1 C 5.27 g/m*3 5.1 C 0 km/h
130 07-12-2005 21:40:02 4.9 C 5.33 g/m*3 4.9 C 0 km/h
131 07-12-2005 21:50:02 4.8 C 5.36 g/m*3 4.8 C 0 km/h
132 07-12-2005 22:00:02 4.8 C 5.3 g/m*3 4.8 C 0 km/h
133 07-12-2005 22:10:02 4.9 C 5.33 g/m*3 4.9 C 0 km/h
134 07-12-2005 22:20:02 4.8 C 5.3 g/m*3 4.8 C 0 km/h
135 07-12-2005 22:30:02 4.9 C 5.33 g/m*3 4.9 C 0 km/h
136 07-12-2005 22:40:02 4.8 C 5.3 g/m*3 4.8 C 0 km/h
137 07-12-2005 22:50:02 4.7 C 5.26 g/m*3 4.7 C 0 km/h
138 07-12-2005 23:00:02 4.5 C 5.26 g/m*3 4.5 C 0 km/h
139 07-12-2005 23:10:02 4.3 C 5.25 g/m*3 4.3 C 0 km/h
140 07-12-2005 23:20:03 4.1 C 5.18 g/m*3 4.1 C 0 km/h
141 07-12-2005 23:30:03 4.2 C 5.28 g/m*3 4.2 C 0 km/h
142 07-12-2005 23:40:03 4.3 C 5.38 g/m*3 4.3 C 0 km/h
143 07-12-2005 23:50:02 4.4 C 5.42 g/m*3 4.4 C 0 km/h
144 08-12-2005 00:00:02 4.6 C 5.43 g/m*3 4.6 C 0 km/h
145 08-12-2005 00:10:02 4.8 C 5.43 g/m*3 4.8 C 0 km/h
146 08-12-2005 00:20:02 5 C 5.37 g/m*3 5 C 0 km/h
147 08-12-2005 00:30:02 4.6 C 5.23 g/m*3 4.6 C 0 km/h
148 08-12-2005 00:40:02 4.5 C 5.26 g/m*3 4.5 C 0 km/h
149 08-12-2005 00:50:03 4.7 C 5.4 g/m*3 4.7 C 0 km/h
150 08-12-2005 01:00:03 4.6 C 5.29 g/m*3 4.6 C 0 km/h
Sensor: Nr:Datum:Temp:Abs-Feuchte:Windchill:Wind:
Aussen-T/F 151 08-12-2005 01:10:03 4.7 C 5.33 g/m*3 4.7 C 0 km/h
152 08-12-2005 01:20:02 4.7 C 5.33 g/m*3 4.7 C 0 km/h
153 08-12-2005 01:30:02 4.7 C 5.26 g/m*3 4.7 C 0 km/h
154 08-12-2005 01:40:02 4.6 C 5.23 g/m*3 4.6 C 0 km/h
155 08-12-2005 01:50:02 4.5 C 5.19 g/m*3 4.5 C 0 km/h
156 08-12-2005 02:00:02 4.7 C 5.2 g/m*3 4.7 C 0 km/h
157 08-12-2005 02:10:02 4.7 C 5.13 g/m*3 4.7 C 0 km/h
158 08-12-2005 02:20:02 4.6 C 5.03 g/m*3 4.6 C 0 km/h
159 08-12-2005 02:30:02 4.4 C 4.96 g/m*3 4.4 C 0 km/h
160 08-12-2005 02:40:02 4.5 C 5.06 g/m*3 4.5 C 0 km/h
161 08-12-2005 02:51:04 4.7 C 5 g/m*3 4.7 C 0 km/h
162 08-12-2005 03:01:04 4.8 C 4.96 g/m*3 4.8 C 0 km/h
163 08-12-2005 03:11:03 4.7 C 5 g/m*3 4.7 C 0 km/h
164 08-12-2005 03:21:03 4.7 C 5 g/m*3 4.7 C 0 km/h
165 08-12-2005 03:31:02 4.7 C 5 g/m*3 4.7 C 0 km/h
166 08-12-2005 03:41:02 4.7 C 4.93 g/m*3 4.7 C 0 km/h
167 08-12-2005 03:51:03 4.7 C 4.93 g/m*3 4.7 C 0 km/h
168 08-12-2005 04:01:02 4.6 C 4.9 g/m*3 4.6 C 0 km/h
169 08-12-2005 04:11:02 4.6 C 4.96 g/m*3 4.6 C 0 km/h
170 08-12-2005 04:21:02 4.6 C 4.96 g/m*3 4.6 C 0 km/h
171 08-12-2005 04:31:02 4.6 C 4.96 g/m*3 4.6 C 0 km/h
172 08-12-2005 04:41:02 4.6 C 4.96 g/m*3 4.6 C 0 km/h
173 08-12-2005 04:51:01 4.5 C 4.93 g/m*3 4.5 C 0 km/h
174 08-12-2005 05:01:02 4.6 C 4.96 g/m*3 4.6 C 0 km/h
175 08-12-2005 05:11:02 4.5 C 5 g/m*3 4.5 C 0 km/h
Sensor: Nr:Datum:Temp:Abs-Feuchte:Windchill:Wind:
Aussen-T/F 176 08-12-2005 05:21:01 4.4 C 5.03 g/m*3 4.4 C 0 km/h
177 08-12-2005 05:31:01 4.3 C 4.99 g/m*3 4.3 C 0 km/h
178 08-12-2005 05:41:01 4.3 C 5.06 g/m*3 4.3 C 0 km/h
179 08-12-2005 05:51:03 4.3 C 5.06 g/m*3 4.3 C 0 km/h
180 08-12-2005 06:01:02 4.2 C 5.09 g/m*3 4.2 C 0 km/h
181 08-12-2005 06:11:02 4.2 C 5.09 g/m*3 4.2 C 0 km/h
182 08-12-2005 06:21:02 4.2 C 5.09 g/m*3 4.2 C 0 km/h
183 08-12-2005 06:31:02 4.3 C 5.06 g/m*3 4.3 C 0 km/h
184 08-12-2005 06:41:02 4.3 C 5.06 g/m*3 4.3 C 0 km/h
185 08-12-2005 06:51:02 4.3 C 4.99 g/m*3 4.3 C 0 km/h
186 08-12-2005 07:01:01 4.2 C 4.9 g/m*3 4.2 C 0 km/h
187 08-12-2005 07:11:01 4.2 C 4.9 g/m*3 4.2 C 0 km/h
188 08-12-2005 07:21:01 4.2 C 4.9 g/m*3 4.2 C 0 km/h
189 08-12-2005 07:31:01 4.1 C 4.86 g/m*3 4.1 C 0 km/h
190 08-12-2005 07:41:01 4.1 C 4.8 g/m*3 4.1 C 0 km/h
191 08-12-2005 07:51:02 4.1 C 4.8 g/m*3 4.1 C 0 km/h
192 08-12-2005 08:01:02 4 C 4.83 g/m*3 4 C 0 km/h
193 08-12-2005 08:11:02 3.9 C 4.86 g/m*3 3.9 C 0 km/h
194 08-12-2005 08:21:02 3.8 C 4.83 g/m*3 3.8 C 0 km/h
195 08-12-2005 08:31:01 3.9 C 4.86 g/m*3 3.9 C 0 km/h
196 08-12-2005 08:41:01 4 C 4.9 g/m*3 4 C 0 km/h
197 08-12-2005 08:51:02 4.1 C 4.86 g/m*3 4.1 C 0 km/h
198 08-12-2005 09:01:02 4.1 C 4.86 g/m*3 4.1 C 0 km/h
199 08-12-2005 09:11:02 4.2 C 4.9 g/m*3 4.2 C 0 km/h
200 08-12-2005 09:21:02 4.2 C 4.83 g/m*3 4.2 C 0 km/h
Sensor: Nr:Datum:Temp:Abs-Feuchte:Windchill:Wind:
Aussen-T/F 201 08-12-2005 09:31:01 4.3 C 4.86 g/m*3 4.3 C 0 km/h
202 08-12-2005 09:41:01 4.5 C 4.93 g/m*3 4.5 C 0 km/h
203 08-12-2005 09:51:02 4.6 C 4.9 g/m*3 4.6 C 0 km/h
204 08-12-2005 10:01:02 4.8 C 4.96 g/m*3 4.8 C 0 km/h
205 08-12-2005 10:11:02 4.9 C 5 g/m*3 4.9 C 0 km/h
206 08-12-2005 10:21:02 5.1 C 4.99 g/m*3 5.1 C 0 km/h
207 08-12-2005 10:31:01 5.3 C 5.06 g/m*3 5.3 C 0 km/h
208 08-12-2005 10:41:01 5.3 C 4.92 g/m*3 5.3 C 0 km/h
209 08-12-2005 10:51:02 5.2 C 4.89 g/m*3 5.2 C 0 km/h
210 08-12-2005 11:01:02 5.4 C 4.88 g/m*3 5.4 C 0 km/h
211 08-12-2005 11:11:02 5.8 C 4.94 g/m*3 5.8 C 0 km/h
212 08-12-2005 11:21:02 6.2 C 4.93 g/m*3 6.2 C 0 km/h
213 08-12-2005 11:31:02 6.2 C 4.78 g/m*3 6.2 C 0 km/h
214 08-12-2005 11:41:02 6.2 C 4.78 g/m*3 6.2 C 0 km/h
215 08-12-2005 11:51:02 6.3 C 4.81 g/m*3 6.3 C 0 km/h
216 08-12-2005 12:01:02 6.3 C 4.81 g/m*3 6.3 C 0 km/h
217 08-12-2005 12:11:02 6.6 C 4.91 g/m*3 6.6 C 0 km/h
218 08-12-2005 12:21:02 6.8 C 4.97 g/m*3 6.8 C 0 km/h
219 08-12-2005 12:31:02 6.8 C 4.82 g/m*3 6.8 C 0 km/h
220 08-12-2005 12:41:02 7 C 4.8 g/m*3 7 C 0 km/h
221 08-12-2005 12:51:02 6.9 C 4.85 g/m*3 6.9 C 0 km/h
222 08-12-2005 13:01:02 7 C 4.73 g/m*3 7 C 0 km/h
223 08-12-2005 13:11:02 6.9 C 4.77 g/m*3 6.9 C 0 km/h
224 08-12-2005 13:21:02 6.8 C 4.89 g/m*3 6.8 C 0 km/h
225 08-12-2005 13:31:03 6.6 C 4.76 g/m*3 6.6 C 0 km/h
Sensor: Nr:Datum:Temp:Abs-Feuchte:Windchill:Wind:
Aussen-T/F 226 08-12-2005 13:41:03 6.6 C 4.83 g/m*3 6.6 C 0 km/h
227 08-12-2005 13:51:02 6.5 C 4.72 g/m*3 6.5 C 0 km/h
228 08-12-2005 14:01:02 6.5 C 4.72 g/m*3 6.5 C 0 km/h
229 08-12-2005 14:11:02 6.5 C 4.72 g/m*3 6.5 C 0 km/h
230 08-12-2005 14:21:02 6.6 C 4.83 g/m*3 6.6 C 0 km/h
231 08-12-2005 14:31:03 6.6 C 4.76 g/m*3 6.6 C 0 km/h
232 08-12-2005 14:41:03 6.7 C 4.79 g/m*3 6.7 C 0 km/h
233 08-12-2005 14:51:02 6.6 C 4.76 g/m*3 6.6 C 0 km/h
234 08-12-2005 15:01:02 6.5 C 4.72 g/m*3 6.5 C 0 km/h
235 08-12-2005 15:11:02 6.5 C 4.72 g/m*3 6.5 C 0 km/h
236 08-12-2005 15:21:02 6.3 C 4.74 g/m*3 6.3 C 0 km/h
237 08-12-2005 15:31:03 6.1 C 4.89 g/m*3 6.1 C 0 km/h
238 08-12-2005 15:41:03 5.7 C 5.05 g/m*3 5.7 C 0 km/h
239 08-12-2005 15:51:02 5.4 C 5.09 g/m*3 5.4 C 0 km/h
240 08-12-2005 16:01:02 5.2 C 5.23 g/m*3 5.2 C 0 km/h
241 08-12-2005 16:11:02 5.2 C 5.37 g/m*3 5.2 C 0 km/h
242 08-12-2005 16:21:02 5.1 C 5.4 g/m*3 5.1 C 0 km/h
243 08-12-2005 16:31:03 4.9 C 5.47 g/m*3 4.9 C 0 km/h
244 08-12-2005 16:41:03 4.9 C 5.54 g/m*3 4.9 C 0 km/h
245 08-12-2005 16:51:02 4.8 C 5.5 g/m*3 4.8 C 0 km/h
246 08-12-2005 17:01:02 4.7 C 5.53 g/m*3 4.7 C 0 km/h
247 08-12-2005 17:11:02 4.6 C 5.49 g/m*3 4.6 C 0 km/h
248 08-12-2005 17:21:02 4.7 C 5.6 g/m*3 4.7 C 0 km/h
249 08-12-2005 17:31:02 4.6 C 5.56 g/m*3 4.6 C 0 km/h
250 08-12-2005 17:41:02 4.5 C 5.52 g/m*3 4.5 C 0 km/h
Sensor: Nr:Datum:Temp:Abs-Feuchte:Windchill:Wind:
Aussen-T/F 251 08-12-2005 17:51:02 4.5 C 5.59 g/m*3 4.5 C 0 km/h
252 08-12-2005 18:01:02 4.5 C 5.59 g/m*3 4.5 C 0 km/h
253 08-12-2005 18:11:02 4.4 C 5.55 g/m*3 4.4 C 0 km/h
254 08-12-2005 18:21:01 4.3 C 5.58 g/m*3 4.3 C 0 km/h
255 08-12-2005 18:31:02 4.4 C 5.62 g/m*3 4.4 C 0 km/h
256 08-12-2005 18:41:02 4.3 C 5.58 g/m*3 4.3 C 0 km/h
257 08-12-2005 18:51:01 4.2 C 5.61 g/m*3 4.2 C 0 km/h
258 08-12-2005 19:01:02 4.2 C 5.61 g/m*3 4.2 C 0 km/h
259 08-12-2005 19:11:02 4.1 C 5.57 g/m*3 4.1 C 0 km/h
260 08-12-2005 19:21:02 4.2 C 5.61 g/m*3 4.2 C 0 km/h
261 08-12-2005 19:31:02 4 C 5.53 g/m*3 4 C 0 km/h
262 08-12-2005 19:41:02 4 C 5.59 g/m*3 4 C 0 km/h
263 08-12-2005 19:51:03 3.9 C 5.62 g/m*3 3.9 C 0 km/h
264 08-12-2005 20:01:03 4 C 5.59 g/m*3 4 C 0 km/h
265 08-12-2005 20:11:03 4.1 C 5.7 g/m*3 4.1 C 0 km/h
266 08-12-2005 20:21:02 4.2 C 5.73 g/m*3 4.2 C 0 km/h
267 08-12-2005 20:31:02 4 C 5.66 g/m*3 4 C 0 km/h
268 08-12-2005 20:41:02 3.8 C 5.58 g/m*3 3.8 C 0 km/h
269 08-12-2005 20:51:02 3.8 C 5.58 g/m*3 3.8 C 0 km/h
270 08-12-2005 21:01:02 3.8 C 5.65 g/m*3 3.8 C 0 km/h
271 08-12-2005 21:11:03 3.9 C 5.68 g/m*3 3.9 C 0 km/h
272 08-12-2005 21:21:02 3.8 C 5.65 g/m*3 3.8 C 0 km/h
273 08-12-2005 21:31:01 3.8 C 5.65 g/m*3 3.8 C 0 km/h
274 08-12-2005 21:41:01 3.6 C 5.57 g/m*3 3.6 C 0 km/h
275 08-12-2005 21:51:02 3.7 C 5.61 g/m*3 3.7 C 0 km/h
Sensor: Nr:Datum:Temp:Abs-Feuchte:Windchill:Wind:
Aussen-T/F 276 08-12-2005 22:01:02 3.7 C 5.67 g/m*3 3.7 C 0 km/h
277 08-12-2005 22:11:02 3.8 C 5.71 g/m*3 3.8 C 0 km/h
278 08-12-2005 22:21:02 3.8 C 5.71 g/m*3 3.8 C 0 km/h
279 08-12-2005 22:31:03 3.8 C 5.71 g/m*3 3.8 C 0 km/h
280 08-12-2005 22:41:03 3.7 C 5.67 g/m*3 3.7 C 0 km/h
281 08-12-2005 22:51:02 3.3 C 5.46 g/m*3 3.3 C 0 km/h
282 08-12-2005 23:01:02 3 C 5.35 g/m*3 3 C 0 km/h
283 08-12-2005 23:11:02 2.7 C 5.24 g/m*3 2.7 C 0 km/h
284 08-12-2005 23:21:02 2.8 C 5.28 g/m*3 2.8 C 0 km/h
285 08-12-2005 23:31:02 3 C 5.41 g/m*3 3 C 0 km/h
286 08-12-2005 23:41:02 3 C 5.41 g/m*3 3 C 0 km/h
287 08-12-2005 23:51:02 2.9 C 5.37 g/m*3 2.9 C 0 km/h
288 09-12-2005 00:01:02 2.8 C 5.34 g/m*3 2.8 C 0 km/h
289 09-12-2005 00:11:02 2.9 C 5.43 g/m*3 2.9 C 0 km/h
290 09-12-2005 00:21:02 3 C 5.41 g/m*3 3 C 0 km/h
291 09-12-2005 00:31:02 3 C 5.41 g/m*3 3 C 0 km/h
292 09-12-2005 00:41:02 3 C 5.41 g/m*3 3 C 0 km/h
293 09-12-2005 00:51:02 3 C 5.41 g/m*3 3 C 0 km/h
294 09-12-2005 01:01:02 2.8 C 5.4 g/m*3 2.8 C 0 km/h
295 09-12-2005 01:11:02 2.8 C 5.4 g/m*3 2.8 C 0 km/h
296 09-12-2005 01:21:03 2.9 C 5.43 g/m*3 2.9 C 0 km/h
297 09-12-2005 01:31:02 2.9 C 5.43 g/m*3 2.9 C 0 km/h
298 09-12-2005 01:41:02 2.9 C 5.43 g/m*3 2.9 C 0 km/h
299 09-12-2005 01:51:02 3 C 5.47 g/m*3 3 C 0 km/h
300 09-12-2005 02:01:02 3 C 5.47 g/m*3 3 C 0 km/h
Sensor: Nr:Datum:Temp:Abs-Feuchte:Windchill:Wind:
Aussen-T/F 301 09-12-2005 02:11:02 3.1 C 5.51 g/m*3 3.1 C 0 km/h
302 09-12-2005 02:21:01 3.1 C 5.51 g/m*3 3.1 C 0 km/h
303 09-12-2005 02:31:01 3.1 C 5.51 g/m*3 3.1 C 0 km/h
304 09-12-2005 02:41:01 3.1 C 5.51 g/m*3 3.1 C 0 km/h
305 09-12-2005 02:52:03 3.1 C 5.51 g/m*3 3.1 C 0 km/h
306 09-12-2005 03:02:04 3 C 5.41 g/m*3 3 C 0 km/h
307 09-12-2005 03:12:03 3 C 5.41 g/m*3 3 C 0 km/h
308 09-12-2005 03:22:03 3 C 5.41 g/m*3 3 C 0 km/h
309 09-12-2005 03:32:02 2.9 C 5.43 g/m*3 2.9 C 0 km/h
310 09-12-2005 03:42:02 3 C 5.41 g/m*3 3 C 0 km/h
311 09-12-2005 03:52:02 3 C 5.41 g/m*3 3 C 0 km/h
312 09-12-2005 04:02:03 3.1 C 5.51 g/m*3 3.1 C 0 km/h
313 09-12-2005 04:12:03 3.1 C 5.51 g/m*3 3.1 C 0 km/h
314 09-12-2005 04:22:02 3.2 C 5.54 g/m*3 3.2 C 0 km/h
315 09-12-2005 04:32:02 3.2 C 5.48 g/m*3 3.2 C 0 km/h
316 09-12-2005 04:42:02 3.2 C 5.48 g/m*3 3.2 C 0 km/h
317 09-12-2005 04:52:01 3.2 C 5.48 g/m*3 3.2 C 0 km/h
318 09-12-2005 05:02:02 3.3 C 5.52 g/m*3 3.3 C 0 km/h
319 09-12-2005 05:12:02 3.3 C 5.52 g/m*3 3.3 C 0 km/h
320 09-12-2005 05:22:02 3.3 C 5.52 g/m*3 3.3 C 0 km/h
321 09-12-2005 05:32:01 3.2 C 5.42 g/m*3 3.2 C 0 km/h
322 09-12-2005 05:42:01 3.1 C 5.39 g/m*3 3.1 C 0 km/h
323 09-12-2005 05:52:02 3.1 C 5.39 g/m*3 3.1 C 0 km/h
324 09-12-2005 06:02:02 3.2 C 5.48 g/m*3 3.2 C 0 km/h
325 09-12-2005 06:12:02 3.3 C 5.52 g/m*3 3.3 C 0 km/h
Sensor: Nr:Datum:Temp:Abs-Feuchte:Windchill:Wind:
Aussen-T/F 326 09-12-2005 06:22:02 3.3 C 5.52 g/m*3 3.3 C 0 km/h
327 09-12-2005 06:32:02 3.4 C 5.56 g/m*3 3.4 C 0 km/h
328 09-12-2005 06:42:02 3.4 C 5.56 g/m*3 3.4 C 0 km/h
329 09-12-2005 06:52:02 3.5 C 5.53 g/m*3 3.5 C 0 km/h
330 09-12-2005 07:02:02 3.5 C 5.53 g/m*3 3.5 C 0 km/h
331 09-12-2005 07:12:02 3.5 C 5.53 g/m*3 3.5 C 0 km/h
332 09-12-2005 07:22:02 3.5 C 5.53 g/m*3 3.5 C 0 km/h
333 09-12-2005 07:32:02 3.5 C 5.53 g/m*3 3.5 C 0 km/h
334 09-12-2005 07:42:02 3.5 C 5.53 g/m*3 3.5 C 0 km/h
335 09-12-2005 07:52:02 3.5 C 5.47 g/m*3 3.5 C 0 km/h
336 09-12-2005 08:02:02 3.5 C 5.47 g/m*3 3.5 C 0 km/h
337 09-12-2005 08:12:02 3.6 C 5.51 g/m*3 3.6 C 0 km/h
338 09-12-2005 08:22:02 3.6 C 5.51 g/m*3 3.6 C 0 km/h
339 09-12-2005 08:32:02 3.6 C 5.51 g/m*3 3.6 C 0 km/h
340 09-12-2005 08:42:02 3.5 C 5.47 g/m*3 3.5 C 0 km/h
341 09-12-2005 08:52:02 3.6 C 5.51 g/m*3 3.6 C 0 km/h
342 09-12-2005 09:02:02 3.6 C 5.51 g/m*3 3.6 C 0 km/h
343 09-12-2005 09:12:02 3.6 C 5.51 g/m*3 3.6 C 0 km/h
344 09-12-2005 09:22:02 3.6 C 5.51 g/m*3 3.6 C 0 km/h
345 09-12-2005 09:32:02 3.7 C 5.55 g/m*3 3.7 C 0 km/h
346 09-12-2005 09:42:02 3.8 C 5.58 g/m*3 3.8 C 0 km/h
347 09-12-2005 09:52:02 3.9 C 5.62 g/m*3 3.9 C 0 km/h
348 09-12-2005 10:02:02 4.1 C 5.63 g/m*3 4.1 C 0 km/h
349 09-12-2005 10:12:02 4.1 C 5.57 g/m*3 4.1 C 0 km/h
350 09-12-2005 10:22:02 4.3 C 5.64 g/m*3 4.3 C 0 km/h
Sensor: Nr:Datum:Temp:Abs-Feuchte:Windchill:Wind:
Aussen-T/F 351 09-12-2005 10:32:02 4.3 C 5.64 g/m*3 4.3 C 0 km/h
352 09-12-2005 10:42:02 4.4 C 5.62 g/m*3 4.4 C 0 km/h
353 09-12-2005 10:52:02 4.4 C 5.55 g/m*3 4.4 C 0 km/h
354 09-12-2005 11:02:01 4.5 C 5.52 g/m*3 4.5 C 0 km/h
355 09-12-2005 11:12:01 4.6 C 5.56 g/m*3 4.6 C 0 km/h
356 09-12-2005 11:22:01 4.7 C 5.53 g/m*3 4.7 C 0 km/h
357 09-12-2005 11:32:02 4.7 C 5.26 g/m*3 4.7 C 0 km/h
358 09-12-2005 11:42:02 4.7 C 5.2 g/m*3 4.7 C 0 km/h
359 09-12-2005 11:52:01 4.9 C 5.27 g/m*3 4.9 C 0 km/h
360 09-12-2005 12:02:01 5 C 5.03 g/m*3 5 C 0 km/h
361 09-12-2005 12:12:01 4.9 C 5 g/m*3 4.9 C 0 km/h
362 09-12-2005 12:22:01 4.7 C 4.66 g/m*3 4.7 C 0 km/h
363 09-12-2005 12:32:02 4.4 C 4.44 g/m*3 4.4 C 0 km/h
364 09-12-2005 12:42:02 4.3 C 4.41 g/m*3 4.3 C 0 km/h
365 09-12-2005 12:52:02 4.3 C 4.48 g/m*3 4.3 C 0 km/h
366 09-12-2005 13:02:01 4.2 C 4.38 g/m*3 4.2 C 0 km/h
367 09-12-2005 13:12:01 4.2 C 4.45 g/m*3 4.2 C 0 km/h
368 09-12-2005 13:22:01 4.3 C 4.48 g/m*3 4.3 C 0 km/h
369 09-12-2005 13:32:02 4.3 C 4.48 g/m*3 4.3 C 0 km/h
370 09-12-2005 13:42:02 4.4 C 4.51 g/m*3 4.4 C 0 km/h
371 09-12-2005 13:52:02 4.5 C 4.54 g/m*3 4.5 C 0 km/h
372 09-12-2005 14:02:01 4.6 C 4.57 g/m*3 4.6 C 0 km/h
373 09-12-2005 14:12:01 4.8 C 4.56 g/m*3 4.8 C 0 km/h
374 09-12-2005 14:22:01 4.8 C 4.63 g/m*3 4.8 C 0 km/h
375 09-12-2005 14:32:01 4.8 C 4.56 g/m*3 4.8 C 0 km/h
Sensor: Nr:Datum:Temp:Abs-Feuchte:Windchill:Wind:
Aussen-T/F 376 09-12-2005 14:42:01 4.8 C 4.49 g/m*3 4.8 C 0 km/h
377 09-12-2005 14:52:02 4.7 C 4.53 g/m*3 4.7 C 0 km/h
378 09-12-2005 15:02:01 4.7 C 4.6 g/m*3 4.7 C 0 km/h
379 09-12-2005 15:12:01 4.7 C 4.6 g/m*3 4.7 C 0 km/h
380 09-12-2005 15:22:02 4.7 C 4.53 g/m*3 4.7 C 0 km/h
381 09-12-2005 15:32:01 4.7 C 4.53 g/m*3 4.7 C 0 km/h
382 09-12-2005 15:42:01 4.7 C 4.53 g/m*3 4.7 C 0 km/h
383 09-12-2005 15:52:03 4.6 C 4.63 g/m*3 4.6 C 0 km/h
384 09-12-2005 16:02:03 4.5 C 4.6 g/m*3 4.5 C 0 km/h
385 09-12-2005 16:12:04 4.3 C 4.61 g/m*3 4.3 C 0 km/h
386 09-12-2005 16:22:01 4.2 C 4.64 g/m*3 4.2 C 0 km/h
387 09-12-2005 16:32:02 4.1 C 4.67 g/m*3 4.1 C 0 km/h
388 09-12-2005 16:42:02 4 C 4.64 g/m*3 4 C 0 km/h
389 09-12-2005 16:52:02 3.9 C 4.67 g/m*3 3.9 C 0 km/h
390 09-12-2005 17:02:02 3.8 C 4.64 g/m*3 3.8 C 0 km/h
391 09-12-2005 17:12:02 3.8 C 4.64 g/m*3 3.8 C 0 km/h
392 09-12-2005 17:22:02 3.8 C 4.64 g/m*3 3.8 C 0 km/h
393 09-12-2005 17:32:02 3.7 C 4.67 g/m*3 3.7 C 0 km/h
394 09-12-2005 17:42:02 3.7 C 4.67 g/m*3 3.7 C 0 km/h
395 09-12-2005 17:52:02 3.7 C 4.74 g/m*3 3.7 C 0 km/h
396 09-12-2005 18:02:02 3.7 C 4.74 g/m*3 3.7 C 0 km/h
397 09-12-2005 18:12:02 3.7 C 4.74 g/m*3 3.7 C 0 km/h
398 09-12-2005 18:22:02 3.6 C 4.7 g/m*3 3.6 C 0 km/h
399 09-12-2005 18:32:03 3.6 C 4.7 g/m*3 3.6 C 0 km/h
400 09-12-2005 18:42:03 3.6 C 4.7 g/m*3 3.6 C 0 km/h
Sensor: Nr:Datum:Temp:Abs-Feuchte:Windchill:Wind:
Aussen-T/F 401 09-12-2005 18:52:02 3.5 C 4.67 g/m*3 3.5 C 0 km/h
402 09-12-2005 19:02:02 3.4 C 4.7 g/m*3 3.4 C 0 km/h
403 09-12-2005 19:12:02 3.5 C 4.73 g/m*3 3.5 C 0 km/h
404 09-12-2005 19:22:02 3.5 C 4.8 g/m*3 3.5 C 0 km/h
405 09-12-2005 19:32:03 3.5 C 4.8 g/m*3 3.5 C 0 km/h
406 09-12-2005 19:42:03 3.5 C 4.8 g/m*3 3.5 C 0 km/h
407 09-12-2005 19:52:02 3.4 C 4.76 g/m*3 3.4 C 0 km/h
408 09-12-2005 20:02:02 3.4 C 4.76 g/m*3 3.4 C 0 km/h
409 09-12-2005 20:12:02 3.4 C 4.83 g/m*3 3.4 C 0 km/h
410 09-12-2005 20:22:02 3.4 C 4.83 g/m*3 3.4 C 0 km/h
411 09-12-2005 20:32:03 3.4 C 4.83 g/m*3 3.4 C 0 km/h
412 09-12-2005 20:42:03 3.3 C 4.79 g/m*3 3.3 C 0 km/h
413 09-12-2005 20:52:03 3.3 C 4.79 g/m*3 3.3 C 0 km/h
414 09-12-2005 21:02:03 3.3 C 4.79 g/m*3 3.3 C 0 km/h
415 09-12-2005 21:12:03 3.3 C 4.79 g/m*3 3.3 C 0 km/h
416 09-12-2005 21:22:15 3.3 C 4.73 g/m*3 3.3 C 0 km/h
417 09-12-2005 21:32:15 3.4 C 4.76 g/m*3 3.4 C 0 km/h
418 09-12-2005 21:42:15 3.4 C 4.76 g/m*3 3.4 C 0 km/h
419 09-12-2005 21:52:16 3.3 C 4.73 g/m*3 3.3 C 0 km/h
420 09-12-2005 22:02:02 3.3 C 4.79 g/m*3 3.3 C 0 km/h
421 09-12-2005 22:12:02 3.3 C 4.79 g/m*3 3.3 C 0 km/h
422 09-12-2005 22:22:02 3.3 C 4.79 g/m*3 3.3 C 0 km/h
423 09-12-2005 22:32:02 3.2 C 4.76 g/m*3 3.2 C 0 km/h
424 09-12-2005 22:42:02 3.2 C 4.82 g/m*3 3.2 C 0 km/h
425 09-12-2005 22:52:02 3.2 C 4.82 g/m*3 3.2 C 0 km/h
Sensor: Nr:Datum:Temp:Abs-Feuchte:Windchill:Wind:
Aussen-T/F 426 09-12-2005 23:02:02 3.2 C 4.7 g/m*3 3.2 C 0 km/h
427 09-12-2005 23:12:02 3.4 C 4.76 g/m*3 3.4 C 0 km/h
428 09-12-2005 23:22:02 3.3 C 4.73 g/m*3 3.3 C 0 km/h
429 09-12-2005 23:32:02 3.4 C 4.64 g/m*3 3.4 C 0 km/h
430 09-12-2005 23:42:02 3.3 C 4.61 g/m*3 3.3 C 0 km/h
431 09-12-2005 23:52:02 3.2 C 4.58 g/m*3 3.2 C 0 km/h
432 10-12-2005 00:02:02 3.1 C 4.61 g/m*3 3.1 C 0 km/h
433 10-12-2005 00:12:02 3.1 C 4.61 g/m*3 3.1 C 0 km/h
434 10-12-2005 00:22:02 3 C 4.58 g/m*3 3 C 0 km/h
435 10-12-2005 00:32:02 3 C 4.58 g/m*3 3 C 0 km/h
436 10-12-2005 00:42:03 2.9 C 4.61 g/m*3 2.9 C 0 km/h
437 10-12-2005 00:52:02 2.8 C 4.58 g/m*3 2.8 C 0 km/h
438 10-12-2005 01:02:02 2.7 C 4.54 g/m*3 2.7 C 0 km/h
439 10-12-2005 01:12:02 2.6 C 4.46 g/m*3 2.6 C 0 km/h
440 10-12-2005 01:22:02 2.5 C 4.43 g/m*3 2.5 C 0 km/h
441 10-12-2005 01:32:02 2.5 C 4.43 g/m*3 2.5 C 0 km/h
442 10-12-2005 01:42:02 2.4 C 4.4 g/m*3 2.4 C 0 km/h
443 10-12-2005 01:52:02 2.5 C 4.48 g/m*3 2.5 C 0 km/h
444 10-12-2005 02:02:02 2.5 C 4.48 g/m*3 2.5 C 0 km/h
445 10-12-2005 02:12:02 2.5 C 4.48 g/m*3 2.5 C 0 km/h
446 10-12-2005 02:22:02 2.5 C 4.48 g/m*3 2.5 C 0 km/h
447 10-12-2005 02:32:02 2.6 C 4.46 g/m*3 2.6 C 0 km/h
448 10-12-2005 02:42:02 2.3 C 4.31 g/m*3 2.3 C 0 km/h
449 10-12-2005 02:53:04 1.9 C 4.25 g/m*3 1.9 C 0 km/h
450 10-12-2005 03:03:04 1.5 C 4.19 g/m*3 1.5 C 0 km/h
Sensor: Nr:Datum:Temp:Abs-Feuchte:Windchill:Wind:
Aussen-T/F 451 10-12-2005 03:13:05 1.1 C 4.13 g/m*3 1.1 C 0 km/h
452 10-12-2005 03:23:05 0.9 C 4.18 g/m*3 0.9 C 0 km/h
453 10-12-2005 03:33:04 0.7 C 4.12 g/m*3 0.7 C 0 km/h
454 10-12-2005 03:43:04 0.4 C 4.08 g/m*3 0.4 C 0 km/h
455 10-12-2005 03:53:04 0.3 C 4.06 g/m*3 0.3 C 0 km/h
456 10-12-2005 04:03:04 0.2 C 4.08 g/m*3 0.2 C 0 km/h
457 10-12-2005 04:13:04 0 C 4.02 g/m*3 0 C 0 km/h
458 10-12-2005 04:23:04 -0.1 C 3.99 g/m*3 -0.1 C 0 km/h
459 10-12-2005 04:33:05 -0.3 C 3.94 g/m*3 -0.3 C 0 km/h
460 10-12-2005 04:43:05 -0.3 C 3.99 g/m*3 -0.3 C 0 km/h
461 10-12-2005 04:53:04 -0.4 C 3.96 g/m*3 -0.4 C 0 km/h
462 10-12-2005 05:03:05 -0.5 C 3.93 g/m*3 -0.5 C 0 km/h
463 10-12-2005 05:13:05 -0.6 C 3.9 g/m*3 -0.6 C 0 km/h
464 10-12-2005 05:23:05 -0.7 C 3.92 g/m*3 -0.7 C 0 km/h
465 10-12-2005 05:33:05 -0.7 C 3.92 g/m*3 -0.7 C 0 km/h
466 10-12-2005 05:43:05 -0.9 C 3.87 g/m*3 -0.9 C 0 km/h
467 10-12-2005 05:53:04 -1.2 C 3.79 g/m*3 -1.2 C 0 km/h
468 10-12-2005 06:03:05 -1.3 C 3.76 g/m*3 -1.3 C 0 km/h
469 10-12-2005 06:13:05 -1.3 C 3.76 g/m*3 -1.3 C 0 km/h
470 10-12-2005 06:23:05 -1.4 C 3.74 g/m*3 -1.4 C 0 km/h
471 10-12-2005 06:33:04 -1.4 C 3.74 g/m*3 -1.4 C 0 km/h
472 10-12-2005 06:43:04 -1.6 C 3.68 g/m*3 -1.6 C 0 km/h
473 10-12-2005 06:53:05 -1.6 C 3.68 g/m*3 -1.6 C 0 km/h
474 10-12-2005 07:03:04 -1.7 C 3.7 g/m*3 -1.7 C 0 km/h
475 10-12-2005 07:13:04 -1.8 C 3.68 g/m*3 -1.8 C 0 km/h
Sensor: Nr:Datum:Temp:Abs-Feuchte:Windchill:Wind:
Aussen-T/F 476 10-12-2005 07:23:04 -1.9 C 3.65 g/m*3 -1.9 C 0 km/h
477 10-12-2005 07:33:05 -2 C 3.63 g/m*3 -2 C 0 km/h
478 10-12-2005 07:43:05 -2.2 C 3.57 g/m*3 -2.2 C 0 km/h
479 10-12-2005 07:53:04 -2.3 C 3.55 g/m*3 -2.3 C 0 km/h
480 10-12-2005 08:03:05 -2.3 C 3.55 g/m*3 -2.3 C 0 km/h
481 10-12-2005 08:13:05 -2.3 C 3.59 g/m*3 -2.3 C 0 km/h
482 10-12-2005 08:23:05 -2.1 C 3.68 g/m*3 -2.1 C 0 km/h
483 10-12-2005 08:33:04 -2.1 C 3.68 g/m*3 -2.1 C 0 km/h
484 10-12-2005 08:43:04 -2 C 3.71 g/m*3 -2 C 0 km/h
485 10-12-2005 08:53:05 -2.1 C 3.73 g/m*3 -2.1 C 0 km/h
486 10-12-2005 09:03:04 -2 C 3.75 g/m*3 -2 C 0 km/h
487 10-12-2005 09:13:04 -1.9 C 3.82 g/m*3 -1.9 C 0 km/h
488 10-12-2005 09:23:05 -1.9 C 3.82 g/m*3 -1.9 C 0 km/h
489 10-12-2005 09:33:05 -1.8 C 3.89 g/m*3 -1.8 C 0 km/h
490 10-12-2005 09:43:05 -1.7 C 3.92 g/m*3 -1.7 C 0 km/h
491 10-12-2005 09:53:05 -1.7 C 3.92 g/m*3 -1.7 C 0 km/h
492 10-12-2005 10:03:05 -1.7 C 3.92 g/m*3 -1.7 C 0 km/h
493 10-12-2005 10:13:05 -1.7 C 3.92 g/m*3 -1.7 C 0 km/h
494 10-12-2005 10:23:05 -1.7 C 3.92 g/m*3 -1.7 C 0 km/h
495 10-12-2005 10:33:04 -1.6 C 3.99 g/m*3 -1.6 C 0 km/h
496 10-12-2005 10:43:04 -1.5 C 4.02 g/m*3 -1.5 C 0 km/h
497 10-12-2005 10:53:05 -1.3 C 4.07 g/m*3 -1.3 C 0 km/h
498 10-12-2005 11:03:05 -1.2 C 4.1 g/m*3 -1.2 C 0 km/h
499 10-12-2005 11:13:05 -1.2 C 4.06 g/m*3 -1.2 C 0 km/h
500 10-12-2005 11:23:05 -1.4 C 4 g/m*3 -1.4 C 0 km/h
Sensor: Nr:Datum:Temp:Abs-Feuchte:Windchill:Wind:
Aussen-T/F 501 10-12-2005 11:33:05 -1.5 C 3.97 g/m*3 -1.5 C 0 km/h
502 10-12-2005 11:43:05 -1.5 C 3.93 g/m*3 -1.5 C 0 km/h
503 10-12-2005 11:53:05 -1.4 C 3.96 g/m*3 -1.4 C 0 km/h
504 10-12-2005 12:03:05 -1.4 C 3.96 g/m*3 -1.4 C 0 km/h
505 10-12-2005 12:13:05 -1.3 C 3.98 g/m*3 -1.3 C 0 km/h
506 10-12-2005 12:23:05 -1.3 C 3.98 g/m*3 -1.3 C 0 km/h
507 10-12-2005 12:33:05 -1.3 C 3.98 g/m*3 -1.3 C 0 km/h
508 10-12-2005 12:43:05 -1 C 4.07 g/m*3 -1 C 0 km/h
509 10-12-2005 12:53:04 -0.9 C 4.14 g/m*3 -0.9 C 0 km/h
510 10-12-2005 13:03:05 -0.6 C 4.23 g/m*3 -0.6 C 0 km/h
511 10-12-2005 13:13:05 -0.5 C 4.26 g/m*3 -0.5 C 0 km/h
512 10-12-2005 13:23:05 -0.5 C 4.26 g/m*3 -0.5 C 0 km/h
513 10-12-2005 13:33:05 -0.4 C 4.29 g/m*3 -0.4 C 0 km/h
514 10-12-2005 13:43:05 -0.4 C 4.29 g/m*3 -0.4 C 0 km/h
515 10-12-2005 13:53:05 -0.2 C 4.35 g/m*3 -0.2 C 0 km/h
516 10-12-2005 14:03:05 -0.1 C 4.33 g/m*3 -0.1 C 0 km/h
517 10-12-2005 14:13:05 -0.1 C 4.33 g/m*3 -0.1 C 0 km/h
518 10-12-2005 14:23:06 0 C 4.31 g/m*3 0 C 0 km/h
519 10-12-2005 14:33:05 -0.1 C 4.23 g/m*3 -0.1 C 0 km/h
520 10-12-2005 14:43:05 0 C 4.22 g/m*3 0 C 0 km/h
521 10-12-2005 14:53:06 0 C 4.07 g/m*3 0 C 0 km/h
522 10-12-2005 15:03:05 0.1 C 4 g/m*3 0.1 C 0 km/h
523 10-12-2005 15:13:05 0.1 C 3.85 g/m*3 0.1 C 0 km/h
524 10-12-2005 15:23:05 0 C 3.78 g/m*3 0 C 0 km/h
525 10-12-2005 15:33:05 0 C 3.73 g/m*3 0 C 0 km/h
Sensor: Nr:Datum:Temp:Abs-Feuchte:Windchill:Wind:
Aussen-T/F 526 10-12-2005 15:43:05 -0.1 C 3.56 g/m*3 -0.1 C 0 km/h
527 10-12-2005 15:53:05 0 C 3.54 g/m*3 0 C 0 km/h
528 10-12-2005 16:03:06 -0.1 C 3.46 g/m*3 -0.1 C 0 km/h
529 10-12-2005 16:13:06 0 C 3.39 g/m*3 0 C 0 km/h
530 10-12-2005 16:23:05 -0.2 C 3.35 g/m*3 -0.2 C 0 km/h
531 10-12-2005 16:33:05 -0.4 C 3.39 g/m*3 -0.4 C 0 km/h
532 10-12-2005 16:43:05 -0.5 C 3.46 g/m*3 -0.5 C 0 km/h
533 10-12-2005 16:53:05 -0.4 C 3.49 g/m*3 -0.4 C 0 km/h
534 10-12-2005 17:03:06 -0.4 C 3.44 g/m*3 -0.4 C 0 km/h
535 10-12-2005 17:13:06 -0.6 C 3.39 g/m*3 -0.6 C 0 km/h
536 10-12-2005 17:23:06 -0.4 C 3.35 g/m*3 -0.4 C 0 km/h
537 10-12-2005 17:33:05 -0.6 C 3.3 g/m*3 -0.6 C 0 km/h
538 10-12-2005 17:43:05 -1 C 3.3 g/m*3 -1 C 0 km/h
539 10-12-2005 17:53:06 -1.4 C 3.25 g/m*3 -1.4 C 0 km/h
540 10-12-2005 18:03:05 -1.5 C 3.27 g/m*3 -1.5 C 0 km/h
541 10-12-2005 18:13:05 -1.7 C 3.31 g/m*3 -1.7 C 0 km/h
542 10-12-2005 18:23:05 -1.7 C 3.31 g/m*3 -1.7 C 0 km/h
543 10-12-2005 18:33:06 -1.8 C 3.33 g/m*3 -1.8 C 0 km/h
544 10-12-2005 18:43:06 -1.9 C 3.31 g/m*3 -1.9 C 0 km/h
545 10-12-2005 18:53:06 -2 C 3.33 g/m*3 -2 C 0 km/h
546 10-12-2005 19:03:06 -2.2 C 3.33 g/m*3 -2.2 C 0 km/h
547 10-12-2005 19:13:06 -2.4 C 3.28 g/m*3 -2.4 C 0 km/h
548 10-12-2005 19:23:06 -2.5 C 3.26 g/m*3 -2.5 C 0 km/h
549 10-12-2005 19:33:06 -2.6 C 3.23 g/m*3 -2.6 C 0 km/h
550 10-12-2005 19:43:06 -2.6 C 3.27 g/m*3 -2.6 C 0 km/h
Sensor: Nr:Datum:Temp:Abs-Feuchte:Windchill:Wind:
Aussen-T/F 551 10-12-2005 19:53:05 -2.7 C 3.25 g/m*3 -2.7 C 0 km/h
552 10-12-2005 20:03:06 -2.7 C 3.29 g/m*3 -2.7 C 0 km/h
553 10-12-2005 20:13:06 -2.7 C 3.29 g/m*3 -2.7 C 0 km/h
554 10-12-2005 20:23:06 -2.7 C 3.29 g/m*3 -2.7 C 0 km/h
555 10-12-2005 20:33:06 -2.9 C 3.24 g/m*3 -2.9 C 0 km/h
556 10-12-2005 20:43:06 -2.9 C 3.24 g/m*3 -2.9 C 0 km/h
557 10-12-2005 20:53:06 -2.8 C 3.31 g/m*3 -2.8 C 0 km/h
558 10-12-2005 21:03:06 -2.8 C 3.31 g/m*3 -2.8 C 0 km/h
559 10-12-2005 21:13:06 -3 C 3.26 g/m*3 -3 C 0 km/h
560 10-12-2005 21:23:05 -3 C 3.26 g/m*3 -3 C 0 km/h
561 10-12-2005 21:33:06 -3 C 3.3 g/m*3 -3 C 0 km/h
562 10-12-2005 21:43:06 -3 C 3.3 g/m*3 -3 C 0 km/h
563 10-12-2005 21:53:06 -3.3 C 3.23 g/m*3 -3.3 C 0 km/h
564 10-12-2005 22:03:06 -3 C 3.34 g/m*3 -3 C 0 km/h
565 10-12-2005 22:13:06 -3.1 C 3.32 g/m*3 -3.1 C 0 km/h
566 10-12-2005 22:23:06 -3.2 C 3.29 g/m*3 -3.2 C 0 km/h
567 10-12-2005 22:33:06 -3.4 C 3.25 g/m*3 -3.4 C 0 km/h
568 10-12-2005 22:43:06 -3.5 C 3.22 g/m*3 -3.5 C 0 km/h
569 10-12-2005 22:53:06 -3.6 C 3.2 g/m*3 -3.6 C 0 km/h
570 10-12-2005 23:03:06 -3.5 C 3.22 g/m*3 -3.5 C 0 km/h
571 10-12-2005 23:13:06 -3.5 C 3.22 g/m*3 -3.5 C 0 km/h
572 10-12-2005 23:23:06 -3.3 C 3.31 g/m*3 -3.3 C 0 km/h
573 10-12-2005 23:33:06 -3.5 C 3.26 g/m*3 -3.5 C 0 km/h
574 10-12-2005 23:43:06 -3.7 C 3.21 g/m*3 -3.7 C 0 km/h
575 10-12-2005 23:53:06 -3.9 C 3.17 g/m*3 -3.9 C 0 km/h
Sensor: Nr:Datum:Temp:Abs-Feuchte:Windchill:Wind:
Aussen-T/F 576 11-12-2005 00:03:06 -3.9 C 3.17 g/m*3 -3.9 C 0 km/h
577 11-12-2005 00:13:06 -3.9 C 3.17 g/m*3 -3.9 C 0 km/h
578 11-12-2005 00:23:07 -3.8 C 3.19 g/m*3 -3.8 C 0 km/h
579 11-12-2005 00:33:07 -4 C 3.15 g/m*3 -4 C 0 km/h
580 11-12-2005 00:43:07 -3.9 C 3.17 g/m*3 -3.9 C 0 km/h
581 11-12-2005 00:53:07 -3.9 C 3.17 g/m*3 -3.9 C 0 km/h
582 11-12-2005 01:03:07 -4.1 C 3.12 g/m*3 -4.1 C 0 km/h
583 11-12-2005 01:13:07 -4.2 C 3.1 g/m*3 -4.2 C 0 km/h
584 11-12-2005 01:23:06 -4.2 C 3.1 g/m*3 -4.2 C 0 km/h
585 11-12-2005 01:33:07 -4.2 C 3.1 g/m*3 -4.2 C 0 km/h
586 11-12-2005 01:43:07 -4.2 C 3.1 g/m*3 -4.2 C 0 km/h
587 11-12-2005 01:53:06 -4.3 C 3.08 g/m*3 -4.3 C 0 km/h
588 11-12-2005 02:03:06 -4.2 C 3.1 g/m*3 -4.2 C 0 km/h
589 11-12-2005 02:13:06 -4.2 C 3.1 g/m*3 -4.2 C 0 km/h
590 11-12-2005 02:23:06 -4.4 C 3.06 g/m*3 -4.4 C 0 km/h
591 11-12-2005 02:33:06 -4.5 C 3.04 g/m*3 -4.5 C 0 km/h
592 11-12-2005 02:43:06 -4.5 C 3.04 g/m*3 -4.5 C 0 km/h
593 11-12-2005 02:54:07 -4.2 C 3.14 g/m*3 -4.2 C 0 km/h
594 11-12-2005 03:04:07 -4.2 C 3.14 g/m*3 -4.2 C 0 km/h
595 11-12-2005 03:14:08 -4.1 C 3.16 g/m*3 -4.1 C 0 km/h
596 11-12-2005 03:24:08 -4.4 C 3.09 g/m*3 -4.4 C 0 km/h
597 11-12-2005 03:34:08 -4.5 C 3.07 g/m*3 -4.5 C 0 km/h
598 11-12-2005 03:44:08 -4.7 C 3.03 g/m*3 -4.7 C 0 km/h
599 11-12-2005 03:54:08 -4.7 C 3.03 g/m*3 -4.7 C 0 km/h
600 11-12-2005 04:04:08 -4.8 C 3.01 g/m*3 -4.8 C 0 km/h
Sensor: Nr:Datum:Temp:Abs-Feuchte:Windchill:Wind:
Aussen-T/F 601 11-12-2005 04:14:08 -4.8 C 3.01 g/m*3 -4.8 C 0 km/h
602 11-12-2005 04:24:08 -4.7 C 3.03 g/m*3 -4.7 C 0 km/h
603 11-12-2005 04:34:08 -4.5 C 3.07 g/m*3 -4.5 C 0 km/h
604 11-12-2005 04:44:08 -4.7 C 3.03 g/m*3 -4.7 C 0 km/h
605 11-12-2005 04:54:08 -4.8 C 3.01 g/m*3 -4.8 C 0 km/h
606 11-12-2005 05:04:08 -4.9 C 2.98 g/m*3 -4.9 C 0 km/h
607 11-12-2005 05:14:08 -5 C 2.96 g/m*3 -5 C 0 km/h
608 11-12-2005 05:24:08 -5 C 2.96 g/m*3 -5 C 0 km/h
609 11-12-2005 05:34:08 -5.1 C 2.94 g/m*3 -5.1 C 0 km/h
610 11-12-2005 05:44:08 -5.1 C 2.94 g/m*3 -5.1 C 0 km/h
611 11-12-2005 05:54:07 -5 C 2.96 g/m*3 -5 C 0 km/h
612 11-12-2005 06:04:08 -5 C 2.96 g/m*3 -5 C 0 km/h
613 11-12-2005 06:14:08 -5 C 2.96 g/m*3 -5 C 0 km/h
614 11-12-2005 06:24:08 -5 C 2.96 g/m*3 -5 C 0 km/h
615 11-12-2005 06:34:08 -5.2 C 2.92 g/m*3 -5.2 C 0 km/h
616 11-12-2005 06:44:08 -5.2 C 2.92 g/m*3 -5.2 C 0 km/h
617 11-12-2005 06:54:08 -5.2 C 2.92 g/m*3 -5.2 C 0 km/h
618 11-12-2005 07:04:08 -5.2 C 2.92 g/m*3 -5.2 C 0 km/h
619 11-12-2005 07:14:08 -5.2 C 2.92 g/m*3 -5.2 C 0 km/h
620 11-12-2005 07:24:07 -5.2 C 2.92 g/m*3 -5.2 C 0 km/h
621 11-12-2005 07:34:08 -5.2 C 2.92 g/m*3 -5.2 C 0 km/h
622 11-12-2005 07:44:08 -5.2 C 2.92 g/m*3 -5.2 C 0 km/h
623 11-12-2005 07:54:08 -5.2 C 2.92 g/m*3 -5.2 C 0 km/h
624 11-12-2005 08:04:08 -5.2 C 2.92 g/m*3 -5.2 C 0 km/h
625 11-12-2005 08:14:08 -5.2 C 2.92 g/m*3 -5.2 C 0 km/h
Sensor: Nr:Datum:Temp:Abs-Feuchte:Windchill:Wind:
Aussen-T/F 626 11-12-2005 08:24:08 -5.3 C 2.9 g/m*3 -5.3 C 0 km/h
627 11-12-2005 08:34:08 -5.3 C 2.9 g/m*3 -5.3 C 0 km/h
628 11-12-2005 08:44:08 -5.2 C 2.92 g/m*3 -5.2 C 0 km/h
629 11-12-2005 08:54:08 -5.2 C 2.92 g/m*3 -5.2 C 0 km/h
630 11-12-2005 09:04:08 -5.1 C 2.94 g/m*3 -5.1 C 0 km/h
631 11-12-2005 09:14:08 -5 C 2.96 g/m*3 -5 C 0 km/h
632 11-12-2005 09:24:09 -4.9 C 2.98 g/m*3 -4.9 C 0 km/h
633 11-12-2005 09:34:08 -4.8 C 3.01 g/m*3 -4.8 C 0 km/h
634 11-12-2005 09:44:08 -4.6 C 3.08 g/m*3 -4.6 C 0 km/h
635 11-12-2005 09:54:09 -4.6 C 3.08 g/m*3 -4.6 C 0 km/h
636 11-12-2005 10:04:08 -4.5 C 3.11 g/m*3 -4.5 C 0 km/h
637 11-12-2005 10:14:08 -4.4 C 3.13 g/m*3 -4.4 C 0 km/h
638 11-12-2005 10:24:08 -4.3 C 3.15 g/m*3 -4.3 C 0 km/h
639 11-12-2005 10:34:08 -4.1 C 3.2 g/m*3 -4.1 C 0 km/h
640 11-12-2005 10:44:08 -3.8 C 3.27 g/m*3 -3.8 C 0 km/h
641 11-12-2005 10:54:08 -3.4 C 3.4 g/m*3 -3.4 C 0 km/h
642 11-12-2005 11:04:09 -3.3 C 3.42 g/m*3 -3.3 C 0 km/h
643 11-12-2005 11:14:09 -2.7 C 3.57 g/m*3 -2.7 C 0 km/h
644 11-12-2005 11:24:09 -2.2 C 3.7 g/m*3 -2.2 C 0 km/h
645 11-12-2005 11:34:09 -1.8 C 3.8 g/m*3 -1.8 C 0 km/h
646 11-12-2005 11:44:09 -1.4 C 3.91 g/m*3 -1.4 C 0 km/h
647 11-12-2005 11:54:09 -1.2 C 3.97 g/m*3 -1.2 C 0 km/h
648 11-12-2005 12:04:08 -1.2 C 3.92 g/m*3 -1.2 C 0 km/h
649 11-12-2005 12:14:08 -1.3 C 3.85 g/m*3 -1.3 C 0 km/h
650 11-12-2005 12:24:08 -1.4 C 3.82 g/m*3 -1.4 C 0 km/h
Sensor: Nr:Datum:Temp:Abs-Feuchte:Windchill:Wind:
Aussen-T/F 651 11-12-2005 12:34:08 -1.6 C 3.73 g/m*3 -1.6 C 0 km/h
652 11-12-2005 12:44:08 -1.7 C 3.7 g/m*3 -1.7 C 0 km/h
653 11-12-2005 12:54:08 -1.7 C 3.7 g/m*3 -1.7 C 0 km/h
654 11-12-2005 13:04:09 -1.7 C 3.66 g/m*3 -1.7 C 0 km/h
655 11-12-2005 13:14:09 -1.7 C 3.66 g/m*3 -1.7 C 0 km/h
656 11-12-2005 13:24:09 -1.4 C 3.78 g/m*3 -1.4 C 0 km/h
657 11-12-2005 13:34:09 -1 C 3.89 g/m*3 -1 C 0 km/h
658 11-12-2005 13:44:10 -0.3 C 4.08 g/m*3 -0.3 C 0 km/h
659 11-12-2005 13:54:09 -0.2 C 4.11 g/m*3 -0.2 C 0 km/h
660 11-12-2005 14:04:09 -0.2 C 4.06 g/m*3 -0.2 C 0 km/h
661 11-12-2005 14:14:09 -0.3 C 3.99 g/m*3 -0.3 C 0 km/h
662 11-12-2005 14:24:08 -0.1 C 3.99 g/m*3 -0.1 C 0 km/h
663 11-12-2005 14:34:09 0 C 3.97 g/m*3 0 C 0 km/h
664 11-12-2005 14:44:09 0 C 3.97 g/m*3 0 C 0 km/h
665 11-12-2005 14:54:08 -0.1 C 3.9 g/m*3 -0.1 C 0 km/h
666 11-12-2005 15:04:09 -0.2 C 3.87 g/m*3 -0.2 C 0 km/h
667 11-12-2005 15:14:09 -0.2 C 3.87 g/m*3 -0.2 C 0 km/h
668 11-12-2005 15:24:09 0.1 C 3.95 g/m*3 0.1 C 0 km/h
669 11-12-2005 15:34:09 0.4 C 3.98 g/m*3 0.4 C 0 km/h
670 11-12-2005 15:44:09 0.5 C 4.01 g/m*3 0.5 C 0 km/h
671 11-12-2005 15:54:09 0.5 C 3.96 g/m*3 0.5 C 0 km/h
672 11-12-2005 16:04:09 0.2 C 3.83 g/m*3 0.2 C 0 km/h
673 11-12-2005 16:14:09 0 C 3.78 g/m*3 0 C 0 km/h
674 11-12-2005 16:24:09 -0.4 C 3.68 g/m*3 -0.4 C 0 km/h
675 11-12-2005 16:34:09 -0.6 C 3.63 g/m*3 -0.6 C 0 km/h
Sensor: Nr:Datum:Temp:Abs-Feuchte:Windchill:Wind:
Aussen-T/F 676 11-12-2005 16:44:09 -0.9 C 3.6 g/m*3 -0.9 C 0 km/h
677 11-12-2005 16:54:09 -0.9 C 3.6 g/m*3 -0.9 C 0 km/h
678 11-12-2005 17:04:09 -1.1 C 3.59 g/m*3 -1.1 C 0 km/h
679 11-12-2005 17:14:09 -1.1 C 3.59 g/m*3 -1.1 C 0 km/h
680 11-12-2005 17:24:09 -0.9 C 3.69 g/m*3 -0.9 C 0 km/h
681 11-12-2005 17:34:09 -0.6 C 3.76 g/m*3 -0.6 C 0 km/h
682 11-12-2005 17:44:09 -0.4 C 3.82 g/m*3 -0.4 C 0 km/h
683 11-12-2005 17:54:09 -0.2 C 3.87 g/m*3 -0.2 C 0 km/h
684 11-12-2005 18:04:09 0 C 3.88 g/m*3 0 C 0 km/h
685 11-12-2005 18:14:09 0 C 3.88 g/m*3 0 C 0 km/h
686 11-12-2005 18:24:09 0.1 C 3.9 g/m*3 0.1 C 0 km/h
687 11-12-2005 18:34:10 0.2 C 3.93 g/m*3 0.2 C 0 km/h
688 11-12-2005 18:44:10 0.2 C 3.93 g/m*3 0.2 C 0 km/h
689 11-12-2005 18:54:09 0.3 C 3.91 g/m*3 0.3 C 0 km/h
690 11-12-2005 19:04:09 0.3 C 3.86 g/m*3 0.3 C 0 km/h
691 11-12-2005 19:14:09 0.2 C 3.83 g/m*3 0.2 C 0 km/h
692 11-12-2005 19:24:09 0.3 C 3.91 g/m*3 0.3 C 0 km/h
693 11-12-2005 19:34:09 0.4 C 3.88 g/m*3 0.4 C 0 km/h
694 11-12-2005 19:44:09 0.4 C 3.88 g/m*3 0.4 C 0 km/h
695 11-12-2005 19:54:09 0.4 C 3.88 g/m*3 0.4 C 0 km/h
696 11-12-2005 20:04:09 0.4 C 3.93 g/m*3 0.4 C 0 km/h
697 11-12-2005 20:14:09 0.4 C 3.93 g/m*3 0.4 C 0 km/h
698 11-12-2005 20:24:09 0.5 C 3.96 g/m*3 0.5 C 0 km/h
699 11-12-2005 20:34:10 0.5 C 3.96 g/m*3 0.5 C 0 km/h
700 11-12-2005 20:44:10 0.5 C 3.96 g/m*3 0.5 C 0 km/h
Sensor: Nr:Datum:Temp:Abs-Feuchte:Windchill:Wind:
Aussen-T/F 701 11-12-2005 20:54:10 0.5 C 3.96 g/m*3 0.5 C 0 km/h
702 11-12-2005 21:04:10 0.4 C 3.93 g/m*3 0.4 C 0 km/h
703 11-12-2005 21:14:10 0.4 C 3.93 g/m*3 0.4 C 0 km/h
704 11-12-2005 21:24:09 0.4 C 3.93 g/m*3 0.4 C 0 km/h
705 11-12-2005 21:34:09 0.4 C 3.93 g/m*3 0.4 C 0 km/h
706 11-12-2005 21:44:09 0.4 C 3.93 g/m*3 0.4 C 0 km/h
707 11-12-2005 21:54:09 0.5 C 3.96 g/m*3 0.5 C 0 km/h
708 11-12-2005 22:04:09 0.4 C 3.93 g/m*3 0.4 C 0 km/h
709 11-12-2005 22:14:09 0.4 C 3.93 g/m*3 0.4 C 0 km/h
710 11-12-2005 22:24:09 0.1 C 3.85 g/m*3 0.1 C 0 km/h
711 11-12-2005 22:34:10 0 C 3.83 g/m*3 0 C 0 km/h
712 11-12-2005 22:44:10 -0.2 C 3.78 g/m*3 -0.2 C 0 km/h
713 11-12-2005 22:54:09 -0.2 C 3.82 g/m*3 -0.2 C 0 km/h
714 11-12-2005 23:04:09 -0.2 C 3.82 g/m*3 -0.2 C 0 km/h
715 11-12-2005 23:14:09 0 C 3.88 g/m*3 0 C 0 km/h
716 11-12-2005 23:24:10 0.1 C 3.95 g/m*3 0.1 C 0 km/h
717 11-12-2005 23:34:10 0.2 C 3.98 g/m*3 0.2 C 0 km/h
718 11-12-2005 23:44:11 0.3 C 3.96 g/m*3 0.3 C 0 km/h
719 11-12-2005 23:54:10 0.3 C 3.96 g/m*3 0.3 C 0 km/h
720 12-12-2005 00:04:10 0.4 C 3.98 g/m*3 0.4 C 0 km/h
721 12-12-2005 00:14:10 0.3 C 3.96 g/m*3 0.3 C 0 km/h
722 12-12-2005 00:24:10 0.2 C 3.93 g/m*3 0.2 C 0 km/h
723 12-12-2005 00:34:09 0.2 C 3.93 g/m*3 0.2 C 0 km/h
724 12-12-2005 00:44:09 0.2 C 3.93 g/m*3 0.2 C 0 km/h
725 12-12-2005 00:54:10 0.2 C 3.93 g/m*3 0.2 C 0 km/h
Sensor: Nr:Datum:Temp:Abs-Feuchte:Windchill:Wind:
Aussen-T/F 726 12-12-2005 01:04:10 0.3 C 4.01 g/m*3 0.3 C 0 km/h
727 12-12-2005 01:14:10 0.3 C 4.01 g/m*3 0.3 C 0 km/h
728 12-12-2005 01:24:10 0.3 C 4.01 g/m*3 0.3 C 0 km/h
729 12-12-2005 01:34:09 0.3 C 4.01 g/m*3 0.3 C 0 km/h
730 12-12-2005 01:44:09 0.3 C 4.01 g/m*3 0.3 C 0 km/h
731 12-12-2005 01:54:10 0.3 C 4.01 g/m*3 0.3 C 0 km/h
732 12-12-2005 02:04:10 0.3 C 4.01 g/m*3 0.3 C 0 km/h
733 12-12-2005 02:14:10 0.2 C 3.98 g/m*3 0.2 C 0 km/h
734 12-12-2005 02:24:10 0.1 C 3.95 g/m*3 0.1 C 0 km/h
735 12-12-2005 02:34:10 0.1 C 3.95 g/m*3 0.1 C 0 km/h
736 12-12-2005 02:44:10 0 C 3.92 g/m*3 0 C 0 km/h
737 12-12-2005 02:55:12 0.1 C 3.95 g/m*3 0.1 C 0 km/h
738 12-12-2005 03:05:12 0.1 C 4 g/m*3 0.1 C 0 km/h
739 12-12-2005 03:15:12 0.1 C 4 g/m*3 0.1 C 0 km/h
740 12-12-2005 03:25:12 0.2 C 4.03 g/m*3 0.2 C 0 km/h
741 12-12-2005 03:35:12 0.2 C 4.03 g/m*3 0.2 C 0 km/h
742 12-12-2005 03:45:12 0.2 C 4.03 g/m*3 0.2 C 0 km/h
743 12-12-2005 03:55:12 0.2 C 4.03 g/m*3 0.2 C 0 km/h
744 12-12-2005 04:05:12 0.3 C 4.06 g/m*3 0.3 C 0 km/h
745 12-12-2005 04:15:12 0.3 C 4.06 g/m*3 0.3 C 0 km/h
746 12-12-2005 04:25:12 0.4 C 4.08 g/m*3 0.4 C 0 km/h
747 12-12-2005 04:35:12 0.4 C 4.08 g/m*3 0.4 C 0 km/h
748 12-12-2005 04:45:12 0.5 C 4.11 g/m*3 0.5 C 0 km/h
749 12-12-2005 04:55:12 0.5 C 4.11 g/m*3 0.5 C 0 km/h
750 12-12-2005 05:05:12 0.6 C 4.14 g/m*3 0.6 C 0 km/h
Sensor: Nr:Datum:Temp:Abs-Feuchte:Windchill:Wind:
Aussen-T/F 751 12-12-2005 05:15:12 0.6 C 4.14 g/m*3 0.6 C 0 km/h
752 12-12-2005 05:25:12 0.6 C 4.14 g/m*3 0.6 C 0 km/h
753 12-12-2005 05:35:12 0.6 C 4.19 g/m*3 0.6 C 0 km/h
754 12-12-2005 05:45:12 0.6 C 4.19 g/m*3 0.6 C 0 km/h
755 12-12-2005 05:55:12 0.6 C 4.19 g/m*3 0.6 C 0 km/h
756 12-12-2005 06:05:11 0.6 C 4.19 g/m*3 0.6 C 0 km/h
757 12-12-2005 06:15:12 0.6 C 4.19 g/m*3 0.6 C 0 km/h
758 12-12-2005 06:25:12 0.7 C 4.22 g/m*3 0.7 C 0 km/h
759 12-12-2005 06:35:12 0.7 C 4.22 g/m*3 0.7 C 0 km/h
760 12-12-2005 06:45:12 0.7 C 4.22 g/m*3 0.7 C 0 km/h
761 12-12-2005 06:55:12 0.7 C 4.22 g/m*3 0.7 C 0 km/h
762 12-12-2005 07:05:12 0.7 C 4.22 g/m*3 0.7 C 0 km/h
763 12-12-2005 07:15:12 0.7 C 4.27 g/m*3 0.7 C 0 km/h
764 12-12-2005 07:25:12 0.8 C 4.3 g/m*3 0.8 C 0 km/h
765 12-12-2005 07:35:12 0.8 C 4.3 g/m*3 0.8 C 0 km/h
766 12-12-2005 07:45:12 0.8 C 4.3 g/m*3 0.8 C 0 km/h
767 12-12-2005 07:55:12 0.9 C 4.33 g/m*3 0.9 C 0 km/h
768 12-12-2005 08:05:12 0.8 C 4.3 g/m*3 0.8 C 0 km/h
769 12-12-2005 08:15:12 0.9 C 4.33 g/m*3 0.9 C 0 km/h
770 12-12-2005 08:25:12 0.8 C 4.35 g/m*3 0.8 C 0 km/h
771 12-12-2005 08:35:12 0.8 C 4.35 g/m*3 0.8 C 0 km/h
772 12-12-2005 08:45:12 0.8 C 4.4 g/m*3 0.8 C 0 km/h
773 12-12-2005 08:55:12 0.9 C 4.48 g/m*3 0.9 C 0 km/h
774 12-12-2005 09:05:12 0.9 C 4.48 g/m*3 0.9 C 0 km/h
775 12-12-2005 09:15:12 0.9 C 4.54 g/m*3 0.9 C 0 km/h
Sensor: Nr:Datum:Temp:Abs-Feuchte:Windchill:Wind:
Aussen-T/F 776 12-12-2005 09:25:12 1 C 4.57 g/m*3 1 C 0 km/h
777 12-12-2005 09:35:13 1 C 4.57 g/m*3 1 C 0 km/h
778 12-12-2005 09:45:12 1.1 C 4.6 g/m*3 1.1 C 0 km/h
779 12-12-2005 09:55:12 1.3 C 4.66 g/m*3 1.3 C 0 km/h
780 12-12-2005 10:05:13 1.3 C 4.72 g/m*3 1.3 C 0 km/h
781 12-12-2005 10:15:12 1.4 C 4.75 g/m*3 1.4 C 0 km/h
782 12-12-2005 10:25:12 1.5 C 4.78 g/m*3 1.5 C 0 km/h
783 12-12-2005 10:35:12 1.8 C 4.88 g/m*3 1.8 C 0 km/h
784 12-12-2005 10:45:12 1.9 C 4.97 g/m*3 1.9 C 0 km/h
785 12-12-2005 10:55:12 2 C 4.95 g/m*3 2 C 0 km/h
786 12-12-2005 11:05:12 2.1 C 4.98 g/m*3 2.1 C 0 km/h
787 12-12-2005 11:15:12 2.3 C 5.05 g/m*3 2.3 C 0 km/h
788 12-12-2005 11:25:12 2.4 C 5.08 g/m*3 2.4 C 0 km/h
789 12-12-2005 11:35:13 2.4 C 5.08 g/m*3 2.4 C 0 km/h
790 12-12-2005 11:45:12 2.5 C 5.12 g/m*3 2.5 C 0 km/h
791 12-12-2005 11:55:12 2.7 C 5.19 g/m*3 2.7 C 0 km/h
792 12-12-2005 12:05:13 2.7 C 5.19 g/m*3 2.7 C 0 km/h
793 12-12-2005 12:15:12 2.6 C 5.15 g/m*3 2.6 C 0 km/h
794 12-12-2005 12:25:13 2.6 C 5.15 g/m*3 2.6 C 0 km/h
795 12-12-2005 12:35:12 2.7 C 5.19 g/m*3 2.7 C 0 km/h
796 12-12-2005 12:45:12 2.7 C 5.19 g/m*3 2.7 C 0 km/h
797 12-12-2005 12:55:12 2.7 C 5.19 g/m*3 2.7 C 0 km/h
798 12-12-2005 13:05:12 2.7 C 5.19 g/m*3 2.7 C 0 km/h
799 12-12-2005 13:15:13 2.8 C 5.22 g/m*3 2.8 C 0 km/h
800 12-12-2005 13:25:13 2.8 C 5.22 g/m*3 2.8 C 0 km/h
Sensor: Nr:Datum:Temp:Abs-Feuchte:Windchill:Wind:
Aussen-T/F 801 12-12-2005 13:35:13 2.9 C 5.26 g/m*3 2.9 C 0 km/h
802 12-12-2005 13:45:13 3 C 5.29 g/m*3 3 C 0 km/h
803 12-12-2005 13:55:13 3 C 5.29 g/m*3 3 C 0 km/h
804 12-12-2005 14:05:13 3 C 5.29 g/m*3 3 C 0 km/h
805 12-12-2005 14:15:13 3 C 5.29 g/m*3 3 C 0 km/h
806 12-12-2005 14:25:13 3 C 5.29 g/m*3 3 C 0 km/h
807 12-12-2005 14:35:12 3 C 5.29 g/m*3 3 C 0 km/h
808 12-12-2005 14:45:12 3 C 5.29 g/m*3 3 C 0 km/h
809 12-12-2005 14:55:12 3 C 5.29 g/m*3 3 C 0 km/h
810 12-12-2005 15:05:13 3 C 5.29 g/m*3 3 C 0 km/h
811 12-12-2005 15:15:13 3 C 5.29 g/m*3 3 C 0 km/h
812 12-12-2005 15:25:13 3 C 5.29 g/m*3 3 C 0 km/h
813 12-12-2005 15:35:13 3 C 5.35 g/m*3 3 C 0 km/h
814 12-12-2005 15:45:13 3 C 5.35 g/m*3 3 C 0 km/h
815 12-12-2005 15:55:13 3.1 C 5.45 g/m*3 3.1 C 0 km/h
816 12-12-2005 16:05:13 3.1 C 5.45 g/m*3 3.1 C 0 km/h
817 12-12-2005 16:15:13 3.3 C 5.58 g/m*3 3.3 C 0 km/h
818 12-12-2005 16:25:13 3.3 C 5.58 g/m*3 3.3 C 0 km/h
819 12-12-2005 16:35:12 3.4 C 5.62 g/m*3 3.4 C 0 km/h
820 12-12-2005 16:45:13 3.4 C 5.62 g/m*3 3.4 C 0 km/h
821 12-12-2005 16:55:13 3.4 C 5.62 g/m*3 3.4 C 0 km/h
822 12-12-2005 17:05:13 3.5 C 5.72 g/m*3 3.5 C 0 km/h
823 12-12-2005 17:15:13 3.6 C 5.76 g/m*3 3.6 C 0 km/h
824 12-12-2005 17:25:13 3.6 C 5.69 g/m*3 3.6 C 0 km/h
825 12-12-2005 17:35:13 3.7 C 5.73 g/m*3 3.7 C 0 km/h
Sensor: Nr:Datum:Temp:Abs-Feuchte:Windchill:Wind:
Aussen-T/F 826 12-12-2005 17:45:14 3.8 C 5.77 g/m*3 3.8 C 0 km/h
827 12-12-2005 17:55:14 3.8 C 5.77 g/m*3 3.8 C 0 km/h
828 12-12-2005 18:05:14 3.8 C 5.71 g/m*3 3.8 C 0 km/h
829 12-12-2005 18:15:13 3.8 C 5.71 g/m*3 3.8 C 0 km/h
830 12-12-2005 18:25:13 3.8 C 5.71 g/m*3 3.8 C 0 km/h
831 12-12-2005 18:35:13 3.8 C 5.71 g/m*3 3.8 C 0 km/h
832 12-12-2005 18:45:13 3.6 C 5.57 g/m*3 3.6 C 0 km/h
833 12-12-2005 18:55:13 3.5 C 5.53 g/m*3 3.5 C 0 km/h
834 12-12-2005 19:05:13 3.3 C 5.46 g/m*3 3.3 C 0 km/h
835 12-12-2005 19:15:13 3.1 C 5.39 g/m*3 3.1 C 0 km/h
836 12-12-2005 19:25:13 3.4 C 5.56 g/m*3 3.4 C 0 km/h
837 12-12-2005 19:35:14 3.5 C 5.6 g/m*3 3.5 C 0 km/h
838 12-12-2005 19:45:13 3.5 C 5.6 g/m*3 3.5 C 0 km/h
839 12-12-2005 19:55:13 3.4 C 5.56 g/m*3 3.4 C 0 km/h
840 12-12-2005 20:05:14 3.2 C 5.48 g/m*3 3.2 C 0 km/h
841 12-12-2005 20:15:13 2.9 C 5.37 g/m*3 2.9 C 0 km/h
842 12-12-2005 20:25:13 2.7 C 5.3 g/m*3 2.7 C 0 km/h
843 12-12-2005 20:35:13 2.6 C 5.27 g/m*3 2.6 C 0 km/h
844 12-12-2005 20:45:13 2.4 C 5.2 g/m*3 2.4 C 0 km/h
845 12-12-2005 20:55:13 2.1 C 5.09 g/m*3 2.1 C 0 km/h
846 12-12-2005 21:05:13 2.2 C 5.13 g/m*3 2.2 C 0 km/h
847 12-12-2005 21:15:14 2.3 C 5.16 g/m*3 2.3 C 0 km/h
848 12-12-2005 21:25:14 2 C 5.06 g/m*3 2 C 0 km/h
849 12-12-2005 21:35:13 1.8 C 5.04 g/m*3 1.8 C 0 km/h
850 12-12-2005 21:45:14 1.7 C 5.01 g/m*3 1.7 C 0 km/h
Sensor: Nr:Datum:Temp:Abs-Feuchte:Windchill:Wind:
Aussen-T/F 851 12-12-2005 21:55:14 1.7 C 5.01 g/m*3 1.7 C 0 km/h
852 12-12-2005 22:05:13 1.6 C 4.97 g/m*3 1.6 C 0 km/h
853 12-12-2005 22:15:13 1.5 C 4.94 g/m*3 1.5 C 0 km/h
854 12-12-2005 22:25:13 1.3 C 4.87 g/m*3 1.3 C 0 km/h
855 12-12-2005 22:35:13 1.1 C 4.81 g/m*3 1.1 C 0 km/h
856 12-12-2005 22:45:13 1.3 C 4.87 g/m*3 1.3 C 0 km/h
857 12-12-2005 22:55:13 1.2 C 4.84 g/m*3 1.2 C 0 km/h
858 12-12-2005 23:05:14 1.1 C 4.81 g/m*3 1.1 C 0 km/h
859 12-12-2005 23:15:14 1 C 4.78 g/m*3 1 C 0 km/h
860 12-12-2005 23:25:14 0.8 C 4.71 g/m*3 0.8 C 0 km/h
861 12-12-2005 23:35:14 0.6 C 4.65 g/m*3 0.6 C 0 km/h
862 12-12-2005 23:45:14 0.5 C 4.61 g/m*3 0.5 C 0 km/h
863 12-12-2005 23:55:14 0.3 C 4.55 g/m*3 0.3 C 0 km/h
864 13-12-2005 00:05:13 0.1 C 4.49 g/m*3 0.1 C 0 km/h
865 13-12-2005 00:15:14 0.2 C 4.52 g/m*3 0.2 C 0 km/h
866 13-12-2005 00:25:14 0.1 C 4.49 g/m*3 0.1 C 0 km/h
867 13-12-2005 00:35:14 0 C 4.46 g/m*3 0 C 0 km/h
868 13-12-2005 00:45:14 -0.3 C 4.37 g/m*3 -0.3 C 0 km/h
869 13-12-2005 00:55:14 -0.3 C 4.37 g/m*3 -0.3 C 0 km/h
870 13-12-2005 01:05:14 -0.3 C 4.37 g/m*3 -0.3 C 0 km/h
871 13-12-2005 01:15:14 -0.6 C 4.28 g/m*3 -0.6 C 0 km/h
872 13-12-2005 01:25:14 -0.8 C 4.22 g/m*3 -0.8 C 0 km/h
873 13-12-2005 01:35:14 -0.8 C 4.17 g/m*3 -0.8 C 0 km/h
874 13-12-2005 01:45:14 -0.9 C 4.14 g/m*3 -0.9 C 0 km/h
875 13-12-2005 01:55:14 -1 C 4.16 g/m*3 -1 C 0 km/h
Sensor: Nr:Datum:Temp:Abs-Feuchte:Windchill:Wind:
Aussen-T/F 876 13-12-2005 02:05:14 -1.3 C 4.03 g/m*3 -1.3 C 0 km/h
877 13-12-2005 02:15:14 -1.2 C 4.1 g/m*3 -1.2 C 0 km/h
878 13-12-2005 02:25:14 -1.4 C 4.04 g/m*3 -1.4 C 0 km/h
879 13-12-2005 02:35:15 -1.5 C 4.02 g/m*3 -1.5 C 0 km/h
880 13-12-2005 02:46:16 -1.6 C 3.94 g/m*3 -1.6 C 0 km/h
881 13-12-2005 02:56:16 -1.8 C 3.89 g/m*3 -1.8 C 0 km/h
882 13-12-2005 03:06:16 -1.8 C 3.89 g/m*3 -1.8 C 0 km/h
883 13-12-2005 03:16:16 -1.7 C 3.92 g/m*3 -1.7 C 0 km/h
884 13-12-2005 03:26:16 -1.9 C 3.86 g/m*3 -1.9 C 0 km/h
885 13-12-2005 03:36:16 -1.7 C 3.96 g/m*3 -1.7 C 0 km/h
886 13-12-2005 03:46:16 -1.9 C 3.91 g/m*3 -1.9 C 0 km/h
887 13-12-2005 03:56:16 -2.1 C 3.85 g/m*3 -2.1 C 0 km/h
888 13-12-2005 04:06:15 -2.3 C 3.76 g/m*3 -2.3 C 0 km/h
889 13-12-2005 04:16:15 -2.1 C 3.85 g/m*3 -2.1 C 0 km/h
890 13-12-2005 04:26:15 -1.8 C 3.93 g/m*3 -1.8 C 0 km/h
891 13-12-2005 04:36:15 -1.8 C 3.93 g/m*3 -1.8 C 0 km/h
892 13-12-2005 04:46:16 -1.8 C 3.98 g/m*3 -1.8 C 0 km/h
893 13-12-2005 04:56:16 -1.9 C 3.91 g/m*3 -1.9 C 0 km/h
894 13-12-2005 05:06:16 -1.9 C 3.91 g/m*3 -1.9 C 0 km/h
895 13-12-2005 05:16:16 -1.8 C 3.98 g/m*3 -1.8 C 0 km/h
896 13-12-2005 05:26:16 -1.7 C 4 g/m*3 -1.7 C 0 km/h
897 13-12-2005 05:36:16 -1.6 C 4.03 g/m*3 -1.6 C 0 km/h
898 13-12-2005 05:46:16 -1.5 C 4.06 g/m*3 -1.5 C 0 km/h
899 13-12-2005 05:56:16 -1.4 C 4.13 g/m*3 -1.4 C 0 km/h
900 13-12-2005 06:06:15 -1.1 C 4.22 g/m*3 -1.1 C 0 km/h
Sensor: Nr:Datum:Temp:Abs-Feuchte:Windchill:Wind:
Aussen-T/F 901 13-12-2005 06:16:16 -1 C 4.25 g/m*3 -1 C 0 km/h
902 13-12-2005 06:26:16 -0.9 C 4.32 g/m*3 -0.9 C 0 km/h
903 13-12-2005 06:36:16 -0.6 C 4.42 g/m*3 -0.6 C 0 km/h
904 13-12-2005 06:46:16 -0.6 C 4.42 g/m*3 -0.6 C 0 km/h
905 13-12-2005 06:56:16 -0.7 C 4.39 g/m*3 -0.7 C 0 km/h
906 13-12-2005 07:06:16 -0.5 C 4.45 g/m*3 -0.5 C 0 km/h
907 13-12-2005 07:16:16 -0.5 C 4.45 g/m*3 -0.5 C 0 km/h
908 13-12-2005 07:26:16 -0.5 C 4.45 g/m*3 -0.5 C 0 km/h
909 13-12-2005 07:36:15 -0.8 C 4.35 g/m*3 -0.8 C 0 km/h
910 13-12-2005 07:46:16 -1 C 4.29 g/m*3 -1 C 0 km/h
911 13-12-2005 07:56:17 -1.4 C 4.18 g/m*3 -1.4 C 0 km/h
912 13-12-2005 08:06:16 -1.6 C 4.12 g/m*3 -1.6 C 0 km/h
913 13-12-2005 08:16:15 -1.4 C 4.18 g/m*3 -1.4 C 0 km/h
914 13-12-2005 08:26:15 -1.2 C 4.24 g/m*3 -1.2 C 0 km/h
915 13-12-2005 08:36:16 -0.9 C 4.32 g/m*3 -0.9 C 0 km/h
916 13-12-2005 08:46:16 -0.7 C 4.39 g/m*3 -0.7 C 0 km/h
917 13-12-2005 08:56:16 -0.5 C 4.45 g/m*3 -0.5 C 0 km/h
918 13-12-2005 09:06:16 -0.4 C 4.48 g/m*3 -0.4 C 0 km/h
919 13-12-2005 09:16:16 -0.3 C 4.51 g/m*3 -0.3 C 0 km/h
920 13-12-2005 09:26:16 -0.2 C 4.54 g/m*3 -0.2 C 0 km/h
921 13-12-2005 09:36:16 -0.1 C 4.57 g/m*3 -0.1 C 0 km/h
922 13-12-2005 09:46:16 0.1 C 4.63 g/m*3 0.1 C 0 km/h
923 13-12-2005 09:56:16 0.1 C 4.63 g/m*3 0.1 C 0 km/h
924 13-12-2005 10:06:16 0.2 C 4.67 g/m*3 0.2 C 0 km/h
925 13-12-2005 10:16:16 0.4 C 4.73 g/m*3 0.4 C 0 km/h
Sensor: Nr:Datum:Temp:Abs-Feuchte:Windchill:Wind:
Aussen-T/F 926 13-12-2005 10:26:16 0.5 C 4.76 g/m*3 0.5 C 0 km/h
927 13-12-2005 10:36:16 0.6 C 4.8 g/m*3 0.6 C 0 km/h
928 13-12-2005 10:46:16 0.8 C 4.86 g/m*3 0.8 C 0 km/h
929 13-12-2005 10:56:16 1.1 C 4.96 g/m*3 1.1 C 0 km/h
930 13-12-2005 11:06:16 1.3 C 5.03 g/m*3 1.3 C 0 km/h
931 13-12-2005 11:16:17 1.4 C 5.07 g/m*3 1.4 C 0 km/h
932 13-12-2005 11:26:17 1.6 C 5.14 g/m*3 1.6 C 0 km/h
933 13-12-2005 11:36:16 1.7 C 5.17 g/m*3 1.7 C 0 km/h
934 13-12-2005 11:46:16 1.9 C 5.24 g/m*3 1.9 C 0 km/h
935 13-12-2005 11:56:16 2.2 C 5.35 g/m*3 2.2 C 0 km/h
936 13-12-2005 12:06:16 2.4 C 5.42 g/m*3 2.4 C 0 km/h
937 13-12-2005 12:16:16 2.4 C 5.42 g/m*3 2.4 C 0 km/h
938 13-12-2005 12:26:16 2.4 C 5.42 g/m*3 2.4 C 0 km/h
939 13-12-2005 12:36:17 3 C 5.65 g/m*3 3 C 0 km/h
940 13-12-2005 12:46:16 3 C 5.65 g/m*3 3 C 0 km/h
941 13-12-2005 12:56:16 3.1 C 5.69 g/m*3 3.1 C 0 km/h
942 13-12-2005 13:06:17 2.9 C 5.61 g/m*3 2.9 C 0 km/h
943 13-12-2005 13:16:17 3 C 5.65 g/m*3 3 C 0 km/h
944 13-12-2005 13:26:17 3 C 5.65 g/m*3 3 C 0 km/h
945 13-12-2005 13:36:16 3.1 C 5.63 g/m*3 3.1 C 0 km/h
946 13-12-2005 13:46:17 3.3 C 5.7 g/m*3 3.3 C 0 km/h
947 13-12-2005 13:56:17 3.4 C 5.68 g/m*3 3.4 C 0 km/h
948 13-12-2005 14:06:16 3.6 C 5.69 g/m*3 3.6 C 0 km/h
949 13-12-2005 14:16:16 3.7 C 5.73 g/m*3 3.7 C 0 km/h
950 13-12-2005 14:26:16 3.9 C 5.81 g/m*3 3.9 C 0 km/h
Sensor: Nr:Datum:Temp:Abs-Feuchte:Windchill:Wind:
Aussen-T/F 951 13-12-2005 14:36:17 4 C 5.79 g/m*3 4 C 0 km/h
952 13-12-2005 14:46:16 4 C 5.72 g/m*3 4 C 0 km/h
953 13-12-2005 14:56:16 3.9 C 5.75 g/m*3 3.9 C 0 km/h
954 13-12-2005 15:06:17 3.8 C 5.65 g/m*3 3.8 C 0 km/h
955 13-12-2005 15:16:17 3.8 C 5.65 g/m*3 3.8 C 0 km/h
956 13-12-2005 15:26:18 3.8 C 5.65 g/m*3 3.8 C 0 km/h
957 13-12-2005 15:36:16 3.7 C 5.61 g/m*3 3.7 C 0 km/h
958 13-12-2005 15:46:17 3.8 C 5.65 g/m*3 3.8 C 0 km/h
959 13-12-2005 15:56:17 3.8 C 5.65 g/m*3 3.8 C 0 km/h
960 13-12-2005 16:06:16 3.7 C 5.61 g/m*3 3.7 C 0 km/h
961 13-12-2005 16:16:16 3.7 C 5.61 g/m*3 3.7 C 0 km/h
962 13-12-2005 16:26:16 3.6 C 5.57 g/m*3 3.6 C 0 km/h
963 13-12-2005 16:36:17 3.5 C 5.53 g/m*3 3.5 C 0 km/h
964 13-12-2005 16:46:17 3.4 C 5.56 g/m*3 3.4 C 0 km/h
965 13-12-2005 16:56:17 3.4 C 5.56 g/m*3 3.4 C 0 km/h
966 13-12-2005 17:06:17 3.4 C 5.56 g/m*3 3.4 C 0 km/h
967 13-12-2005 17:16:17 3.4 C 5.56 g/m*3 3.4 C 0 km/h
968 13-12-2005 17:26:17 3.5 C 5.6 g/m*3 3.5 C 0 km/h
969 13-12-2005 17:36:17 3.5 C 5.6 g/m*3 3.5 C 0 km/h
970 13-12-2005 17:46:17 3.4 C 5.56 g/m*3 3.4 C 0 km/h
971 13-12-2005 17:56:17 3.4 C 5.56 g/m*3 3.4 C 0 km/h
972 13-12-2005 18:06:16 3.3 C 5.52 g/m*3 3.3 C 0 km/h
973 13-12-2005 18:16:17 3.4 C 5.56 g/m*3 3.4 C 0 km/h
974 13-12-2005 18:26:17 3.3 C 5.52 g/m*3 3.3 C 0 km/h
975 13-12-2005 18:36:17 3.3 C 5.52 g/m*3 3.3 C 0 km/h
Sensor: Nr:Datum:Temp:Abs-Feuchte:Windchill:Wind:
Aussen-T/F 976 13-12-2005 18:46:17 3.3 C 5.52 g/m*3 3.3 C 0 km/h
977 13-12-2005 18:56:17 3.2 C 5.48 g/m*3 3.2 C 0 km/h
978 13-12-2005 19:06:17 3.3 C 5.52 g/m*3 3.3 C 0 km/h
979 13-12-2005 19:16:17 3.3 C 5.58 g/m*3 3.3 C 0 km/h
980 13-12-2005 19:26:17 3.3 C 5.58 g/m*3 3.3 C 0 km/h
981 13-12-2005 19:36:18 3.3 C 5.58 g/m*3 3.3 C 0 km/h
982 13-12-2005 19:46:17 3.2 C 5.54 g/m*3 3.2 C 0 km/h
983 13-12-2005 19:56:17 3.2 C 5.54 g/m*3 3.2 C 0 km/h
984 13-12-2005 20:06:17 3.2 C 5.54 g/m*3 3.2 C 0 km/h
985 13-12-2005 20:16:17 3.1 C 5.51 g/m*3 3.1 C 0 km/h
986 13-12-2005 20:26:17 3.1 C 5.51 g/m*3 3.1 C 0 km/h
987 13-12-2005 20:36:17 3.1 C 5.51 g/m*3 3.1 C 0 km/h
988 13-12-2005 20:46:17 3.1 C 5.51 g/m*3 3.1 C 0 km/h
989 13-12-2005 20:56:17 3.1 C 5.51 g/m*3 3.1 C 0 km/h
990 13-12-2005 21:06:17 3 C 5.47 g/m*3 3 C 0 km/h
991 13-12-2005 21:16:18 3 C 5.47 g/m*3 3 C 0 km/h
992 13-12-2005 21:26:18 3 C 5.53 g/m*3 3 C 0 km/h
993 13-12-2005 21:36:17 3 C 5.53 g/m*3 3 C 0 km/h
994 13-12-2005 21:46:18 3 C 5.53 g/m*3 3 C 0 km/h
995 13-12-2005 21:56:18 3.1 C 5.57 g/m*3 3.1 C 0 km/h
996 13-12-2005 22:06:18 3.1 C 5.57 g/m*3 3.1 C 0 km/h
997 13-12-2005 22:16:18 3 C 5.53 g/m*3 3 C 0 km/h
998 13-12-2005 22:26:18 3 C 5.53 g/m*3 3 C 0 km/h
999 13-12-2005 22:36:17 3 C 5.53 g/m*3 3 C 0 km/h
1000 13-12-2005 22:46:17 3 C 5.53 g/m*3 3 C 0 km/h
Sensor: Nr:Datum:Temp:Abs-Feuchte:Windchill:Wind:
Aussen-T/F 1001 13-12-2005 22:56:17 2.9 C 5.49 g/m*3 2.9 C 0 km/h
1002 13-12-2005 23:06:18 2.9 C 5.49 g/m*3 2.9 C 0 km/h
1003 13-12-2005 23:16:18 2.9 C 5.49 g/m*3 2.9 C 0 km/h
1004 13-12-2005 23:26:18 2.8 C 5.46 g/m*3 2.8 C 0 km/h
1005 13-12-2005 23:36:17 2.8 C 5.46 g/m*3 2.8 C 0 km/h
1006 13-12-2005 23:46:18 2.9 C 5.49 g/m*3 2.9 C 0 km/h
1007 13-12-2005 23:56:18 2.9 C 5.49 g/m*3 2.9 C 0 km/h
1008 14-12-2005 00:06:18 2.9 C 5.49 g/m*3 2.9 C 0 km/h
1009 14-12-2005 00:16:18 2.9 C 5.49 g/m*3 2.9 C 0 km/h
1010 14-12-2005 00:26:18 2.9 C 5.49 g/m*3 2.9 C 0 km/h
1011 14-12-2005 00:36:18 2.9 C 5.49 g/m*3 2.9 C 0 km/h
1012 14-12-2005 00:46:17 2.9 C 5.49 g/m*3 2.9 C 0 km/h
1013 14-12-2005 00:56:17 2.9 C 5.43 g/m*3 2.9 C 0 km/h
1014 14-12-2005 01:06:17 2.8 C 5.4 g/m*3 2.8 C 0 km/h
1015 14-12-2005 01:16:17 2.8 C 5.4 g/m*3 2.8 C 0 km/h
1016 14-12-2005 01:26:17 2.8 C 5.4 g/m*3 2.8 C 0 km/h
1017 14-12-2005 01:36:17 2.8 C 5.4 g/m*3 2.8 C 0 km/h
1018 14-12-2005 01:46:18 2.7 C 5.36 g/m*3 2.7 C 0 km/h
1019 14-12-2005 01:56:18 2.7 C 5.36 g/m*3 2.7 C 0 km/h
1020 14-12-2005 02:06:18 2.8 C 5.4 g/m*3 2.8 C 0 km/h
1021 14-12-2005 02:16:18 2.8 C 5.4 g/m*3 2.8 C 0 km/h
1022 14-12-2005 02:26:18 2.9 C 5.43 g/m*3 2.9 C 0 km/h
1023 14-12-2005 02:36:18 2.9 C 5.43 g/m*3 2.9 C 0 km/h
1024 14-12-2005 02:47:19 3 C 5.41 g/m*3 3 C 0 km/h
1025 14-12-2005 02:57:19 3 C 5.41 g/m*3 3 C 0 km/h
Sensor: Nr:Datum:Temp:Abs-Feuchte:Windchill:Wind:
Aussen-T/F 1026 14-12-2005 03:07:19 2.9 C 5.37 g/m*3 2.9 C 0 km/h
1027 14-12-2005 03:17:19 2.9 C 5.37 g/m*3 2.9 C 0 km/h
1028 14-12-2005 03:27:20 2.9 C 5.37 g/m*3 2.9 C 0 km/h
1029 14-12-2005 03:37:19 2.9 C 5.37 g/m*3 2.9 C 0 km/h
1030 14-12-2005 03:47:19 2.9 C 5.37 g/m*3 2.9 C 0 km/h
1031 14-12-2005 03:57:19 2.9 C 5.37 g/m*3 2.9 C 0 km/h
1032 14-12-2005 04:07:20 2.9 C 5.37 g/m*3 2.9 C 0 km/h
1033 14-12-2005 04:17:19 2.8 C 5.34 g/m*3 2.8 C 0 km/h
1034 14-12-2005 04:27:20 2.8 C 5.34 g/m*3 2.8 C 0 km/h
1035 14-12-2005 04:37:19 2.8 C 5.34 g/m*3 2.8 C 0 km/h
1036 14-12-2005 04:47:20 2.8 C 5.34 g/m*3 2.8 C 0 km/h
1037 14-12-2005 04:57:20 2.9 C 5.37 g/m*3 2.9 C 0 km/h
1038 14-12-2005 05:07:20 2.9 C 5.37 g/m*3 2.9 C 0 km/h
1039 14-12-2005 05:17:19 2.9 C 5.37 g/m*3 2.9 C 0 km/h
1040 14-12-2005 05:27:19 2.9 C 5.32 g/m*3 2.9 C 0 km/h
1041 14-12-2005 05:37:19 3 C 5.29 g/m*3 3 C 0 km/h
1042 14-12-2005 05:47:19 3 C 5.29 g/m*3 3 C 0 km/h
1043 14-12-2005 05:57:19 3 C 5.29 g/m*3 3 C 0 km/h
1044 14-12-2005 06:07:20 3 C 5.29 g/m*3 3 C 0 km/h
1045 14-12-2005 06:17:20 2.8 C 5.22 g/m*3 2.8 C 0 km/h
1046 14-12-2005 06:27:20 2.8 C 5.28 g/m*3 2.8 C 0 km/h
1047 14-12-2005 06:37:20 2.9 C 5.32 g/m*3 2.9 C 0 km/h
1048 14-12-2005 06:47:20 2.9 C 5.32 g/m*3 2.9 C 0 km/h
1049 14-12-2005 06:57:20 2.9 C 5.32 g/m*3 2.9 C 0 km/h
1050 14-12-2005 07:07:20 2.8 C 5.28 g/m*3 2.8 C 0 km/h
Sensor: Nr:Datum:Temp:Abs-Feuchte:Windchill:Wind:
Aussen-T/F 1051 14-12-2005 07:17:19 2.8 C 5.28 g/m*3 2.8 C 0 km/h
1052 14-12-2005 07:27:19 2.8 C 5.28 g/m*3 2.8 C 0 km/h
1053 14-12-2005 07:37:20 2.9 C 5.32 g/m*3 2.9 C 0 km/h
1054 14-12-2005 07:47:20 2.9 C 5.32 g/m*3 2.9 C 0 km/h
1055 14-12-2005 07:57:20 2.9 C 5.26 g/m*3 2.9 C 0 km/h
1056 14-12-2005 08:07:19 2.9 C 5.26 g/m*3 2.9 C 0 km/h
1057 14-12-2005 08:17:20 2.9 C 5.26 g/m*3 2.9 C 0 km/h
1058 14-12-2005 08:27:20 2.9 C 5.26 g/m*3 2.9 C 0 km/h
1059 14-12-2005 08:37:20 2.9 C 5.32 g/m*3 2.9 C 0 km/h
1060 14-12-2005 08:47:20 2.9 C 5.32 g/m*3 2.9 C 0 km/h
1061 14-12-2005 08:57:20 3.1 C 5.39 g/m*3 3.1 C 0 km/h
1062 14-12-2005 09:07:20 3.1 C 5.39 g/m*3 3.1 C 0 km/h
1063 14-12-2005 09:17:20 3 C 5.35 g/m*3 3 C 0 km/h
1064 14-12-2005 09:27:20 3.1 C 5.39 g/m*3 3.1 C 0 km/h
1065 14-12-2005 09:37:20 3.2 C 5.42 g/m*3 3.2 C 0 km/h
1066 14-12-2005 09:47:20 3.2 C 5.42 g/m*3 3.2 C 0 km/h
1067 14-12-2005 09:57:20 3.3 C 5.46 g/m*3 3.3 C 0 km/h
1068 14-12-2005 10:07:20 3.3 C 5.46 g/m*3 3.3 C 0 km/h
1069 14-12-2005 10:17:21 3.5 C 5.47 g/m*3 3.5 C 0 km/h
1070 14-12-2005 10:27:21 3.5 C 5.47 g/m*3 3.5 C 0 km/h
1071 14-12-2005 10:37:20 3.5 C 5.47 g/m*3 3.5 C 0 km/h
1072 14-12-2005 10:47:21 3.6 C 5.51 g/m*3 3.6 C 0 km/h
1073 14-12-2005 10:57:21 3.5 C 5.53 g/m*3 3.5 C 0 km/h
1074 14-12-2005 11:07:20 3.4 C 5.5 g/m*3 3.4 C 0 km/h
1075 14-12-2005 11:17:20 3.4 C 5.56 g/m*3 3.4 C 0 km/h
Sensor: Nr:Datum:Temp:Abs-Feuchte:Windchill:Wind:
Aussen-T/F 1076 14-12-2005 11:27:20 3.6 C 5.63 g/m*3 3.6 C 0 km/h
1077 14-12-2005 11:37:20 3.6 C 5.69 g/m*3 3.6 C 0 km/h
1078 14-12-2005 11:47:20 3.5 C 5.66 g/m*3 3.5 C 0 km/h
1079 14-12-2005 11:57:20 3.5 C 5.66 g/m*3 3.5 C 0 km/h
1080 14-12-2005 12:07:20 3.6 C 5.69 g/m*3 3.6 C 0 km/h
1081 14-12-2005 12:17:21 3.7 C 5.73 g/m*3 3.7 C 0 km/h
1082 14-12-2005 12:27:21 3.8 C 5.77 g/m*3 3.8 C 0 km/h
1083 14-12-2005 12:37:21 3.9 C 5.81 g/m*3 3.9 C 0 km/h
1084 14-12-2005 12:47:20 4.1 C 5.82 g/m*3 4.1 C 0 km/h
1085 14-12-2005 12:57:20 4.3 C 5.9 g/m*3 4.3 C 0 km/h
1086 14-12-2005 13:07:21 4.3 C 5.9 g/m*3 4.3 C 0 km/h
1087 14-12-2005 13:17:20 4.3 C 5.9 g/m*3 4.3 C 0 km/h
1088 14-12-2005 13:27:21 4.4 C 5.94 g/m*3 4.4 C 0 km/h
1089 14-12-2005 13:37:20 4.5 C 5.98 g/m*3 4.5 C 0 km/h
1090 14-12-2005 13:47:20 4.6 C 6.02 g/m*3 4.6 C 0 km/h
1091 14-12-2005 13:57:20 4.5 C 5.98 g/m*3 4.5 C 0 km/h
1092 14-12-2005 14:07:20 4.4 C 5.94 g/m*3 4.4 C 0 km/h
1093 14-12-2005 14:17:21 4.5 C 5.98 g/m*3 4.5 C 0 km/h
1094 14-12-2005 14:27:21 4.6 C 6.02 g/m*3 4.6 C 0 km/h
1095 14-12-2005 14:37:21 4.7 C 6.06 g/m*3 4.7 C 0 km/h
1096 14-12-2005 14:47:21 4.7 C 6.06 g/m*3 4.7 C 0 km/h
1097 14-12-2005 14:57:21 4.9 C 6.14 g/m*3 4.9 C 0 km/h
1098 14-12-2005 15:07:21 5.2 C 6.27 g/m*3 5.2 C 0 km/h
1099 14-12-2005 15:17:20 5.3 C 6.31 g/m*3 5.3 C 0 km/h
1100 14-12-2005 15:27:20 5.3 C 6.31 g/m*3 5.3 C 0 km/h
Sensor: Nr:Datum:Temp:Abs-Feuchte:Windchill:Wind:
Aussen-T/F 1101 14-12-2005 15:37:20 5.2 C 6.27 g/m*3 5.2 C 0 km/h
1102 14-12-2005 15:47:20 5.3 C 6.31 g/m*3 5.3 C 0 km/h
1103 14-12-2005 15:57:20 5.2 C 6.27 g/m*3 5.2 C 0 km/h
1104 14-12-2005 16:07:20 5.2 C 6.27 g/m*3 5.2 C 0 km/h
1105 14-12-2005 16:17:21 5.1 C 6.22 g/m*3 5.1 C 0 km/h
1106 14-12-2005 16:27:21 5 C 6.18 g/m*3 5 C 0 km/h
1107 14-12-2005 16:37:21 4.9 C 6.21 g/m*3 4.9 C 0 km/h
1108 14-12-2005 16:47:21 4.9 C 6.21 g/m*3 4.9 C 0 km/h
1109 14-12-2005 16:57:21 4.8 C 6.17 g/m*3 4.8 C 0 km/h
1110 14-12-2005 17:07:21 4.8 C 6.17 g/m*3 4.8 C 0 km/h
1111 14-12-2005 17:17:21 4.8 C 6.17 g/m*3 4.8 C 0 km/h
1112 14-12-2005 17:27:21 4.7 C 6.13 g/m*3 4.7 C 0 km/h
1113 14-12-2005 17:37:21 4.7 C 6.19 g/m*3 4.7 C 0 km/h
1114 14-12-2005 17:47:21 4.7 C 6.19 g/m*3 4.7 C 0 km/h
1115 14-12-2005 17:57:21 4.9 C 6.28 g/m*3 4.9 C 0 km/h
1116 14-12-2005 18:07:21 4.7 C 6.19 g/m*3 4.7 C 0 km/h
1117 14-12-2005 18:17:22 4.7 C 6.19 g/m*3 4.7 C 0 km/h
1118 14-12-2005 18:27:22 4.6 C 6.15 g/m*3 4.6 C 0 km/h
1119 14-12-2005 18:37:21 4.6 C 6.15 g/m*3 4.6 C 0 km/h
1120 14-12-2005 18:47:21 4.6 C 6.22 g/m*3 4.6 C 0 km/h
1121 14-12-2005 18:57:21 4.8 C 6.3 g/m*3 4.8 C 0 km/h
1122 14-12-2005 19:07:21 4.7 C 6.26 g/m*3 4.7 C 0 km/h
1123 14-12-2005 19:17:21 4.7 C 6.26 g/m*3 4.7 C 0 km/h
1124 14-12-2005 19:27:21 4.7 C 6.26 g/m*3 4.7 C 0 km/h
1125 14-12-2005 19:37:21 4.8 C 6.3 g/m*3 4.8 C 0 km/h
Sensor: Nr:Datum:Temp:Abs-Feuchte:Windchill:Wind:
Aussen-T/F 1126 14-12-2005 19:47:21 4.7 C 6.26 g/m*3 4.7 C 0 km/h
1127 14-12-2005 19:57:21 4.7 C 6.26 g/m*3 4.7 C 0 km/h
1128 14-12-2005 20:07:21 4.7 C 6.33 g/m*3 4.7 C 0 km/h
1129 14-12-2005 20:17:21 4.7 C 6.33 g/m*3 4.7 C 0 km/h
1130 14-12-2005 20:27:21 4.7 C 6.33 g/m*3 4.7 C 0 km/h
1131 14-12-2005 20:37:21 4.6 C 6.29 g/m*3 4.6 C 0 km/h
1132 14-12-2005 20:47:22 4.6 C 6.29 g/m*3 4.6 C 0 km/h
1133 14-12-2005 20:57:22 4.6 C 6.29 g/m*3 4.6 C 0 km/h
1134 14-12-2005 21:07:21 4.6 C 6.29 g/m*3 4.6 C 0 km/h
1135 14-12-2005 21:17:21 4.6 C 6.29 g/m*3 4.6 C 0 km/h
1136 14-12-2005 21:27:21 4.6 C 6.29 g/m*3 4.6 C 0 km/h
1137 14-12-2005 21:37:21 4.6 C 6.29 g/m*3 4.6 C 0 km/h
1138 14-12-2005 21:47:21 4.7 C 6.33 g/m*3 4.7 C 0 km/h
1139 14-12-2005 21:57:21 4.7 C 6.33 g/m*3 4.7 C 0 km/h
1140 14-12-2005 22:07:21 4.6 C 6.29 g/m*3 4.6 C 0 km/h
1141 14-12-2005 22:17:21 4.6 C 6.29 g/m*3 4.6 C 0 km/h
1142 14-12-2005 22:27:21 4.7 C 6.33 g/m*3 4.7 C 0 km/h
1143 14-12-2005 22:37:21 4.6 C 6.29 g/m*3 4.6 C 0 km/h
1144 14-12-2005 22:47:22 4.7 C 6.33 g/m*3 4.7 C 0 km/h
1145 14-12-2005 22:57:22 4.7 C 6.33 g/m*3 4.7 C 0 km/h
1146 14-12-2005 23:07:21 4.8 C 6.37 g/m*3 4.8 C 0 km/h
1147 14-12-2005 23:17:21 4.8 C 6.37 g/m*3 4.8 C 0 km/h
1148 14-12-2005 23:27:21 4.9 C 6.41 g/m*3 4.9 C 0 km/h
1149 14-12-2005 23:37:22 4.8 C 6.37 g/m*3 4.8 C 0 km/h
1150 14-12-2005 23:47:21 4.9 C 6.41 g/m*3 4.9 C 0 km/h
Sensor: Nr:Datum:Temp:Abs-Feuchte:Windchill:Wind:
Aussen-T/F 1151 14-12-2005 23:57:21 4.8 C 6.37 g/m*3 4.8 C 0 km/h
1152 15-12-2005 00:07:22 5 C 6.46 g/m*3 5 C 0 km/h
1153 15-12-2005 00:17:22 5 C 6.46 g/m*3 5 C 0 km/h
1154 15-12-2005 00:27:22 5.1 C 6.5 g/m*3 5.1 C 0 km/h
1155 15-12-2005 00:37:22 5.1 C 6.5 g/m*3 5.1 C 0 km/h
1156 15-12-2005 00:47:21 5.1 C 6.5 g/m*3 5.1 C 0 km/h
1157 15-12-2005 00:57:21 5.1 C 6.5 g/m*3 5.1 C 0 km/h
1158 15-12-2005 01:07:22 5.1 C 6.43 g/m*3 5.1 C 0 km/h
1159 15-12-2005 01:17:22 5 C 6.32 g/m*3 5 C 0 km/h
1160 15-12-2005 01:27:22 5 C 6.32 g/m*3 5 C 0 km/h
1161 15-12-2005 01:37:22 5 C 6.25 g/m*3 5 C 0 km/h
1162 15-12-2005 01:47:22 4.8 C 6.1 g/m*3 4.8 C 0 km/h
1163 15-12-2005 01:57:22 4.7 C 6 g/m*3 4.7 C 0 km/h
1164 15-12-2005 02:07:22 4.5 C 5.85 g/m*3 4.5 C 0 km/h
1165 15-12-2005 02:17:22 4.6 C 5.89 g/m*3 4.6 C 0 km/h
1166 15-12-2005 02:27:22 4.6 C 5.96 g/m*3 4.6 C 0 km/h
1167 15-12-2005 02:37:22 4.7 C 6 g/m*3 4.7 C 0 km/h
1168 15-12-2005 02:48:23 4.7 C 6 g/m*3 4.7 C 0 km/h
1169 15-12-2005 02:58:23 4.7 C 6 g/m*3 4.7 C 0 km/h
1170 15-12-2005 03:08:23 4.7 C 6 g/m*3 4.7 C 0 km/h
1171 15-12-2005 03:18:23 4.7 C 6 g/m*3 4.7 C 0 km/h
1172 15-12-2005 03:28:23 4.6 C 5.96 g/m*3 4.6 C 0 km/h
1173 15-12-2005 03:38:23 4.4 C 5.88 g/m*3 4.4 C 0 km/h
1174 15-12-2005 03:48:23 4.3 C 5.84 g/m*3 4.3 C 0 km/h
1175 15-12-2005 03:58:23 4.4 C 5.94 g/m*3 4.4 C 0 km/h
Sensor: Nr:Datum:Temp:Abs-Feuchte:Windchill:Wind:
Aussen-T/F 1176 15-12-2005 04:08:24 4.5 C 6.05 g/m*3 4.5 C 0 km/h
1177 15-12-2005 04:18:23 4.4 C 6.01 g/m*3 4.4 C 0 km/h
1178 15-12-2005 04:28:24 4.1 C 5.82 g/m*3 4.1 C 0 km/h
1179 15-12-2005 04:38:23 4 C 5.79 g/m*3 4 C 0 km/h
1180 15-12-2005 04:48:23 4.1 C 5.82 g/m*3 4.1 C 0 km/h
1181 15-12-2005 04:58:23 4.2 C 5.93 g/m*3 4.2 C 0 km/h
1182 15-12-2005 05:08:23 4.2 C 5.86 g/m*3 4.2 C 0 km/h
1183 15-12-2005 05:18:23 4.2 C 5.86 g/m*3 4.2 C 0 km/h
1184 15-12-2005 05:28:23 4.2 C 5.8 g/m*3 4.2 C 0 km/h
1185 15-12-2005 05:38:23 4.3 C 5.77 g/m*3 4.3 C 0 km/h
1186 15-12-2005 05:48:23 4.2 C 5.67 g/m*3 4.2 C 0 km/h
1187 15-12-2005 05:58:23 4.2 C 5.67 g/m*3 4.2 C 0 km/h
1188 15-12-2005 06:08:23 4.1 C 5.63 g/m*3 4.1 C 0 km/h
1189 15-12-2005 06:18:24 4.1 C 5.57 g/m*3 4.1 C 0 km/h
1190 15-12-2005 06:28:24 4.1 C 5.57 g/m*3 4.1 C 0 km/h
1191 15-12-2005 06:38:23 4.1 C 5.5 g/m*3 4.1 C 0 km/h
1192 15-12-2005 06:48:23 4.1 C 5.44 g/m*3 4.1 C 0 km/h
1193 15-12-2005 06:58:23 4.1 C 5.44 g/m*3 4.1 C 0 km/h
1194 15-12-2005 07:08:23 4 C 5.4 g/m*3 4 C 0 km/h
1195 15-12-2005 07:18:23 3.8 C 5.4 g/m*3 3.8 C 0 km/h
1196 15-12-2005 07:28:23 3.5 C 5.29 g/m*3 3.5 C 0 km/h
1197 15-12-2005 07:38:23 3.5 C 5.35 g/m*3 3.5 C 0 km/h
1198 15-12-2005 07:48:24 3.7 C 5.42 g/m*3 3.7 C 0 km/h
1199 15-12-2005 07:58:24 4 C 5.47 g/m*3 4 C 0 km/h
1200 15-12-2005 08:08:23 4 C 5.4 g/m*3 4 C 0 km/h
Sensor: Nr:Datum:Temp:Abs-Feuchte:Windchill:Wind:
Aussen-T/F 1201 15-12-2005 08:18:23 3.9 C 5.37 g/m*3 3.9 C 0 km/h
1202 15-12-2005 08:28:23 3.9 C 5.37 g/m*3 3.9 C 0 km/h
1203 15-12-2005 08:38:23 4 C 5.34 g/m*3 4 C 0 km/h
1204 15-12-2005 08:48:23 3.9 C 5.31 g/m*3 3.9 C 0 km/h
1205 15-12-2005 08:58:23 3.9 C 5.31 g/m*3 3.9 C 0 km/h
1206 15-12-2005 09:08:23 4 C 5.28 g/m*3 4 C 0 km/h
1207 15-12-2005 09:18:24 4 C 5.28 g/m*3 4 C 0 km/h
1208 15-12-2005 09:28:24 4 C 5.34 g/m*3 4 C 0 km/h
1209 15-12-2005 09:38:24 4.1 C 5.31 g/m*3 4.1 C 0 km/h
1210 15-12-2005 09:48:24 4.2 C 5.35 g/m*3 4.2 C 0 km/h
1211 15-12-2005 09:58:24 4.3 C 5.38 g/m*3 4.3 C 0 km/h
1212 15-12-2005 10:08:24 4.4 C 5.42 g/m*3 4.4 C 0 km/h
1213 15-12-2005 10:18:23 4.3 C 5.38 g/m*3 4.3 C 0 km/h
1214 15-12-2005 10:28:23 4.4 C 5.48 g/m*3 4.4 C 0 km/h
1215 15-12-2005 10:38:23 4.6 C 5.49 g/m*3 4.6 C 0 km/h
1216 15-12-2005 10:48:23 4.7 C 5.53 g/m*3 4.7 C 0 km/h
1217 15-12-2005 10:58:23 4.9 C 5.6 g/m*3 4.9 C 0 km/h
1218 15-12-2005 11:08:23 5.2 C 5.65 g/m*3 5.2 C 0 km/h
1219 15-12-2005 11:18:24 5.4 C 5.58 g/m*3 5.4 C 0 km/h
1220 15-12-2005 11:28:24 5.7 C 5.55 g/m*3 5.7 C 0 km/h
1221 15-12-2005 11:38:24 5.7 C 5.48 g/m*3 5.7 C 0 km/h
1222 15-12-2005 11:48:24 5.7 C 5.41 g/m*3 5.7 C 0 km/h
1223 15-12-2005 11:58:24 5.8 C 5.44 g/m*3 5.8 C 0 km/h
1224 15-12-2005 12:08:24 6 C 5.37 g/m*3 6 C 0 km/h
1225 15-12-2005 12:18:24 6.5 C 5.25 g/m*3 6.5 C 0 km/h
Sensor: Nr:Datum:Temp:Abs-Feuchte:Windchill:Wind:
Aussen-T/F 1226 15-12-2005 12:28:24 6.5 C 5.25 g/m*3 6.5 C 0 km/h
1227 15-12-2005 12:38:23 6.3 C 5.18 g/m*3 6.3 C 0 km/h
1228 15-12-2005 12:48:24 6.5 C 5.17 g/m*3 6.5 C 0 km/h
1229 15-12-2005 12:58:24 6.8 C 5.2 g/m*3 6.8 C 0 km/h
1230 15-12-2005 13:08:24 6.8 C 5.12 g/m*3 6.8 C 0 km/h
1231 15-12-2005 13:18:24 6.9 C 5.08 g/m*3 6.9 C 0 km/h
1232 15-12-2005 13:28:24 7 C 5.04 g/m*3 7 C 0 km/h
1233 15-12-2005 13:38:24 6.9 C 5.16 g/m*3 6.9 C 0 km/h
1234 15-12-2005 13:48:24 7 C 5.11 g/m*3 7 C 0 km/h
1235 15-12-2005 13:58:24 7.1 C 5.07 g/m*3 7.1 C 0 km/h
1236 15-12-2005 14:08:24 7.1 C 5.23 g/m*3 7.1 C 0 km/h
1237 15-12-2005 14:18:24 6.9 C 5.23 g/m*3 6.9 C 0 km/h
1238 15-12-2005 14:28:24 6.9 C 5.23 g/m*3 6.9 C 0 km/h
1239 15-12-2005 14:38:24 6.8 C 5.28 g/m*3 6.8 C 0 km/h
1240 15-12-2005 14:48:24 6.8 C 5.28 g/m*3 6.8 C 0 km/h
1241 15-12-2005 14:58:24 6.6 C 5.28 g/m*3 6.6 C 0 km/h
1242 15-12-2005 15:08:24 6.6 C 5.36 g/m*3 6.6 C 0 km/h
1243 15-12-2005 15:18:24 6.3 C 5.48 g/m*3 6.3 C 0 km/h
1244 15-12-2005 15:28:25 6.3 C 5.48 g/m*3 6.3 C 0 km/h
1245 15-12-2005 15:38:24 6.1 C 5.55 g/m*3 6.1 C 0 km/h
1246 15-12-2005 15:48:24 6.2 C 5.52 g/m*3 6.2 C 0 km/h
1247 15-12-2005 15:58:25 6.2 C 5.52 g/m*3 6.2 C 0 km/h
1248 15-12-2005 16:08:24 6.3 C 5.48 g/m*3 6.3 C 0 km/h
1249 15-12-2005 16:18:24 6.3 C 5.48 g/m*3 6.3 C 0 km/h
1250 15-12-2005 16:28:24 6.2 C 5.52 g/m*3 6.2 C 0 km/h
Sensor: Nr:Datum:Temp:Abs-Feuchte:Windchill:Wind:
Aussen-T/F 1251 15-12-2005 16:38:25 6.3 C 5.55 g/m*3 6.3 C 0 km/h
1252 15-12-2005 16:48:24 6.4 C 5.59 g/m*3 6.4 C 0 km/h
1253 15-12-2005 16:58:25 6.3 C 5.7 g/m*3 6.3 C 0 km/h
1254 15-12-2005 17:08:24 6.2 C 5.74 g/m*3 6.2 C 0 km/h
1255 15-12-2005 17:18:24 6 C 5.88 g/m*3 6 C 0 km/h
1256 15-12-2005 17:28:24 6 C 5.95 g/m*3 6 C 0 km/h
1257 15-12-2005 17:38:25 6 C 5.88 g/m*3 6 C 0 km/h
1258 15-12-2005 17:48:24 6.2 C 5.81 g/m*3 6.2 C 0 km/h
1259 15-12-2005 17:58:24 6.7 C 5.62 g/m*3 6.7 C 0 km/h
1260 15-12-2005 18:08:24 6.9 C 5.54 g/m*3 6.9 C 0 km/h
1261 15-12-2005 18:18:24 6.9 C 5.47 g/m*3 6.9 C 0 km/h
1262 15-12-2005 18:28:24 7.2 C 5.34 g/m*3 7.2 C 0 km/h
1263 15-12-2005 18:38:25 7.3 C 5.29 g/m*3 7.3 C 0 km/h
1264 15-12-2005 18:48:24 7.3 C 5.29 g/m*3 7.3 C 0 km/h
1265 15-12-2005 18:58:24 7.4 C 5.25 g/m*3 7.4 C 0 km/h
1266 15-12-2005 19:08:25 7.4 C 5.25 g/m*3 7.4 C 0 km/h
1267 15-12-2005 19:18:25 7.3 C 5.29 g/m*3 7.3 C 0 km/h
1268 15-12-2005 19:28:25 7.4 C 5.25 g/m*3 7.4 C 0 km/h
1269 15-12-2005 19:38:24 7.3 C 5.21 g/m*3 7.3 C 0 km/h
1270 15-12-2005 19:48:25 7.3 C 5.21 g/m*3 7.3 C 0 km/h
1271 15-12-2005 19:58:25 7.1 C 5.15 g/m*3 7.1 C 0 km/h
1272 15-12-2005 20:08:24 7.3 C 5.14 g/m*3 7.3 C 0 km/h
1273 15-12-2005 20:18:24 7.1 C 5.07 g/m*3 7.1 C 0 km/h
1274 15-12-2005 20:28:24 7 C 5.11 g/m*3 7 C 0 km/h
1275 15-12-2005 20:38:25 6.9 C 5.16 g/m*3 6.9 C 0 km/h
Sensor: Nr:Datum:Temp:Abs-Feuchte:Windchill:Wind:
Aussen-T/F 1276 15-12-2005 20:48:24 7 C 5.04 g/m*3 7 C 0 km/h
1277 15-12-2005 20:58:24 7 C 5.04 g/m*3 7 C 0 km/h
1278 15-12-2005 21:08:24 7.1 C 4.99 g/m*3 7.1 C 0 km/h
1279 15-12-2005 21:18:25 7.2 C 5.02 g/m*3 7.2 C 0 km/h
1280 15-12-2005 21:28:25 7.2 C 4.95 g/m*3 7.2 C 0 km/h
1281 15-12-2005 21:38:25 7.1 C 4.91 g/m*3 7.1 C 0 km/h
1282 15-12-2005 21:48:25 7.1 C 4.91 g/m*3 7.1 C 0 km/h
1283 15-12-2005 21:58:25 7 C 4.88 g/m*3 7 C 0 km/h
1284 15-12-2005 22:08:26 7.1 C 4.91 g/m*3 7.1 C 0 km/h
1285 15-12-2005 22:18:25 7 C 4.96 g/m*3 7 C 0 km/h
1286 15-12-2005 22:28:25 6.9 C 5 g/m*3 6.9 C 0 km/h
1287 15-12-2005 22:38:25 6.7 C 5.01 g/m*3 6.7 C 0 km/h
1288 15-12-2005 22:48:25 6.5 C 5.02 g/m*3 6.5 C 0 km/h
1289 15-12-2005 22:58:25 6.4 C 4.99 g/m*3 6.4 C 0 km/h
1290 15-12-2005 23:08:25 6.4 C 4.99 g/m*3 6.4 C 0 km/h
1291 15-12-2005 23:18:25 6.3 C 5.03 g/m*3 6.3 C 0 km/h
1292 15-12-2005 23:28:25 6.3 C 4.96 g/m*3 6.3 C 0 km/h
1293 15-12-2005 23:38:25 6.1 C 4.97 g/m*3 6.1 C 0 km/h
1294 15-12-2005 23:48:25 6 C 5.01 g/m*3 6 C 0 km/h
1295 15-12-2005 23:58:25 6.1 C 5.04 g/m*3 6.1 C 0 km/h
1296 16-12-2005 00:08:25 6.2 C 5.15 g/m*3 6.2 C 0 km/h
1297 16-12-2005 00:18:25 6.2 C 5.15 g/m*3 6.2 C 0 km/h
1298 16-12-2005 00:28:25 6.2 C 5.22 g/m*3 6.2 C 0 km/h
1299 16-12-2005 00:38:25 6.2 C 5.22 g/m*3 6.2 C 0 km/h
1300 16-12-2005 00:48:26 6.2 C 5.29 g/m*3 6.2 C 0 km/h
Sensor: Nr:Datum:Temp:Abs-Feuchte:Windchill:Wind:
Aussen-T/F 1301 16-12-2005 00:58:26 6.3 C 5.33 g/m*3 6.3 C 0 km/h
1302 16-12-2005 01:08:26 6.4 C 5.36 g/m*3 6.4 C 0 km/h
1303 16-12-2005 01:18:26 6.5 C 5.32 g/m*3 6.5 C 0 km/h
1304 16-12-2005 01:28:26 6.6 C 5.36 g/m*3 6.6 C 0 km/h
1305 16-12-2005 01:38:25 6.7 C 5.39 g/m*3 6.7 C 0 km/h
1306 16-12-2005 01:48:25 6.7 C 5.39 g/m*3 6.7 C 0 km/h
1307 16-12-2005 01:58:25 6.8 C 5.43 g/m*3 6.8 C 0 km/h
1308 16-12-2005 02:08:25 6.8 C 5.43 g/m*3 6.8 C 0 km/h
1309 16-12-2005 02:18:26 6.9 C 5.39 g/m*3 6.9 C 0 km/h
1310 16-12-2005 02:28:26 7 C 5.35 g/m*3 7 C 0 km/h
1311 16-12-2005 02:38:26 6.8 C 5.51 g/m*3 6.8 C 0 km/h
1312 16-12-2005 02:49:27 6.7 C 5.62 g/m*3 6.7 C 0 km/h
1313 16-12-2005 02:59:27 6.6 C 5.74 g/m*3 6.6 C 0 km/h
1314 16-12-2005 03:09:28 6.3 C 5.85 g/m*3 6.3 C 0 km/h
1315 16-12-2005 03:19:27 6.3 C 5.85 g/m*3 6.3 C 0 km/h
1316 16-12-2005 03:29:27 6.1 C 5.92 g/m*3 6.1 C 0 km/h
1317 16-12-2005 03:39:27 6.1 C 5.99 g/m*3 6.1 C 0 km/h
1318 16-12-2005 03:49:27 6 C 5.95 g/m*3 6 C 0 km/h
1319 16-12-2005 03:59:27 6.3 C 6.07 g/m*3 6.3 C 0 km/h
1320 16-12-2005 04:09:27 6.2 C 6.03 g/m*3 6.2 C 0 km/h
1321 16-12-2005 04:19:27 6.3 C 6 g/m*3 6.3 C 0 km/h
1322 16-12-2005 04:29:27 6.3 C 5.92 g/m*3 6.3 C 0 km/h
1323 16-12-2005 04:39:27 6.4 C 5.89 g/m*3 6.4 C 0 km/h
1324 16-12-2005 04:49:27 6.5 C 5.85 g/m*3 6.5 C 0 km/h
1325 16-12-2005 04:59:27 6.5 C 5.85 g/m*3 6.5 C 0 km/h
Sensor: Nr:Datum:Temp:Abs-Feuchte:Windchill:Wind:
Aussen-T/F 1326 16-12-2005 05:09:28 6.3 C 5.85 g/m*3 6.3 C 0 km/h
1327 16-12-2005 05:19:28 6.3 C 5.85 g/m*3 6.3 C 0 km/h
1328 16-12-2005 05:29:28 6.3 C 5.85 g/m*3 6.3 C 0 km/h
1329 16-12-2005 05:39:28 6.3 C 5.85 g/m*3 6.3 C 0 km/h
1330 16-12-2005 05:49:27 6.3 C 5.92 g/m*3 6.3 C 0 km/h
1331 16-12-2005 05:59:27 6.2 C 5.96 g/m*3 6.2 C 0 km/h
1332 16-12-2005 06:09:27 6.2 C 6.03 g/m*3 6.2 C 0 km/h
1333 16-12-2005 06:19:28 6.2 C 6.03 g/m*3 6.2 C 0 km/h
1334 16-12-2005 06:29:28 6.2 C 6.03 g/m*3 6.2 C 0 km/h
1335 16-12-2005 06:39:27 6.3 C 6.14 g/m*3 6.3 C 0 km/h
1336 16-12-2005 06:49:28 6.3 C 6.14 g/m*3 6.3 C 0 km/h
1337 16-12-2005 06:59:28 6.4 C 6.11 g/m*3 6.4 C 0 km/h
1338 16-12-2005 07:09:27 6.5 C 6.22 g/m*3 6.5 C 0 km/h
1339 16-12-2005 07:19:27 6.6 C 6.27 g/m*3 6.6 C 0 km/h
1340 16-12-2005 07:29:27 6.5 C 6.22 g/m*3 6.5 C 0 km/h
1341 16-12-2005 07:39:27 6.8 C 6.27 g/m*3 6.8 C 0 km/h
1342 16-12-2005 07:49:28 6.8 C 6.27 g/m*3 6.8 C 0 km/h
1343 16-12-2005 07:59:28 6.9 C 6.31 g/m*3 6.9 C 0 km/h
1344 16-12-2005 08:09:27 7 C 6.28 g/m*3 7 C 0 km/h
1345 16-12-2005 08:19:27 7.1 C 6.32 g/m*3 7.1 C 0 km/h
1346 16-12-2005 08:29:27 7.1 C 6.4 g/m*3 7.1 C 0 km/h
1347 16-12-2005 08:39:27 7.2 C 6.52 g/m*3 7.2 C 0 km/h
1348 16-12-2005 08:49:27 7.3 C 6.56 g/m*3 7.3 C 0 km/h
1349 16-12-2005 08:59:27 7.4 C 6.52 g/m*3 7.4 C 0 km/h
1350 16-12-2005 09:09:27 7.7 C 6.57 g/m*3 7.7 C 0 km/h
Sensor: Nr:Datum:Temp:Abs-Feuchte:Windchill:Wind:
Aussen-T/F 1351 16-12-2005 09:19:28 7.9 C 6.57 g/m*3 7.9 C 0 km/h
1352 16-12-2005 09:29:28 8.2 C 6.53 g/m*3 8.2 C 0 km/h
1353 16-12-2005 09:39:28 8.6 C 6.53 g/m*3 8.6 C 0 km/h
1354 16-12-2005 09:49:28 8.5 C 6.49 g/m*3 8.5 C 0 km/h
1355 16-12-2005 09:59:28 8.6 C 6.62 g/m*3 8.6 C 0 km/h
1356 16-12-2005 10:09:28 8.7 C 6.66 g/m*3 8.7 C 0 km/h
1357 16-12-2005 10:19:27 9 C 6.61 g/m*3 9 C 0 km/h
1358 16-12-2005 10:29:27 9 C 6.61 g/m*3 9 C 0 km/h
1359 16-12-2005 10:39:27 9.1 C 6.65 g/m*3 9.1 C 0 km/h
1360 16-12-2005 10:49:28 9.1 C 6.57 g/m*3 9.1 C 0 km/h
1361 16-12-2005 10:59:29 9.3 C 6.56 g/m*3 9.3 C 0 km/h
1362 16-12-2005 11:09:27 9.5 C 6.64 g/m*3 9.5 C 0 km/h
1363 16-12-2005 11:19:27 9.7 C 6.55 g/m*3 9.7 C 0 km/h
1364 16-12-2005 11:29:27 10 C 6.48 g/m*3 10 C 0 km/h
1365 16-12-2005 11:39:28 9.9 C 6.63 g/m*3 9.9 C 0 km/h
1366 16-12-2005 11:49:27 10 C 6.48 g/m*3 10 C 0 km/h
1367 16-12-2005 11:59:27 10.1 C 6.43 g/m*3 10.1 C 0 km/h
1368 16-12-2005 12:09:28 10 C 6.48 g/m*3 10 C 0 km/h
1369 16-12-2005 12:19:28 7.2 C 5.81 g/m*3 7.2 C 0 km/h
1370 16-12-2005 12:29:28 6.4 C 6.11 g/m*3 6.4 C 0 km/h
1371 16-12-2005 12:39:28 6.1 C 5.99 g/m*3 6.1 C 0 km/h
1372 16-12-2005 12:49:28 6 C 5.95 g/m*3 6 C 0 km/h
1373 16-12-2005 12:59:28 5.7 C 5.76 g/m*3 5.7 C 0 km/h
1374 16-12-2005 13:09:28 5.7 C 5.62 g/m*3 5.7 C 0 km/h
1375 16-12-2005 13:19:28 6.2 C 5.52 g/m*3 6.2 C 0 km/h
Sensor: Nr:Datum:Temp:Abs-Feuchte:Windchill:Wind:
Aussen-T/F 1376 16-12-2005 13:29:28 6.4 C 5.29 g/m*3 6.4 C 0 km/h
1377 16-12-2005 13:39:28 6.5 C 5.25 g/m*3 6.5 C 0 km/h
1378 16-12-2005 13:49:28 6.5 C 5.17 g/m*3 6.5 C 0 km/h
1379 16-12-2005 13:59:28 6.7 C 5.09 g/m*3 6.7 C 0 km/h
1380 16-12-2005 14:09:28 6.6 C 4.91 g/m*3 6.6 C 0 km/h
1381 16-12-2005 14:19:28 6.6 C 4.68 g/m*3 6.6 C 0 km/h
1382 16-12-2005 14:29:28 6.5 C 4.65 g/m*3 6.5 C 0 km/h
1383 16-12-2005 14:39:28 6.1 C 4.68 g/m*3 6.1 C 0 km/h
1384 16-12-2005 14:49:28 5.2 C 4.89 g/m*3 5.2 C 0 km/h
1385 16-12-2005 14:59:28 4.8 C 5.3 g/m*3 4.8 C 0 km/h
1386 16-12-2005 15:09:28 4.8 C 5.1 g/m*3 4.8 C 0 km/h
1387 16-12-2005 15:19:28 5 C 5.03 g/m*3 5 C 0 km/h
1388 16-12-2005 15:29:28 5 C 4.96 g/m*3 5 C 0 km/h
1389 16-12-2005 15:39:28 5.3 C 4.85 g/m*3 5.3 C 0 km/h
1390 16-12-2005 15:49:28 5.4 C 4.74 g/m*3 5.4 C 0 km/h
1391 16-12-2005 15:59:28 5.5 C 4.78 g/m*3 5.5 C 0 km/h
1392 16-12-2005 16:09:28 5.4 C 4.81 g/m*3 5.4 C 0 km/h
1393 16-12-2005 16:19:28 5.7 C 4.77 g/m*3 5.7 C 0 km/h
1394 16-12-2005 16:29:28 5.7 C 4.7 g/m*3 5.7 C 0 km/h
1395 16-12-2005 16:39:29 6.3 C 4.59 g/m*3 6.3 C 0 km/h
1396 16-12-2005 16:49:28 5.8 C 4.58 g/m*3 5.8 C 0 km/h
1397 16-12-2005 16:59:28 5.4 C 4.67 g/m*3 5.4 C 0 km/h
1398 16-12-2005 17:09:29 4.6 C 4.9 g/m*3 4.6 C 0 km/h
1399 16-12-2005 17:19:28 4.5 C 5 g/m*3 4.5 C 0 km/h
1400 16-12-2005 17:29:28 4.2 C 4.83 g/m*3 4.2 C 0 km/h
Sensor: Nr:Datum:Temp:Abs-Feuchte:Windchill:Wind:
Aussen-T/F 1401 16-12-2005 17:39:28 4.3 C 4.67 g/m*3 4.3 C 0 km/h
1402 16-12-2005 17:49:28 4.5 C 4.67 g/m*3 4.5 C 0 km/h
1403 16-12-2005 17:59:28 4.6 C 4.57 g/m*3 4.6 C 0 km/h
1404 16-12-2005 18:09:28 4.8 C 4.63 g/m*3 4.8 C 0 km/h
1405 16-12-2005 18:19:28 4.8 C 4.63 g/m*3 4.8 C 0 km/h
1406 16-12-2005 18:29:28 4.9 C 4.59 g/m*3 4.9 C 0 km/h
1407 16-12-2005 18:39:29 5 C 4.48 g/m*3 5 C 0 km/h
1408 16-12-2005 18:49:28 5 C 4.42 g/m*3 5 C 0 km/h
1409 16-12-2005 18:59:28 4.8 C 4.43 g/m*3 4.8 C 0 km/h
1410 16-12-2005 19:09:29 4.7 C 4.53 g/m*3 4.7 C 0 km/h
1411 16-12-2005 19:19:29 4.3 C 4.74 g/m*3 4.3 C 0 km/h
1412 16-12-2005 19:29:29 4.3 C 4.61 g/m*3 4.3 C 0 km/h
1413 16-12-2005 19:39:30 4.4 C 4.51 g/m*3 4.4 C 0 km/h
1414 16-12-2005 19:49:29 4.2 C 4.51 g/m*3 4.2 C 0 km/h
1415 16-12-2005 19:59:29 4.1 C 4.48 g/m*3 4.1 C 0 km/h
1416 16-12-2005 20:09:29 4.1 C 4.48 g/m*3 4.1 C 0 km/h
1417 16-12-2005 20:19:28 4.2 C 4.45 g/m*3 4.2 C 0 km/h
1418 16-12-2005 20:29:28 4.2 C 4.45 g/m*3 4.2 C 0 km/h
1419 16-12-2005 20:39:28 4.2 C 4.51 g/m*3 4.2 C 0 km/h
1420 16-12-2005 20:49:29 4.2 C 4.45 g/m*3 4.2 C 0 km/h
1421 16-12-2005 20:59:30 4.3 C 4.35 g/m*3 4.3 C 0 km/h
1422 16-12-2005 21:09:29 4.3 C 4.28 g/m*3 4.3 C 0 km/h
1423 16-12-2005 21:19:28 4.2 C 4.25 g/m*3 4.2 C 0 km/h
1424 16-12-2005 21:29:28 4.2 C 4.12 g/m*3 4.2 C 0 km/h
1425 16-12-2005 21:39:29 4.3 C 4.09 g/m*3 4.3 C 0 km/h
Sensor: Nr:Datum:Temp:Abs-Feuchte:Windchill:Wind:
Aussen-T/F 1426 16-12-2005 21:49:28 4.3 C 4.09 g/m*3 4.3 C 0 km/h
1427 16-12-2005 21:59:28 4.3 C 4.09 g/m*3 4.3 C 0 km/h
1428 16-12-2005 22:09:29 4.4 C 3.98 g/m*3 4.4 C 0 km/h
1429 16-12-2005 22:19:28 4.4 C 3.92 g/m*3 4.4 C 0 km/h
1430 16-12-2005 22:29:28 4.4 C 3.92 g/m*3 4.4 C 0 km/h
1431 16-12-2005 22:39:29 4.3 C 3.89 g/m*3 4.3 C 0 km/h
1432 16-12-2005 22:49:29 4.2 C 3.93 g/m*3 4.2 C 0 km/h
1433 16-12-2005 22:59:30 4.2 C 3.93 g/m*3 4.2 C 0 km/h
1434 16-12-2005 23:09:29 4.1 C 3.97 g/m*3 4.1 C 0 km/h
1435 16-12-2005 23:19:29 4.2 C 3.99 g/m*3 4.2 C 0 km/h
1436 16-12-2005 23:29:29 4.2 C 3.93 g/m*3 4.2 C 0 km/h
1437 16-12-2005 23:39:29 4.1 C 3.97 g/m*3 4.1 C 0 km/h
1438 16-12-2005 23:49:29 4 C 3.94 g/m*3 4 C 0 km/h
1439 16-12-2005 23:59:29 3.9 C 3.92 g/m*3 3.9 C 0 km/h
1440 17-12-2005 00:09:29 3.8 C 3.89 g/m*3 3.8 C 0 km/h
1441 17-12-2005 00:19:29 3.8 C 3.89 g/m*3 3.8 C 0 km/h
1442 17-12-2005 00:29:29 3.8 C 3.89 g/m*3 3.8 C 0 km/h
1443 17-12-2005 00:39:29 3.6 C 3.96 g/m*3 3.6 C 0 km/h
1444 17-12-2005 00:49:29 3.2 C 3.98 g/m*3 3.2 C 0 km/h
1445 17-12-2005 00:59:29 2.2 C 4.28 g/m*3 2.2 C 0 km/h
1446 17-12-2005 01:09:29 2 C 4.5 g/m*3 2 C 0 km/h
1447 17-12-2005 01:19:29 2 C 4.56 g/m*3 2 C 0 km/h
1448 17-12-2005 01:29:29 2 C 4.61 g/m*3 2 C 0 km/h
1449 17-12-2005 01:39:30 2.1 C 4.59 g/m*3 2.1 C 0 km/h
1450 17-12-2005 01:49:29 2.2 C 4.51 g/m*3 2.2 C 0 km/h
Sensor: Nr:Datum:Temp:Abs-Feuchte:Windchill:Wind:
Aussen-T/F 1451 17-12-2005 01:59:30 2.3 C 4.42 g/m*3 2.3 C 0 km/h
1452 17-12-2005 02:09:29 2 C 4.39 g/m*3 2 C 0 km/h
1453 17-12-2005 02:19:29 2 C 4.28 g/m*3 2 C 0 km/h
1454 17-12-2005 02:29:29 1.8 C 4.33 g/m*3 1.8 C 0 km/h
1455 17-12-2005 02:39:29 2 C 4.33 g/m*3 2 C 0 km/h
1456 17-12-2005 02:50:31 1.4 C 4.37 g/m*3 1.4 C 0 km/h
1457 17-12-2005 03:00:31 1.3 C 4.45 g/m*3 1.3 C 0 km/h
1458 17-12-2005 03:10:31 1.1 C 4.44 g/m*3 1.1 C 0 km/h
1459 17-12-2005 03:20:31 1.3 C 4.61 g/m*3 1.3 C 0 km/h
1460 17-12-2005 03:30:31 1.4 C 4.59 g/m*3 1.4 C 0 km/h
1461 17-12-2005 03:40:31 1.8 C 4.49 g/m*3 1.8 C 0 km/h
1462 17-12-2005 03:50:31 2 C 4.22 g/m*3 2 C 0 km/h
1463 17-12-2005 04:00:31 1.9 C 4.14 g/m*3 1.9 C 0 km/h
1464 17-12-2005 04:10:32 1.8 C 4.06 g/m*3 1.8 C 0 km/h
1465 17-12-2005 04:20:31 2.1 C 4.03 g/m*3 2.1 C 0 km/h
1466 17-12-2005 04:30:31 1.9 C 4.08 g/m*3 1.9 C 0 km/h
1467 17-12-2005 04:40:31 1.4 C 4.27 g/m*3 1.4 C 0 km/h
1468 17-12-2005 04:50:31 1.2 C 4.31 g/m*3 1.2 C 0 km/h
1469 17-12-2005 05:00:32 0.6 C 4.29 g/m*3 0.6 C 0 km/h
1470 17-12-2005 05:10:31 0.6 C 4.39 g/m*3 0.6 C 0 km/h
1471 17-12-2005 05:20:31 0.6 C 4.44 g/m*3 0.6 C 0 km/h
1472 17-12-2005 05:30:31 0.7 C 4.42 g/m*3 0.7 C 0 km/h
1473 17-12-2005 05:40:31 0.7 C 4.37 g/m*3 0.7 C 0 km/h
1474 17-12-2005 05:50:31 0.7 C 4.17 g/m*3 0.7 C 0 km/h
1475 17-12-2005 06:00:31 0.8 C 4.1 g/m*3 0.8 C 0 km/h
Sensor: Nr:Datum:Temp:Abs-Feuchte:Windchill:Wind:
Aussen-T/F 1476 17-12-2005 06:10:31 0.8 C 4.04 g/m*3 0.8 C 0 km/h
1477 17-12-2005 06:20:31 0.6 C 3.99 g/m*3 0.6 C 0 km/h
1478 17-12-2005 06:30:31 0.8 C 3.99 g/m*3 0.8 C 0 km/h
1479 17-12-2005 06:40:31 0.7 C 4.02 g/m*3 0.7 C 0 km/h
1480 17-12-2005 06:50:32 0.8 C 3.99 g/m*3 0.8 C 0 km/h
1481 17-12-2005 07:00:32 0.8 C 3.94 g/m*3 0.8 C 0 km/h
1482 17-12-2005 07:10:31 0.8 C 3.89 g/m*3 0.8 C 0 km/h
1483 17-12-2005 07:20:31 0.8 C 3.79 g/m*3 0.8 C 0 km/h
1484 17-12-2005 07:30:31 1 C 3.74 g/m*3 1 C 0 km/h
1485 17-12-2005 07:40:31 1.1 C 3.61 g/m*3 1.1 C 0 km/h
1486 17-12-2005 07:50:31 0.8 C 3.58 g/m*3 0.8 C 0 km/h
1487 17-12-2005 08:00:31 0.8 C 3.69 g/m*3 0.8 C 0 km/h
1488 17-12-2005 08:10:31 0.7 C 3.71 g/m*3 0.7 C 0 km/h
1489 17-12-2005 08:20:31 0.8 C 3.63 g/m*3 0.8 C 0 km/h
1490 17-12-2005 08:30:31 0.8 C 3.58 g/m*3 0.8 C 0 km/h
1491 17-12-2005 08:40:31 0.6 C 3.53 g/m*3 0.6 C 0 km/h
1492 17-12-2005 08:50:32 0.6 C 3.53 g/m*3 0.6 C 0 km/h
1493 17-12-2005 09:00:32 0.5 C 3.51 g/m*3 0.5 C 0 km/h
1494 17-12-2005 09:10:31 0.6 C 3.59 g/m*3 0.6 C 0 km/h
1495 17-12-2005 09:20:31 0.7 C 3.66 g/m*3 0.7 C 0 km/h
1496 17-12-2005 09:30:31 0.7 C 3.61 g/m*3 0.7 C 0 km/h
1497 17-12-2005 09:40:31 0.4 C 3.59 g/m*3 0.4 C 0 km/h
1498 17-12-2005 09:50:31 0.3 C 3.56 g/m*3 0.3 C 0 km/h
1499 17-12-2005 10:00:31 0.5 C 3.56 g/m*3 0.5 C 0 km/h
1500 17-12-2005 10:10:31 0.5 C 3.51 g/m*3 0.5 C 0 km/h
Sensor: Nr:Datum:Temp:Abs-Feuchte:Windchill:Wind:
Aussen-T/F 1501 17-12-2005 10:20:31 0.6 C 3.48 g/m*3 0.6 C 0 km/h
1502 17-12-2005 10:30:31 0.9 C 3.51 g/m*3 0.9 C 0 km/h
1503 17-12-2005 10:40:32 1.2 C 3.47 g/m*3 1.2 C 0 km/h
1504 17-12-2005 10:50:32 1.5 C 3.49 g/m*3 1.5 C 0 km/h
1505 17-12-2005 11:00:32 1.6 C 3.41 g/m*3 1.6 C 0 km/h
1506 17-12-2005 11:10:32 1.7 C 3.43 g/m*3 1.7 C 0 km/h
1507 17-12-2005 11:20:32 2 C 3.28 g/m*3 2 C 0 km/h
1508 17-12-2005 11:30:32 1.8 C 3.34 g/m*3 1.8 C 0 km/h
1509 17-12-2005 11:40:32 1.8 C 3.4 g/m*3 1.8 C 0 km/h
1510 17-12-2005 11:50:32 1.8 C 3.45 g/m*3 1.8 C 0 km/h
1511 17-12-2005 12:00:32 1.7 C 3.48 g/m*3 1.7 C 0 km/h
1512 17-12-2005 12:10:32 1.6 C 3.51 g/m*3 1.6 C 0 km/h
1513 17-12-2005 12:20:31 1.9 C 3.59 g/m*3 1.9 C 0 km/h
1514 17-12-2005 12:30:31 2 C 3.45 g/m*3 2 C 0 km/h
1515 17-12-2005 12:40:32 2.2 C 3.44 g/m*3 2.2 C 0 km/h
1516 17-12-2005 12:50:32 2.4 C 3.48 g/m*3 2.4 C 0 km/h
1517 17-12-2005 13:00:32 2.6 C 3.41 g/m*3 2.6 C 0 km/h
1518 17-12-2005 13:10:32 2.6 C 3.36 g/m*3 2.6 C 0 km/h
1519 17-12-2005 13:20:31 2.9 C 3.31 g/m*3 2.9 C 0 km/h
1520 17-12-2005 13:30:31 2.9 C 3.19 g/m*3 2.9 C 0 km/h
1521 17-12-2005 13:40:32 2.5 C 3.33 g/m*3 2.5 C 0 km/h
1522 17-12-2005 13:50:32 2.3 C 3.29 g/m*3 2.3 C 0 km/h
1523 17-12-2005 14:00:33 2.6 C 3.3 g/m*3 2.6 C 0 km/h
1524 17-12-2005 14:10:32 3 C 3.21 g/m*3 3 C 0 km/h
1525 17-12-2005 14:20:32 3 C 3.15 g/m*3 3 C 0 km/h
Sensor: Nr:Datum:Temp:Abs-Feuchte:Windchill:Wind:
Aussen-T/F 1526 17-12-2005 14:30:32 3 C 3.21 g/m*3 3 C 0 km/h
1527 17-12-2005 14:40:32 3 C 3.21 g/m*3 3 C 0 km/h
1528 17-12-2005 14:50:32 2.8 C 3.28 g/m*3 2.8 C 0 km/h
1529 17-12-2005 15:00:32 2.7 C 3.26 g/m*3 2.7 C 0 km/h
1530 17-12-2005 15:10:32 2.6 C 3.3 g/m*3 2.6 C 0 km/h
1531 17-12-2005 15:20:32 2 C 3.61 g/m*3 2 C 0 km/h
1532 17-12-2005 15:30:32 1.6 C 3.73 g/m*3 1.6 C 0 km/h
1533 17-12-2005 15:40:32 0.8 C 3.89 g/m*3 0.8 C 0 km/h
1534 17-12-2005 15:50:32 1 C 4 g/m*3 1 C 0 km/h
1535 17-12-2005 16:00:32 1.4 C 4 g/m*3 1.4 C 0 km/h
1536 17-12-2005 16:10:32 1.5 C 3.87 g/m*3 1.5 C 0 km/h
1537 17-12-2005 16:20:32 1.6 C 3.68 g/m*3 1.6 C 0 km/h
1538 17-12-2005 16:30:32 1.6 C 3.73 g/m*3 1.6 C 0 km/h
1539 17-12-2005 16:40:32 1.3 C 3.87 g/m*3 1.3 C 0 km/h
1540 17-12-2005 16:50:32 1.2 C 3.95 g/m*3 1.2 C 0 km/h
1541 17-12-2005 17:00:32 1.5 C 3.81 g/m*3 1.5 C 0 km/h
1542 17-12-2005 17:10:32 2 C 3.56 g/m*3 2 C 0 km/h
1543 17-12-2005 17:20:32 2 C 3.45 g/m*3 2 C 0 km/h
1544 17-12-2005 17:30:32 2 C 3.45 g/m*3 2 C 0 km/h
1545 17-12-2005 17:40:32 1.8 C 3.56 g/m*3 1.8 C 0 km/h
1546 17-12-2005 17:50:32 1.8 C 3.51 g/m*3 1.8 C 0 km/h
1547 17-12-2005 18:00:32 1.7 C 3.54 g/m*3 1.7 C 0 km/h
1548 17-12-2005 18:10:33 1.7 C 3.54 g/m*3 1.7 C 0 km/h
1549 17-12-2005 18:20:33 1.7 C 3.59 g/m*3 1.7 C 0 km/h
1550 17-12-2005 18:30:33 1.5 C 3.65 g/m*3 1.5 C 0 km/h
Sensor: Nr:Datum:Temp:Abs-Feuchte:Windchill:Wind:
Aussen-T/F 1551 17-12-2005 18:40:32 1.4 C 3.79 g/m*3 1.4 C 0 km/h
1552 17-12-2005 18:50:33 1.3 C 3.87 g/m*3 1.3 C 0 km/h
1553 17-12-2005 19:00:33 1.3 C 3.97 g/m*3 1.3 C 0 km/h
1554 17-12-2005 19:10:32 1.3 C 3.92 g/m*3 1.3 C 0 km/h
1555 17-12-2005 19:20:33 1.3 C 3.87 g/m*3 1.3 C 0 km/h
1556 17-12-2005 19:30:33 1.4 C 3.84 g/m*3 1.4 C 0 km/h
1557 17-12-2005 19:40:32 1.5 C 3.81 g/m*3 1.5 C 0 km/h
1558 17-12-2005 19:50:33 1.5 C 3.81 g/m*3 1.5 C 0 km/h
1559 17-12-2005 20:00:33 1.4 C 3.79 g/m*3 1.4 C 0 km/h
1560 17-12-2005 20:10:33 1.3 C 3.76 g/m*3 1.3 C 0 km/h
1561 17-12-2005 20:20:32 1.2 C 3.63 g/m*3 1.2 C 0 km/h
1562 17-12-2005 20:30:32 1 C 3.69 g/m*3 1 C 0 km/h
1563 17-12-2005 20:40:32 1.1 C 3.71 g/m*3 1.1 C 0 km/h
1564 17-12-2005 20:50:33 1.2 C 3.74 g/m*3 1.2 C 0 km/h
1565 17-12-2005 21:00:33 1.2 C 3.68 g/m*3 1.2 C 0 km/h
1566 17-12-2005 21:10:33 1.3 C 3.66 g/m*3 1.3 C 0 km/h
1567 17-12-2005 21:20:33 1.1 C 3.66 g/m*3 1.1 C 0 km/h
1568 17-12-2005 21:30:33 1.1 C 3.66 g/m*3 1.1 C 0 km/h
1569 17-12-2005 21:40:32 0.7 C 3.66 g/m*3 0.7 C 0 km/h
1570 17-12-2005 21:50:33 0.7 C 3.66 g/m*3 0.7 C 0 km/h
1571 17-12-2005 22:00:33 0.8 C 3.69 g/m*3 0.8 C 0 km/h
1572 17-12-2005 22:10:33 0.7 C 3.71 g/m*3 0.7 C 0 km/h
1573 17-12-2005 22:20:33 0.7 C 3.71 g/m*3 0.7 C 0 km/h
1574 17-12-2005 22:30:33 0.4 C 3.59 g/m*3 0.4 C 0 km/h
1575 17-12-2005 22:40:33 0.3 C 3.61 g/m*3 0.3 C 0 km/h
Sensor: Nr:Datum:Temp:Abs-Feuchte:Windchill:Wind:
Aussen-T/F 1576 17-12-2005 22:50:32 0.2 C 3.59 g/m*3 0.2 C 0 km/h
1577 17-12-2005 23:00:32 0 C 3.59 g/m*3 0 C 0 km/h
1578 17-12-2005 23:10:33 0 C 3.63 g/m*3 0 C 0 km/h
1579 17-12-2005 23:20:33 0.1 C 3.71 g/m*3 0.1 C 0 km/h
1580 17-12-2005 23:30:33 -0.2 C 3.68 g/m*3 -0.2 C 0 km/h
1581 17-12-2005 23:40:33 -0.1 C 3.75 g/m*3 -0.1 C 0 km/h
1582 17-12-2005 23:50:33 -0.3 C 3.7 g/m*3 -0.3 C 0 km/h
1583 18-12-2005 00:00:33 -0.2 C 3.78 g/m*3 -0.2 C 0 km/h
1584 18-12-2005 00:10:33 0 C 3.83 g/m*3 0 C 0 km/h
1585 18-12-2005 00:20:34 0.2 C 3.88 g/m*3 0.2 C 0 km/h
1586 18-12-2005 00:30:34 0.2 C 3.88 g/m*3 0.2 C 0 km/h
1587 18-12-2005 00:40:33 0.2 C 3.88 g/m*3 0.2 C 0 km/h
1588 18-12-2005 00:50:33 0.3 C 3.91 g/m*3 0.3 C 0 km/h
1589 18-12-2005 01:00:33 0.4 C 3.88 g/m*3 0.4 C 0 km/h
1590 18-12-2005 01:10:33 0.4 C 3.88 g/m*3 0.4 C 0 km/h
1591 18-12-2005 01:20:33 0.6 C 3.84 g/m*3 0.6 C 0 km/h
1592 18-12-2005 01:30:33 0.4 C 3.84 g/m*3 0.4 C 0 km/h
1593 18-12-2005 01:40:33 0.6 C 3.84 g/m*3 0.6 C 0 km/h
1594 18-12-2005 01:50:33 0.6 C 3.79 g/m*3 0.6 C 0 km/h
1595 18-12-2005 02:00:33 0.5 C 3.76 g/m*3 0.5 C 0 km/h
1596 18-12-2005 02:10:33 0.6 C 3.79 g/m*3 0.6 C 0 km/h
1597 18-12-2005 02:20:33 0.7 C 3.76 g/m*3 0.7 C 0 km/h
1598 18-12-2005 02:30:33 0.8 C 3.84 g/m*3 0.8 C 0 km/h
1599 18-12-2005 02:40:33 0.7 C 3.81 g/m*3 0.7 C 0 km/h
1600 18-12-2005 02:51:35 0.6 C 3.84 g/m*3 0.6 C 0 km/h
Sensor: Nr:Datum:Temp:Abs-Feuchte:Windchill:Wind:
Aussen-T/F 1601 18-12-2005 03:01:35 0.8 C 3.89 g/m*3 0.8 C 0 km/h
1602 18-12-2005 03:11:35 0.9 C 3.92 g/m*3 0.9 C 0 km/h
1603 18-12-2005 03:21:35 1 C 3.94 g/m*3 1 C 0 km/h
1604 18-12-2005 03:31:35 1.1 C 3.97 g/m*3 1.1 C 0 km/h
1605 18-12-2005 03:41:35 1 C 3.94 g/m*3 1 C 0 km/h
1606 18-12-2005 03:51:35 1 C 4 g/m*3 1 C 0 km/h
1607 18-12-2005 04:01:35 1 C 4.05 g/m*3 1 C 0 km/h
1608 18-12-2005 04:11:35 1.1 C 4.08 g/m*3 1.1 C 0 km/h
1609 18-12-2005 04:21:36 1.1 C 4.02 g/m*3 1.1 C 0 km/h
1610 18-12-2005 04:31:36 1.1 C 3.97 g/m*3 1.1 C 0 km/h
1611 18-12-2005 04:41:36 1.1 C 3.92 g/m*3 1.1 C 0 km/h
1612 18-12-2005 04:51:35 1.2 C 3.95 g/m*3 1.2 C 0 km/h
1613 18-12-2005 05:01:35 1.3 C 3.92 g/m*3 1.3 C 0 km/h
1614 18-12-2005 05:11:35 1.3 C 3.92 g/m*3 1.3 C 0 km/h
1615 18-12-2005 05:21:36 1.3 C 3.97 g/m*3 1.3 C 0 km/h
1616 18-12-2005 05:31:35 1.2 C 3.95 g/m*3 1.2 C 0 km/h
1617 18-12-2005 05:41:35 1.1 C 4.02 g/m*3 1.1 C 0 km/h
1618 18-12-2005 05:51:35 1.3 C 4.08 g/m*3 1.3 C 0 km/h
1619 18-12-2005 06:01:35 1.1 C 4.08 g/m*3 1.1 C 0 km/h
1620 18-12-2005 06:11:35 1.3 C 4.13 g/m*3 1.3 C 0 km/h
1621 18-12-2005 06:21:35 1.3 C 4.08 g/m*3 1.3 C 0 km/h
1622 18-12-2005 06:31:35 1.3 C 4.08 g/m*3 1.3 C 0 km/h
1623 18-12-2005 06:41:35 1.4 C 4.05 g/m*3 1.4 C 0 km/h
1624 18-12-2005 06:51:36 1.3 C 4.08 g/m*3 1.3 C 0 km/h
1625 18-12-2005 07:01:35 1.2 C 4.1 g/m*3 1.2 C 0 km/h
Sensor: Nr:Datum:Temp:Abs-Feuchte:Windchill:Wind:
Aussen-T/F 1626 18-12-2005 07:11:35 0.7 C 4.17 g/m*3 0.7 C 0 km/h
1627 18-12-2005 07:21:35 0.5 C 4.26 g/m*3 0.5 C 0 km/h
1628 18-12-2005 07:31:35 0.5 C 4.31 g/m*3 0.5 C 0 km/h
1629 18-12-2005 07:41:35 0.5 C 4.36 g/m*3 0.5 C 0 km/h
1630 18-12-2005 07:51:35 0.5 C 4.41 g/m*3 0.5 C 0 km/h
1631 18-12-2005 08:01:35 0.5 C 4.41 g/m*3 0.5 C 0 km/h
1632 18-12-2005 08:11:35 0.4 C 4.38 g/m*3 0.4 C 0 km/h
1633 18-12-2005 08:21:36 0.4 C 4.38 g/m*3 0.4 C 0 km/h
1634 18-12-2005 08:31:35 0.5 C 4.46 g/m*3 0.5 C 0 km/h
1635 18-12-2005 08:41:35 0.6 C 4.44 g/m*3 0.6 C 0 km/h
1636 18-12-2005 08:51:36 0.6 C 4.44 g/m*3 0.6 C 0 km/h
1637 18-12-2005 09:01:35 0.8 C 4.51 g/m*3 0.8 C 0 km/h
1638 18-12-2005 09:11:36 0.8 C 4.45 g/m*3 0.8 C 0 km/h
1639 18-12-2005 09:21:35 0.9 C 4.43 g/m*3 0.9 C 0 km/h
1640 18-12-2005 09:31:36 1.2 C 4.42 g/m*3 1.2 C 0 km/h
1641 18-12-2005 09:41:36 1.3 C 4.4 g/m*3 1.3 C 0 km/h
1642 18-12-2005 09:51:35 1.4 C 4.37 g/m*3 1.4 C 0 km/h
1643 18-12-2005 10:01:35 1.5 C 4.3 g/m*3 1.5 C 0 km/h
1644 18-12-2005 10:11:35 1.6 C 4.33 g/m*3 1.6 C 0 km/h
1645 18-12-2005 10:21:35 1.7 C 4.3 g/m*3 1.7 C 0 km/h
1646 18-12-2005 10:31:36 1.6 C 4.22 g/m*3 1.6 C 0 km/h
1647 18-12-2005 10:41:36 1.7 C 4.25 g/m*3 1.7 C 0 km/h
1648 18-12-2005 10:51:35 1.7 C 4.25 g/m*3 1.7 C 0 km/h
1649 18-12-2005 11:01:36 1.8 C 4.22 g/m*3 1.8 C 0 km/h
1650 18-12-2005 11:11:36 1.9 C 4.25 g/m*3 1.9 C 0 km/h
Sensor: Nr:Datum:Temp:Abs-Feuchte:Windchill:Wind:
Aussen-T/F 1651 18-12-2005 11:21:36 2.1 C 4.2 g/m*3 2.1 C 0 km/h
1652 18-12-2005 11:31:36 2.4 C 4.23 g/m*3 2.4 C 0 km/h
1653 18-12-2005 11:41:36 2.5 C 4.14 g/m*3 2.5 C 0 km/h
1654 18-12-2005 11:51:35 2.8 C 4.22 g/m*3 2.8 C 0 km/h
1655 18-12-2005 12:01:36 2.8 C 4.16 g/m*3 2.8 C 0 km/h
1656 18-12-2005 12:11:36 2.9 C 4.19 g/m*3 2.9 C 0 km/h
1657 18-12-2005 12:21:36 3.2 C 4.1 g/m*3 3.2 C 0 km/h
1658 18-12-2005 12:31:36 3.1 C 4.01 g/m*3 3.1 C 0 km/h
1659 18-12-2005 12:41:36 3.1 C 4.01 g/m*3 3.1 C 0 km/h
1660 18-12-2005 12:51:35 3.2 C 4.04 g/m*3 3.2 C 0 km/h
1661 18-12-2005 13:01:36 3.5 C 4 g/m*3 3.5 C 0 km/h
1662 18-12-2005 13:11:36 3.8 C 4.08 g/m*3 3.8 C 0 km/h
1663 18-12-2005 13:21:36 3.7 C 3.93 g/m*3 3.7 C 0 km/h
1664 18-12-2005 13:31:36 3.6 C 3.9 g/m*3 3.6 C 0 km/h
1665 18-12-2005 13:41:36 3.7 C 3.86 g/m*3 3.7 C 0 km/h
1666 18-12-2005 13:51:36 3.9 C 3.85 g/m*3 3.9 C 0 km/h
1667 18-12-2005 14:01:36 3.9 C 3.85 g/m*3 3.9 C 0 km/h
1668 18-12-2005 14:11:36 4 C 3.69 g/m*3 4 C 0 km/h
1669 18-12-2005 14:21:35 3.7 C 3.68 g/m*3 3.7 C 0 km/h
1670 18-12-2005 14:31:36 3.5 C 3.69 g/m*3 3.5 C 0 km/h
1671 18-12-2005 14:41:36 3.5 C 3.75 g/m*3 3.5 C 0 km/h
1672 18-12-2005 14:51:36 3.5 C 3.75 g/m*3 3.5 C 0 km/h
1673 18-12-2005 15:01:36 3.7 C 3.8 g/m*3 3.7 C 0 km/h
1674 18-12-2005 15:11:36 3.5 C 3.94 g/m*3 3.5 C 0 km/h
1675 18-12-2005 15:21:36 3.2 C 3.92 g/m*3 3.2 C 0 km/h
Sensor: Nr:Datum:Temp:Abs-Feuchte:Windchill:Wind:
Aussen-T/F 1676 18-12-2005 15:31:36 3.3 C 3.94 g/m*3 3.3 C 0 km/h
1677 18-12-2005 15:41:36 3.2 C 3.92 g/m*3 3.2 C 0 km/h
1678 18-12-2005 15:51:36 3 C 3.86 g/m*3 3 C 0 km/h
1679 18-12-2005 16:01:36 2.9 C 3.9 g/m*3 2.9 C 0 km/h
1680 18-12-2005 16:11:37 2.7 C 3.85 g/m*3 2.7 C 0 km/h
1681 18-12-2005 16:21:36 2.5 C 3.79 g/m*3 2.5 C 0 km/h
1682 18-12-2005 16:31:36 2.2 C 3.77 g/m*3 2.2 C 0 km/h
1683 18-12-2005 16:41:36 1.9 C 3.81 g/m*3 1.9 C 0 km/h
1684 18-12-2005 16:51:36 1.6 C 3.79 g/m*3 1.6 C 0 km/h
1685 18-12-2005 17:01:36 1.5 C 3.81 g/m*3 1.5 C 0 km/h
1686 18-12-2005 17:11:36 1.3 C 3.81 g/m*3 1.3 C 0 km/h
1687 18-12-2005 17:21:36 1 C 3.74 g/m*3 1 C 0 km/h
1688 18-12-2005 17:31:37 0.9 C 3.81 g/m*3 0.9 C 0 km/h
1689 18-12-2005 17:41:37 1 C 3.89 g/m*3 1 C 0 km/h
1690 18-12-2005 17:51:36 1.1 C 3.92 g/m*3 1.1 C 0 km/h
1691 18-12-2005 18:01:36 1.3 C 3.92 g/m*3 1.3 C 0 km/h
1692 18-12-2005 18:11:36 1.4 C 3.89 g/m*3 1.4 C 0 km/h
1693 18-12-2005 18:21:36 1.5 C 3.87 g/m*3 1.5 C 0 km/h
1694 18-12-2005 18:31:36 1.7 C 3.87 g/m*3 1.7 C 0 km/h
1695 18-12-2005 18:41:36 1.7 C 3.87 g/m*3 1.7 C 0 km/h
1696 18-12-2005 18:51:36 1.7 C 3.87 g/m*3 1.7 C 0 km/h
1697 18-12-2005 19:01:36 1.8 C 3.95 g/m*3 1.8 C 0 km/h
1698 18-12-2005 19:11:36 1.8 C 3.95 g/m*3 1.8 C 0 km/h
1699 18-12-2005 19:21:37 2.1 C 3.97 g/m*3 2.1 C 0 km/h
1700 18-12-2005 19:31:37 2 C 3.95 g/m*3 2 C 0 km/h
Sensor: Nr:Datum:Temp:Abs-Feuchte:Windchill:Wind:
Aussen-T/F 1701 18-12-2005 19:41:37 2 C 4 g/m*3 2 C 0 km/h
1702 18-12-2005 19:51:37 1.9 C 4.14 g/m*3 1.9 C 0 km/h
1703 18-12-2005 20:01:37 1.7 C 4.14 g/m*3 1.7 C 0 km/h
1704 18-12-2005 20:11:37 1.6 C 4.22 g/m*3 1.6 C 0 km/h
1705 18-12-2005 20:21:37 1.6 C 4.22 g/m*3 1.6 C 0 km/h
1706 18-12-2005 20:31:37 1.7 C 4.19 g/m*3 1.7 C 0 km/h
1707 18-12-2005 20:41:37 1.8 C 4.11 g/m*3 1.8 C 0 km/h
1708 18-12-2005 20:51:37 2 C 4 g/m*3 2 C 0 km/h
1709 18-12-2005 21:01:37 1.9 C 3.97 g/m*3 1.9 C 0 km/h
1710 18-12-2005 21:11:37 2 C 3.78 g/m*3 2 C 0 km/h
1711 18-12-2005 21:21:36 2 C 3.67 g/m*3 2 C 0 km/h
1712 18-12-2005 21:31:37 2 C 3.5 g/m*3 2 C 0 km/h
1713 18-12-2005 21:41:37 1.9 C 3.53 g/m*3 1.9 C 0 km/h
1714 18-12-2005 21:51:37 1.8 C 3.56 g/m*3 1.8 C 0 km/h
1715 18-12-2005 22:01:37 1.5 C 3.54 g/m*3 1.5 C 0 km/h
1716 18-12-2005 22:11:37 1.3 C 3.5 g/m*3 1.3 C 0 km/h
1717 18-12-2005 22:21:36 1.3 C 3.44 g/m*3 1.3 C 0 km/h
1718 18-12-2005 22:31:36 1.3 C 3.39 g/m*3 1.3 C 0 km/h
1719 18-12-2005 22:41:36 1.3 C 3.34 g/m*3 1.3 C 0 km/h
1720 18-12-2005 22:51:37 1.3 C 3.34 g/m*3 1.3 C 0 km/h
1721 18-12-2005 23:01:37 1.3 C 3.28 g/m*3 1.3 C 0 km/h
1722 18-12-2005 23:11:37 1 C 3.32 g/m*3 1 C 0 km/h
1723 18-12-2005 23:21:37 0.8 C 3.38 g/m*3 0.8 C 0 km/h
1724 18-12-2005 23:31:37 0.6 C 3.38 g/m*3 0.6 C 0 km/h
1725 18-12-2005 23:41:37 0.3 C 3.36 g/m*3 0.3 C 0 km/h
Sensor: Nr:Datum:Temp:Abs-Feuchte:Windchill:Wind:
Aussen-T/F 1726 18-12-2005 23:51:37 0.4 C 3.34 g/m*3 0.4 C 0 km/h
1727 19-12-2005 00:01:38 0.2 C 3.34 g/m*3 0.2 C 0 km/h
1728 19-12-2005 00:11:38 0.1 C 3.37 g/m*3 0.1 C 0 km/h
1729 19-12-2005 00:21:37 0 C 3.34 g/m*3 0 C 0 km/h
1730 19-12-2005 00:31:38 0.1 C 3.42 g/m*3 0.1 C 0 km/h
1731 19-12-2005 00:41:38 0 C 3.44 g/m*3 0 C 0 km/h
1732 19-12-2005 00:51:37 0 C 3.44 g/m*3 0 C 0 km/h
1733 19-12-2005 01:01:37 0 C 3.49 g/m*3 0 C 0 km/h
1734 19-12-2005 01:11:37 0.1 C 3.56 g/m*3 0.1 C 0 km/h
1735 19-12-2005 01:21:37 0.2 C 3.54 g/m*3 0.2 C 0 km/h
1736 19-12-2005 01:31:37 0.3 C 3.61 g/m*3 0.3 C 0 km/h
1737 19-12-2005 01:41:37 0.5 C 3.61 g/m*3 0.5 C 0 km/h
1738 19-12-2005 01:51:38 0.6 C 3.59 g/m*3 0.6 C 0 km/h
1739 19-12-2005 02:01:38 0.6 C 3.59 g/m*3 0.6 C 0 km/h
1740 19-12-2005 02:11:38 0.8 C 3.63 g/m*3 0.8 C 0 km/h
1741 19-12-2005 02:21:37 0.8 C 3.63 g/m*3 0.8 C 0 km/h
1742 19-12-2005 02:31:37 0.9 C 3.61 g/m*3 0.9 C 0 km/h
1743 19-12-2005 02:41:37 1.1 C 3.61 g/m*3 1.1 C 0 km/h
1744 19-12-2005 02:52:39 1.3 C 3.6 g/m*3 1.3 C 0 km/h
1745 19-12-2005 03:02:39 1.3 C 3.6 g/m*3 1.3 C 0 km/h
1746 19-12-2005 03:12:39 1.3 C 3.66 g/m*3 1.3 C 0 km/h
1747 19-12-2005 03:22:39 1.1 C 3.61 g/m*3 1.1 C 0 km/h
1748 19-12-2005 03:32:39 1.3 C 3.66 g/m*3 1.3 C 0 km/h
1749 19-12-2005 03:42:39 1.3 C 3.66 g/m*3 1.3 C 0 km/h
1750 19-12-2005 03:52:39 1.3 C 3.66 g/m*3 1.3 C 0 km/h
Sensor: Nr:Datum:Temp:Abs-Feuchte:Windchill:Wind:
Aussen-T/F 1751 19-12-2005 04:02:38 1.3 C 3.66 g/m*3 1.3 C 0 km/h
1752 19-12-2005 04:12:38 1.4 C 3.68 g/m*3 1.4 C 0 km/h
1753 19-12-2005 04:22:39 1.5 C 3.65 g/m*3 1.5 C 0 km/h
1754 19-12-2005 04:32:39 1.5 C 3.65 g/m*3 1.5 C 0 km/h
1755 19-12-2005 04:42:39 1.5 C 3.65 g/m*3 1.5 C 0 km/h
1756 19-12-2005 04:52:39 1.5 C 3.65 g/m*3 1.5 C 0 km/h
1757 19-12-2005 05:02:40 1.6 C 3.68 g/m*3 1.6 C 0 km/h
1758 19-12-2005 05:12:40 1.6 C 3.68 g/m*3 1.6 C 0 km/h
1759 19-12-2005 05:22:39 1.6 C 3.68 g/m*3 1.6 C 0 km/h
1760 19-12-2005 05:32:39 1.6 C 3.68 g/m*3 1.6 C 0 km/h
1761 19-12-2005 05:42:39 1.7 C 3.7 g/m*3 1.7 C 0 km/h
1762 19-12-2005 05:52:39 1.7 C 3.7 g/m*3 1.7 C 0 km/h
1763 19-12-2005 06:02:40 1.8 C 3.73 g/m*3 1.8 C 0 km/h
1764 19-12-2005 06:12:40 1.8 C 3.73 g/m*3 1.8 C 0 km/h
1765 19-12-2005 06:22:39 1.8 C 3.73 g/m*3 1.8 C 0 km/h
1766 19-12-2005 06:32:40 1.7 C 3.76 g/m*3 1.7 C 0 km/h
1767 19-12-2005 06:42:40 1.6 C 3.79 g/m*3 1.6 C 0 km/h
1768 19-12-2005 06:52:39 1.6 C 3.79 g/m*3 1.6 C 0 km/h
1769 19-12-2005 07:02:39 1.7 C 3.76 g/m*3 1.7 C 0 km/h
1770 19-12-2005 07:12:39 1.6 C 3.73 g/m*3 1.6 C 0 km/h
1771 19-12-2005 07:22:39 1.4 C 3.79 g/m*3 1.4 C 0 km/h
1772 19-12-2005 07:32:39 1.3 C 3.87 g/m*3 1.3 C 0 km/h
1773 19-12-2005 07:42:39 1.4 C 3.84 g/m*3 1.4 C 0 km/h
1774 19-12-2005 07:52:39 1.4 C 3.84 g/m*3 1.4 C 0 km/h
1775 19-12-2005 08:02:39 1.3 C 3.87 g/m*3 1.3 C 0 km/h
Sensor: Nr:Datum:Temp:Abs-Feuchte:Windchill:Wind:
Aussen-T/F 1776 19-12-2005 08:12:39 1.2 C 3.89 g/m*3 1.2 C 0 km/h
1777 19-12-2005 08:22:39 1.2 C 3.89 g/m*3 1.2 C 0 km/h
1778 19-12-2005 08:32:40 1.1 C 3.92 g/m*3 1.1 C 0 km/h
1779 19-12-2005 08:42:40 1.1 C 3.92 g/m*3 1.1 C 0 km/h
1780 19-12-2005 08:52:39 1.3 C 3.97 g/m*3 1.3 C 0 km/h
1781 19-12-2005 09:02:40 1.2 C 3.89 g/m*3 1.2 C 0 km/h
1782 19-12-2005 09:12:40 1.3 C 3.92 g/m*3 1.3 C 0 km/h
1783 19-12-2005 09:22:39 1.3 C 3.87 g/m*3 1.3 C 0 km/h
1784 19-12-2005 09:32:39 1.3 C 3.87 g/m*3 1.3 C 0 km/h
1785 19-12-2005 09:42:39 1 C 3.89 g/m*3 1 C 0 km/h
1786 19-12-2005 09:52:40 0.7 C 4.07 g/m*3 0.7 C 0 km/h
1787 19-12-2005 10:02:39 0.7 C 4.12 g/m*3 0.7 C 0 km/h
1788 19-12-2005 10:12:39 0.7 C 4.17 g/m*3 0.7 C 0 km/h
1789 19-12-2005 10:22:39 0.9 C 4.23 g/m*3 0.9 C 0 km/h
1790 19-12-2005 10:32:40 1 C 4.15 g/m*3 1 C 0 km/h
1791 19-12-2005 10:42:40 1 C 4.15 g/m*3 1 C 0 km/h
1792 19-12-2005 10:52:39 1.3 C 4.19 g/m*3 1.3 C 0 km/h
1793 19-12-2005 11:02:39 1.3 C 4.08 g/m*3 1.3 C 0 km/h
1794 19-12-2005 11:12:39 1.4 C 4.11 g/m*3 1.4 C 0 km/h
1795 19-12-2005 11:22:40 1.4 C 4.05 g/m*3 1.4 C 0 km/h
1796 19-12-2005 11:32:40 1.3 C 4.08 g/m*3 1.3 C 0 km/h
1797 19-12-2005 11:42:40 1.3 C 4.08 g/m*3 1.3 C 0 km/h
1798 19-12-2005 11:52:40 1.2 C 4.1 g/m*3 1.2 C 0 km/h
1799 19-12-2005 12:02:40 0.8 C 4.2 g/m*3 0.8 C 0 km/h
1800 19-12-2005 12:12:41 0.8 C 4.25 g/m*3 0.8 C 0 km/h
Sensor: Nr:Datum:Temp:Abs-Feuchte:Windchill:Wind:
Aussen-T/F 1801 19-12-2005 12:22:40 0.9 C 4.23 g/m*3 0.9 C 0 km/h
1802 19-12-2005 12:32:39 0.9 C 4.23 g/m*3 0.9 C 0 km/h
1803 19-12-2005 12:42:39 1 C 4.2 g/m*3 1 C 0 km/h
1804 19-12-2005 12:52:39 1.1 C 4.18 g/m*3 1.1 C 0 km/h
1805 19-12-2005 13:02:40 1.3 C 4.24 g/m*3 1.3 C 0 km/h
1806 19-12-2005 13:12:40 1.4 C 4.21 g/m*3 1.4 C 0 km/h
1807 19-12-2005 13:22:40 1.5 C 4.19 g/m*3 1.5 C 0 km/h
1808 19-12-2005 13:32:40 1.5 C 4.19 g/m*3 1.5 C 0 km/h
1809 19-12-2005 13:42:40 1.6 C 4.16 g/m*3 1.6 C 0 km/h
1810 19-12-2005 13:52:40 1.7 C 4.14 g/m*3 1.7 C 0 km/h
1811 19-12-2005 14:02:40 1.7 C 4.19 g/m*3 1.7 C 0 km/h
1812 19-12-2005 14:12:40 1.6 C 4.22 g/m*3 1.6 C 0 km/h
1813 19-12-2005 14:22:40 1.6 C 4.27 g/m*3 1.6 C 0 km/h
1814 19-12-2005 14:32:40 1.4 C 4.32 g/m*3 1.4 C 0 km/h
1815 19-12-2005 14:42:40 1.2 C 4.31 g/m*3 1.2 C 0 km/h
1816 19-12-2005 14:52:40 1.3 C 4.45 g/m*3 1.3 C 0 km/h
1817 19-12-2005 15:02:40 1.3 C 4.45 g/m*3 1.3 C 0 km/h
1818 19-12-2005 15:12:40 1.4 C 4.48 g/m*3 1.4 C 0 km/h
1819 19-12-2005 15:22:40 1.4 C 4.48 g/m*3 1.4 C 0 km/h
1820 19-12-2005 15:32:40 1.5 C 4.51 g/m*3 1.5 C 0 km/h
1821 19-12-2005 15:42:40 1.5 C 4.51 g/m*3 1.5 C 0 km/h
1822 19-12-2005 15:52:40 1.5 C 4.51 g/m*3 1.5 C 0 km/h
1823 19-12-2005 16:02:40 1.5 C 4.51 g/m*3 1.5 C 0 km/h
1824 19-12-2005 16:12:40 1.6 C 4.49 g/m*3 1.6 C 0 km/h
1825 19-12-2005 16:22:40 1.7 C 4.46 g/m*3 1.7 C 0 km/h
Sensor: Nr:Datum:Temp:Abs-Feuchte:Windchill:Wind:
Aussen-T/F 1826 19-12-2005 16:32:41 1.7 C 4.46 g/m*3 1.7 C 0 km/h
1827 19-12-2005 16:42:41 1.7 C 4.46 g/m*3 1.7 C 0 km/h
1828 19-12-2005 16:52:40 1.8 C 4.49 g/m*3 1.8 C 0 km/h
1829 19-12-2005 17:02:41 1.9 C 4.53 g/m*3 1.9 C 0 km/h
1830 19-12-2005 17:12:41 1.8 C 4.44 g/m*3 1.8 C 0 km/h
1831 19-12-2005 17:22:40 2 C 4.5 g/m*3 2 C 0 km/h
1832 19-12-2005 17:32:40 1.9 C 4.58 g/m*3 1.9 C 0 km/h
1833 19-12-2005 17:42:40 1.9 C 4.58 g/m*3 1.9 C 0 km/h
1834 19-12-2005 17:52:41 1.9 C 4.58 g/m*3 1.9 C 0 km/h
1835 19-12-2005 18:02:40 2 C 4.61 g/m*3 2 C 0 km/h
1836 19-12-2005 18:12:40 1.9 C 4.64 g/m*3 1.9 C 0 km/h
1837 19-12-2005 18:22:40 1.8 C 4.66 g/m*3 1.8 C 0 km/h
1838 19-12-2005 18:32:40 1.9 C 4.75 g/m*3 1.9 C 0 km/h
1839 19-12-2005 18:42:40 1.9 C 4.75 g/m*3 1.9 C 0 km/h
1840 19-12-2005 18:52:40 1.8 C 4.77 g/m*3 1.8 C 0 km/h
1841 19-12-2005 19:02:40 1.8 C 4.82 g/m*3 1.8 C 0 km/h
1842 19-12-2005 19:12:40 1.8 C 4.82 g/m*3 1.8 C 0 km/h
1843 19-12-2005 19:22:40 1.8 C 4.88 g/m*3 1.8 C 0 km/h
1844 19-12-2005 19:32:41 1.9 C 4.91 g/m*3 1.9 C 0 km/h
1845 19-12-2005 19:42:41 2 C 4.95 g/m*3 2 C 0 km/h
1846 19-12-2005 19:52:40 2 C 4.95 g/m*3 2 C 0 km/h
1847 19-12-2005 20:02:40 2 C 4.95 g/m*3 2 C 0 km/h
1848 19-12-2005 20:12:40 1.9 C 4.97 g/m*3 1.9 C 0 km/h
1849 19-12-2005 20:22:40 2 C 4.95 g/m*3 2 C 0 km/h
1850 19-12-2005 20:32:41 2.1 C 4.98 g/m*3 2.1 C 0 km/h
Sensor: Nr:Datum:Temp:Abs-Feuchte:Windchill:Wind:
Aussen-T/F 1851 19-12-2005 20:42:41 2.1 C 4.98 g/m*3 2.1 C 0 km/h
1852 19-12-2005 20:52:40 2.2 C 5.01 g/m*3 2.2 C 0 km/h
1853 19-12-2005 21:02:41 2.2 C 5.01 g/m*3 2.2 C 0 km/h
1854 19-12-2005 21:12:41 2.2 C 4.96 g/m*3 2.2 C 0 km/h
1855 19-12-2005 21:22:41 2.3 C 4.99 g/m*3 2.3 C 0 km/h
1856 19-12-2005 21:32:40 2.2 C 4.96 g/m*3 2.2 C 0 km/h
1857 19-12-2005 21:42:40 2.2 C 5.01 g/m*3 2.2 C 0 km/h
1858 19-12-2005 21:52:40 2.2 C 5.01 g/m*3 2.2 C 0 km/h
1859 19-12-2005 22:02:42 2.1 C 4.98 g/m*3 2.1 C 0 km/h
1860 19-12-2005 22:12:42 2.2 C 5.01 g/m*3 2.2 C 0 km/h
1861 19-12-2005 22:22:41 2.2 C 5.07 g/m*3 2.2 C 0 km/h
1862 19-12-2005 22:32:41 2.2 C 5.01 g/m*3 2.2 C 0 km/h
1863 19-12-2005 22:42:41 2.2 C 5.01 g/m*3 2.2 C 0 km/h
1864 19-12-2005 22:52:41 2.3 C 5.05 g/m*3 2.3 C 0 km/h
1865 19-12-2005 23:02:40 2.4 C 5.08 g/m*3 2.4 C 0 km/h
1866 19-12-2005 23:12:40 2.4 C 5.08 g/m*3 2.4 C 0 km/h
1867 19-12-2005 23:22:40 2.4 C 5.08 g/m*3 2.4 C 0 km/h
1868 19-12-2005 23:32:41 2.4 C 5.08 g/m*3 2.4 C 0 km/h
1869 19-12-2005 23:42:41 2.4 C 5.08 g/m*3 2.4 C 0 km/h
1870 19-12-2005 23:52:41 2.4 C 5.08 g/m*3 2.4 C 0 km/h
1871 20-12-2005 00:02:41 2.3 C 5.05 g/m*3 2.3 C 0 km/h
1872 20-12-2005 00:12:41 2.3 C 5.05 g/m*3 2.3 C 0 km/h
1873 20-12-2005 00:22:41 2.3 C 5.05 g/m*3 2.3 C 0 km/h
1874 20-12-2005 00:32:41 2.4 C 5.08 g/m*3 2.4 C 0 km/h
1875 20-12-2005 00:42:41 2.4 C 5.08 g/m*3 2.4 C 0 km/h
Sensor: Nr:Datum:Temp:Abs-Feuchte:Windchill:Wind:
Aussen-T/F 1876 20-12-2005 00:52:42 2.4 C 5.08 g/m*3 2.4 C 0 km/h
1877 20-12-2005 01:02:41 2.5 C 5.12 g/m*3 2.5 C 0 km/h
1878 20-12-2005 01:12:41 2.4 C 5.08 g/m*3 2.4 C 0 km/h
1879 20-12-2005 01:22:41 2.4 C 5.02 g/m*3 2.4 C 0 km/h
1880 20-12-2005 01:32:41 2.5 C 5.06 g/m*3 2.5 C 0 km/h
1881 20-12-2005 01:42:42 2.5 C 5.06 g/m*3 2.5 C 0 km/h
1882 20-12-2005 01:52:41 2.5 C 5.06 g/m*3 2.5 C 0 km/h
1883 20-12-2005 02:02:41 2.6 C 5.03 g/m*3 2.6 C 0 km/h
1884 20-12-2005 02:12:41 2.6 C 5.03 g/m*3 2.6 C 0 km/h
1885 20-12-2005 02:22:41 2.6 C 4.98 g/m*3 2.6 C 0 km/h
1886 20-12-2005 02:32:41 2.6 C 4.98 g/m*3 2.6 C 0 km/h
1887 20-12-2005 02:42:41 2.7 C 5.01 g/m*3 2.7 C 0 km/h
1888 20-12-2005 02:53:43 2.6 C 4.92 g/m*3 2.6 C 0 km/h
1889 20-12-2005 03:03:43 2.7 C 5.01 g/m*3 2.7 C 0 km/h
1890 20-12-2005 03:13:42 2.6 C 4.92 g/m*3 2.6 C 0 km/h
1891 20-12-2005 03:23:42 2.6 C 4.92 g/m*3 2.6 C 0 km/h
1892 20-12-2005 03:33:42 2.8 C 4.93 g/m*3 2.8 C 0 km/h
1893 20-12-2005 03:43:42 2.7 C 4.89 g/m*3 2.7 C 0 km/h
1894 20-12-2005 03:53:42 2.7 C 4.89 g/m*3 2.7 C 0 km/h
1895 20-12-2005 04:03:42 2.6 C 4.86 g/m*3 2.6 C 0 km/h
1896 20-12-2005 04:13:42 2.7 C 4.89 g/m*3 2.7 C 0 km/h
1897 20-12-2005 04:23:43 2.7 C 4.89 g/m*3 2.7 C 0 km/h
1898 20-12-2005 04:33:43 2.6 C 4.86 g/m*3 2.6 C 0 km/h
1899 20-12-2005 04:43:43 2.5 C 4.83 g/m*3 2.5 C 0 km/h
1900 20-12-2005 04:53:43 2.2 C 4.73 g/m*3 2.2 C 0 km/h
Sensor: Nr:Datum:Temp:Abs-Feuchte:Windchill:Wind:
Aussen-T/F 1901 20-12-2005 05:03:43 2.2 C 4.79 g/m*3 2.2 C 0 km/h
1902 20-12-2005 05:13:43 2.1 C 4.76 g/m*3 2.1 C 0 km/h
1903 20-12-2005 05:23:42 2.1 C 4.81 g/m*3 2.1 C 0 km/h
1904 20-12-2005 05:33:42 2 C 4.78 g/m*3 2 C 0 km/h
1905 20-12-2005 05:43:42 2.2 C 4.9 g/m*3 2.2 C 0 km/h
1906 20-12-2005 05:53:42 2.3 C 4.93 g/m*3 2.3 C 0 km/h
1907 20-12-2005 06:03:42 2.4 C 4.97 g/m*3 2.4 C 0 km/h
1908 20-12-2005 06:13:42 2.5 C 4.94 g/m*3 2.5 C 0 km/h
1909 20-12-2005 06:23:43 2.5 C 4.94 g/m*3 2.5 C 0 km/h
1910 20-12-2005 06:33:43 2.6 C 4.98 g/m*3 2.6 C 0 km/h
1911 20-12-2005 06:43:43 2.5 C 4.89 g/m*3 2.5 C 0 km/h
1912 20-12-2005 06:53:42 2.5 C 4.89 g/m*3 2.5 C 0 km/h
1913 20-12-2005 07:03:42 2.4 C 4.8 g/m*3 2.4 C 0 km/h
1914 20-12-2005 07:13:42 2.2 C 4.73 g/m*3 2.2 C 0 km/h
1915 20-12-2005 07:23:43 2.3 C 4.82 g/m*3 2.3 C 0 km/h
1916 20-12-2005 07:33:43 2.3 C 4.88 g/m*3 2.3 C 0 km/h
1917 20-12-2005 07:43:43 2.5 C 4.89 g/m*3 2.5 C 0 km/h
1918 20-12-2005 07:53:42 2.6 C 4.8 g/m*3 2.6 C 0 km/h
1919 20-12-2005 08:03:43 2.5 C 4.77 g/m*3 2.5 C 0 km/h
1920 20-12-2005 08:13:43 2.5 C 4.77 g/m*3 2.5 C 0 km/h
1921 20-12-2005 08:23:43 2.5 C 4.71 g/m*3 2.5 C 0 km/h
1922 20-12-2005 08:33:43 2.4 C 4.68 g/m*3 2.4 C 0 km/h
1923 20-12-2005 08:43:43 2.3 C 4.65 g/m*3 2.3 C 0 km/h
1924 20-12-2005 08:53:43 2.4 C 4.68 g/m*3 2.4 C 0 km/h
1925 20-12-2005 09:03:42 2.5 C 4.66 g/m*3 2.5 C 0 km/h
Sensor: Nr:Datum:Temp:Abs-Feuchte:Windchill:Wind:
Aussen-T/F 1926 20-12-2005 09:13:42 2.6 C 4.69 g/m*3 2.6 C 0 km/h
1927 20-12-2005 09:23:42 2.7 C 4.66 g/m*3 2.7 C 0 km/h
1928 20-12-2005 09:33:43 2.8 C 4.69 g/m*3 2.8 C 0 km/h
1929 20-12-2005 09:43:43 2.8 C 4.63 g/m*3 2.8 C 0 km/h
1930 20-12-2005 09:53:43 2.8 C 4.63 g/m*3 2.8 C 0 km/h
1931 20-12-2005 10:03:44 2.8 C 4.58 g/m*3 2.8 C 0 km/h
1932 20-12-2005 10:13:44 2.8 C 4.58 g/m*3 2.8 C 0 km/h
1933 20-12-2005 10:23:43 2.8 C 4.63 g/m*3 2.8 C 0 km/h
1934 20-12-2005 10:33:43 2.8 C 4.58 g/m*3 2.8 C 0 km/h
1935 20-12-2005 10:43:43 2.7 C 4.6 g/m*3 2.7 C 0 km/h
1936 20-12-2005 10:53:43 2.8 C 4.63 g/m*3 2.8 C 0 km/h
1937 20-12-2005 11:03:43 2.8 C 4.58 g/m*3 2.8 C 0 km/h
1938 20-12-2005 11:13:43 2.8 C 4.58 g/m*3 2.8 C 0 km/h
1939 20-12-2005 11:23:43 3 C 4.58 g/m*3 3 C 0 km/h
1940 20-12-2005 11:33:43 3 C 4.58 g/m*3 3 C 0 km/h
1941 20-12-2005 11:43:43 3.1 C 4.61 g/m*3 3.1 C 0 km/h
1942 20-12-2005 11:53:43 3.1 C 4.55 g/m*3 3.1 C 0 km/h
1943 20-12-2005 12:03:43 3 C 4.58 g/m*3 3 C 0 km/h
1944 20-12-2005 12:13:43 3 C 4.52 g/m*3 3 C 0 km/h
1945 20-12-2005 12:23:43 3 C 4.52 g/m*3 3 C 0 km/h
1946 20-12-2005 12:33:43 3 C 4.52 g/m*3 3 C 0 km/h
1947 20-12-2005 12:43:43 3.1 C 4.55 g/m*3 3.1 C 0 km/h
1948 20-12-2005 12:53:43 3 C 4.52 g/m*3 3 C 0 km/h
1949 20-12-2005 13:03:43 3 C 4.52 g/m*3 3 C 0 km/h
1950 20-12-2005 13:13:43 3.6 C 4.64 g/m*3 3.6 C 0 km/h
Sensor: Nr:Datum:Temp:Abs-Feuchte:Windchill:Wind:
Aussen-T/F 1951 20-12-2005 13:23:43 3.5 C 4.49 g/m*3 3.5 C 0 km/h
1952 20-12-2005 13:33:44 3.4 C 4.46 g/m*3 3.4 C 0 km/h
1953 20-12-2005 13:43:44 3.5 C 4.55 g/m*3 3.5 C 0 km/h
1954 20-12-2005 13:53:43 3.8 C 4.58 g/m*3 3.8 C 0 km/h
1955 20-12-2005 14:03:44 3.9 C 4.55 g/m*3 3.9 C 0 km/h
1956 20-12-2005 14:13:44 3.9 C 4.55 g/m*3 3.9 C 0 km/h
1957 20-12-2005 14:23:43 3.9 C 4.55 g/m*3 3.9 C 0 km/h
1958 20-12-2005 14:33:43 3.9 C 4.55 g/m*3 3.9 C 0 km/h
1959 20-12-2005 14:43:43 3.9 C 4.55 g/m*3 3.9 C 0 km/h
1960 20-12-2005 14:53:43 3.9 C 4.55 g/m*3 3.9 C 0 km/h
1961 20-12-2005 15:03:43 3.6 C 4.52 g/m*3 3.6 C 0 km/h
1962 20-12-2005 15:13:43 3.3 C 4.55 g/m*3 3.3 C 0 km/h
1963 20-12-2005 15:23:43 3.6 C 4.58 g/m*3 3.6 C 0 km/h
1964 20-12-2005 15:33:44 4 C 4.45 g/m*3 4 C 0 km/h
1965 20-12-2005 15:43:44 3.9 C 4.42 g/m*3 3.9 C 0 km/h
1966 20-12-2005 15:53:43 3.8 C 4.45 g/m*3 3.8 C 0 km/h
1967 20-12-2005 16:03:44 3.5 C 4.37 g/m*3 3.5 C 0 km/h
1968 20-12-2005 16:13:44 3.3 C 4.37 g/m*3 3.3 C 0 km/h
1969 20-12-2005 16:23:44 3.3 C 4.37 g/m*3 3.3 C 0 km/h
1970 20-12-2005 16:33:43 3.2 C 4.34 g/m*3 3.2 C 0 km/h
1971 20-12-2005 16:43:43 3.2 C 4.34 g/m*3 3.2 C 0 km/h
1972 20-12-2005 16:53:43 3.1 C 4.31 g/m*3 3.1 C 0 km/h
1973 20-12-2005 17:03:43 3 C 4.28 g/m*3 3 C 0 km/h
1974 20-12-2005 17:13:43 2.8 C 4.34 g/m*3 2.8 C 0 km/h
1975 20-12-2005 17:23:43 2.6 C 4.34 g/m*3 2.6 C 0 km/h
Sensor: Nr:Datum:Temp:Abs-Feuchte:Windchill:Wind:
Aussen-T/F 1976 20-12-2005 17:33:44 2.4 C 4.28 g/m*3 2.4 C 0 km/h
1977 20-12-2005 17:43:44 2.4 C 4.34 g/m*3 2.4 C 0 km/h
1978 20-12-2005 17:53:43 2.4 C 4.34 g/m*3 2.4 C 0 km/h
1979 20-12-2005 18:03:44 2.4 C 4.28 g/m*3 2.4 C 0 km/h
1980 20-12-2005 18:13:44 2.5 C 4.37 g/m*3 2.5 C 0 km/h
1981 20-12-2005 18:23:44 2.5 C 4.37 g/m*3 2.5 C 0 km/h
1982 20-12-2005 18:33:44 2.5 C 4.31 g/m*3 2.5 C 0 km/h
1983 20-12-2005 18:43:44 2.5 C 4.31 g/m*3 2.5 C 0 km/h
1984 20-12-2005 18:53:44 2.6 C 4.34 g/m*3 2.6 C 0 km/h
1985 20-12-2005 19:03:44 2.6 C 4.34 g/m*3 2.6 C 0 km/h
1986 20-12-2005 19:13:44 2.7 C 4.37 g/m*3 2.7 C 0 km/h
1987 20-12-2005 19:23:44 2.7 C 4.37 g/m*3 2.7 C 0 km/h
1988 20-12-2005 19:33:44 2.7 C 4.37 g/m*3 2.7 C 0 km/h
1989 20-12-2005 19:43:44 2.7 C 4.37 g/m*3 2.7 C 0 km/h
1990 20-12-2005 19:53:44 2.7 C 4.37 g/m*3 2.7 C 0 km/h
1991 20-12-2005 20:03:44 2.7 C 4.37 g/m*3 2.7 C 0 km/h
1992 20-12-2005 20:13:44 2.7 C 4.37 g/m*3 2.7 C 0 km/h
1993 20-12-2005 20:23:44 2.6 C 4.4 g/m*3 2.6 C 0 km/h
1994 20-12-2005 20:33:44 2.6 C 4.4 g/m*3 2.6 C 0 km/h
1995 20-12-2005 20:43:44 2.6 C 4.4 g/m*3 2.6 C 0 km/h
1996 20-12-2005 20:53:44 2.6 C 4.4 g/m*3 2.6 C 0 km/h
1997 20-12-2005 21:03:44 2.6 C 4.4 g/m*3 2.6 C 0 km/h
1998 20-12-2005 21:13:45 2.5 C 4.37 g/m*3 2.5 C 0 km/h
1999 20-12-2005 21:23:44 2.5 C 4.37 g/m*3 2.5 C 0 km/h
2000 20-12-2005 21:33:44 2.6 C 4.4 g/m*3 2.6 C 0 km/h
Sensor: Nr:Datum:Temp:Abs-Feuchte:Windchill:Wind:
Aussen-T/F 2001 20-12-2005 21:43:44 2.6 C 4.4 g/m*3 2.6 C 0 km/h
2002 20-12-2005 21:53:44 2.6 C 4.4 g/m*3 2.6 C 0 km/h
2003 20-12-2005 22:03:44 2.6 C 4.4 g/m*3 2.6 C 0 km/h
2004 20-12-2005 22:13:44 2.6 C 4.4 g/m*3 2.6 C 0 km/h
2005 20-12-2005 22:23:44 2.6 C 4.46 g/m*3 2.6 C 0 km/h
2006 20-12-2005 22:33:44 2.5 C 4.43 g/m*3 2.5 C 0 km/h
2007 20-12-2005 22:43:44 2.6 C 4.46 g/m*3 2.6 C 0 km/h
2008 20-12-2005 22:53:44 2.6 C 4.46 g/m*3 2.6 C 0 km/h
2009 20-12-2005 23:03:44 2.6 C 4.46 g/m*3 2.6 C 0 km/h
2010 20-12-2005 23:13:44 2.6 C 4.46 g/m*3 2.6 C 0 km/h
2011 20-12-2005 23:23:45 2.6 C 4.46 g/m*3 2.6 C 0 km/h
2012 20-12-2005 23:33:44 2.6 C 4.46 g/m*3 2.6 C 0 km/h
2013 20-12-2005 23:43:44 2.5 C 4.43 g/m*3 2.5 C 0 km/h
2014 20-12-2005 23:53:44 2.6 C 4.46 g/m*3 2.6 C 0 km/h
2015 21-12-2005 00:03:45 2.5 C 4.43 g/m*3 2.5 C 0 km/h
2016 21-12-2005 00:13:45 2.6 C 4.46 g/m*3 2.6 C 0 km/h
2017 21-12-2005 00:23:45 2.6 C 4.46 g/m*3 2.6 C 0 km/h
2018 21-12-2005 00:33:44 2.5 C 4.48 g/m*3 2.5 C 0 km/h
2019 21-12-2005 00:43:44 2.5 C 4.48 g/m*3 2.5 C 0 km/h
2020 21-12-2005 00:53:45 2.5 C 4.48 g/m*3 2.5 C 0 km/h
2021 21-12-2005 01:03:45 2.5 C 4.48 g/m*3 2.5 C 0 km/h
2022 21-12-2005 01:13:45 2.5 C 4.54 g/m*3 2.5 C 0 km/h
2023 21-12-2005 01:23:45 2.4 C 4.51 g/m*3 2.4 C 0 km/h
2024 21-12-2005 01:33:45 2.4 C 4.51 g/m*3 2.4 C 0 km/h
2025 21-12-2005 01:43:45 2.2 C 4.45 g/m*3 2.2 C 0 km/h
Sensor: Nr:Datum:Temp:Abs-Feuchte:Windchill:Wind:
Aussen-T/F 2026 21-12-2005 01:53:45 2 C 4.45 g/m*3 2 C 0 km/h
2027 21-12-2005 02:03:45 2.2 C 4.51 g/m*3 2.2 C 0 km/h
2028 21-12-2005 02:13:45 2.3 C 4.54 g/m*3 2.3 C 0 km/h
2029 21-12-2005 02:23:44 2.4 C 4.51 g/m*3 2.4 C 0 km/h
2030 21-12-2005 02:33:44 2.4 C 4.51 g/m*3 2.4 C 0 km/h
2031 21-12-2005 02:43:44 2.3 C 4.48 g/m*3 2.3 C 0 km/h
2032 21-12-2005 02:54:46 2.3 C 4.48 g/m*3 2.3 C 0 km/h
2033 21-12-2005 03:04:46 2.3 C 4.48 g/m*3 2.3 C 0 km/h
2034 21-12-2005 03:14:46 2.3 C 4.48 g/m*3 2.3 C 0 km/h
2035 21-12-2005 03:24:46 2.3 C 4.48 g/m*3 2.3 C 0 km/h
2036 21-12-2005 03:34:46 2.3 C 4.48 g/m*3 2.3 C 0 km/h
2037 21-12-2005 03:44:47 2.3 C 4.48 g/m*3 2.3 C 0 km/h
2038 21-12-2005 03:54:47 2.3 C 4.48 g/m*3 2.3 C 0 km/h
2039 21-12-2005 04:04:46 2.2 C 4.45 g/m*3 2.2 C 0 km/h
2040 21-12-2005 04:14:47 2.2 C 4.51 g/m*3 2.2 C 0 km/h
2041 21-12-2005 04:24:46 2.2 C 4.51 g/m*3 2.2 C 0 km/h
2042 21-12-2005 04:34:46 2.2 C 4.51 g/m*3 2.2 C 0 km/h
2043 21-12-2005 04:44:46 2.2 C 4.51 g/m*3 2.2 C 0 km/h
2044 21-12-2005 04:54:46 2.2 C 4.51 g/m*3 2.2 C 0 km/h
2045 21-12-2005 05:04:46 2.1 C 4.48 g/m*3 2.1 C 0 km/h
2046 21-12-2005 05:14:46 2 C 4.45 g/m*3 2 C 0 km/h
2047 21-12-2005 05:24:46 2 C 4.45 g/m*3 2 C 0 km/h
2048 21-12-2005 05:34:46 1.8 C 4.44 g/m*3 1.8 C 0 km/h
2049 21-12-2005 05:44:46 1.7 C 4.41 g/m*3 1.7 C 0 km/h
2050 21-12-2005 05:54:46 1.6 C 4.38 g/m*3 1.6 C 0 km/h
Sensor: Nr:Datum:Temp:Abs-Feuchte:Windchill:Wind:
Aussen-T/F 2051 21-12-2005 06:04:46 1.3 C 4.34 g/m*3 1.3 C 0 km/h
2052 21-12-2005 06:14:46 1.4 C 4.43 g/m*3 1.4 C 0 km/h
2053 21-12-2005 06:24:46 1.5 C 4.46 g/m*3 1.5 C 0 km/h
2054 21-12-2005 06:34:47 1.7 C 4.52 g/m*3 1.7 C 0 km/h
2055 21-12-2005 06:44:47 1.7 C 4.46 g/m*3 1.7 C 0 km/h
2056 21-12-2005 06:54:47 1.8 C 4.49 g/m*3 1.8 C 0 km/h
2057 21-12-2005 07:04:47 1.8 C 4.49 g/m*3 1.8 C 0 km/h
2058 21-12-2005 07:14:47 1.9 C 4.47 g/m*3 1.9 C 0 km/h
2059 21-12-2005 07:24:46 2 C 4.45 g/m*3 2 C 0 km/h
2060 21-12-2005 07:34:46 2 C 4.45 g/m*3 2 C 0 km/h
2061 21-12-2005 07:44:46 2 C 4.45 g/m*3 2 C 0 km/h
2062 21-12-2005 07:54:47 1.9 C 4.47 g/m*3 1.9 C 0 km/h
2063 21-12-2005 08:04:46 1.8 C 4.44 g/m*3 1.8 C 0 km/h
2064 21-12-2005 08:14:46 1.9 C 4.47 g/m*3 1.9 C 0 km/h
2065 21-12-2005 08:24:46 1.9 C 4.47 g/m*3 1.9 C 0 km/h
2066 21-12-2005 08:34:47 1.9 C 4.42 g/m*3 1.9 C 0 km/h
2067 21-12-2005 08:44:47 1.9 C 4.42 g/m*3 1.9 C 0 km/h
2068 21-12-2005 08:54:47 2 C 4.39 g/m*3 2 C 0 km/h
2069 21-12-2005 09:04:47 2 C 4.33 g/m*3 2 C 0 km/h
2070 21-12-2005 09:14:47 2.1 C 4.36 g/m*3 2.1 C 0 km/h
2071 21-12-2005 09:24:47 2.1 C 4.31 g/m*3 2.1 C 0 km/h
2072 21-12-2005 09:34:46 2.1 C 4.31 g/m*3 2.1 C 0 km/h
2073 21-12-2005 09:44:46 2.1 C 4.25 g/m*3 2.1 C 0 km/h
2074 21-12-2005 09:54:47 2.3 C 4.31 g/m*3 2.3 C 0 km/h
2075 21-12-2005 10:04:47 2.4 C 4.28 g/m*3 2.4 C 0 km/h
Sensor: Nr:Datum:Temp:Abs-Feuchte:Windchill:Wind:
Aussen-T/F 2076 21-12-2005 10:14:47 2.5 C 4.31 g/m*3 2.5 C 0 km/h
2077 21-12-2005 10:24:46 2.6 C 4.28 g/m*3 2.6 C 0 km/h
2078 21-12-2005 10:34:47 2.7 C 4.31 g/m*3 2.7 C 0 km/h
2079 21-12-2005 10:44:47 2.7 C 4.25 g/m*3 2.7 C 0 km/h
2080 21-12-2005 10:54:46 2.7 C 4.25 g/m*3 2.7 C 0 km/h
2081 21-12-2005 11:04:47 2.8 C 4.28 g/m*3 2.8 C 0 km/h
2082 21-12-2005 11:14:47 3 C 4.28 g/m*3 3 C 0 km/h
2083 21-12-2005 11:24:47 3.1 C 4.25 g/m*3 3.1 C 0 km/h
2084 21-12-2005 11:34:47 3 C 4.22 g/m*3 3 C 0 km/h
2085 21-12-2005 11:44:47 3 C 4.22 g/m*3 3 C 0 km/h
2086 21-12-2005 11:54:47 3 C 4.22 g/m*3 3 C 0 km/h
2087 21-12-2005 12:04:47 2.9 C 4.25 g/m*3 2.9 C 0 km/h
2088 21-12-2005 12:14:47 3 C 4.28 g/m*3 3 C 0 km/h
2089 21-12-2005 12:24:47 3.3 C 4.37 g/m*3 3.3 C 0 km/h
2090 21-12-2005 12:34:47 3.3 C 4.31 g/m*3 3.3 C 0 km/h
2091 21-12-2005 12:44:47 3.1 C 4.25 g/m*3 3.1 C 0 km/h
2092 21-12-2005 12:54:47 3.2 C 4.28 g/m*3 3.2 C 0 km/h
2093 21-12-2005 13:04:47 3.3 C 4.31 g/m*3 3.3 C 0 km/h
2094 21-12-2005 13:14:47 3.2 C 4.28 g/m*3 3.2 C 0 km/h
2095 21-12-2005 13:24:48 3.2 C 4.28 g/m*3 3.2 C 0 km/h
2096 21-12-2005 13:34:47 3.3 C 4.25 g/m*3 3.3 C 0 km/h
2097 21-12-2005 13:44:47 3.4 C 4.28 g/m*3 3.4 C 0 km/h
2098 21-12-2005 13:54:48 3.6 C 4.33 g/m*3 3.6 C 0 km/h
2099 21-12-2005 14:04:47 3.6 C 4.27 g/m*3 3.6 C 0 km/h
2100 21-12-2005 14:14:48 3.6 C 4.27 g/m*3 3.6 C 0 km/h
Sensor: Nr:Datum:Temp:Abs-Feuchte:Windchill:Wind:
Aussen-T/F 2101 21-12-2005 14:24:47 3.5 C 4.24 g/m*3 3.5 C 0 km/h
2102 21-12-2005 14:34:47 3.5 C 4.24 g/m*3 3.5 C 0 km/h
2103 21-12-2005 14:44:47 3.2 C 4.22 g/m*3 3.2 C 0 km/h
2104 21-12-2005 14:54:47 3.1 C 4.25 g/m*3 3.1 C 0 km/h
2105 21-12-2005 15:04:47 2.8 C 4.22 g/m*3 2.8 C 0 km/h
2106 21-12-2005 15:14:47 2.7 C 4.31 g/m*3 2.7 C 0 km/h
2107 21-12-2005 15:24:48 2.5 C 4.25 g/m*3 2.5 C 0 km/h
2108 21-12-2005 15:34:48 2.4 C 4.28 g/m*3 2.4 C 0 km/h
2109 21-12-2005 15:44:48 2.3 C 4.31 g/m*3 2.3 C 0 km/h
2110 21-12-2005 15:54:48 2.1 C 4.25 g/m*3 2.1 C 0 km/h
2111 21-12-2005 16:04:48 1.9 C 4.3 g/m*3 1.9 C 0 km/h
2112 21-12-2005 16:14:48 1.6 C 4.22 g/m*3 1.6 C 0 km/h
2113 21-12-2005 16:24:47 1.5 C 4.24 g/m*3 1.5 C 0 km/h
2114 21-12-2005 16:34:47 1.2 C 4.16 g/m*3 1.2 C 0 km/h
2115 21-12-2005 16:44:47 1.1 C 4.18 g/m*3 1.1 C 0 km/h
2116 21-12-2005 16:54:47 0.9 C 4.18 g/m*3 0.9 C 0 km/h
2117 21-12-2005 17:04:47 0.8 C 4.15 g/m*3 0.8 C 0 km/h
2118 21-12-2005 17:14:47 0.8 C 4.15 g/m*3 0.8 C 0 km/h
2119 21-12-2005 17:24:48 0.8 C 4.2 g/m*3 0.8 C 0 km/h
2120 21-12-2005 17:34:48 1.1 C 4.29 g/m*3 1.1 C 0 km/h
2121 21-12-2005 17:44:48 1.1 C 4.23 g/m*3 1.1 C 0 km/h
2122 21-12-2005 17:54:47 1.2 C 4.26 g/m*3 1.2 C 0 km/h
2123 21-12-2005 18:04:48 1.4 C 4.32 g/m*3 1.4 C 0 km/h
2124 21-12-2005 18:14:48 1.5 C 4.3 g/m*3 1.5 C 0 km/h
2125 21-12-2005 18:24:48 1.7 C 4.3 g/m*3 1.7 C 0 km/h
Sensor: Nr:Datum:Temp:Abs-Feuchte:Windchill:Wind:
Aussen-T/F 2126 21-12-2005 18:34:48 1.7 C 4.3 g/m*3 1.7 C 0 km/h
2127 21-12-2005 18:44:48 1.8 C 4.28 g/m*3 1.8 C 0 km/h
2128 21-12-2005 18:54:48 1.8 C 4.28 g/m*3 1.8 C 0 km/h
2129 21-12-2005 19:04:48 1.9 C 4.25 g/m*3 1.9 C 0 km/h
2130 21-12-2005 19:14:48 1.8 C 4.22 g/m*3 1.8 C 0 km/h
2131 21-12-2005 19:24:47 1.8 C 4.22 g/m*3 1.8 C 0 km/h
2132 21-12-2005 19:34:48 1.8 C 4.22 g/m*3 1.8 C 0 km/h
2133 21-12-2005 19:44:48 1.8 C 4.22 g/m*3 1.8 C 0 km/h
2134 21-12-2005 19:54:47 1.9 C 4.25 g/m*3 1.9 C 0 km/h
2135 21-12-2005 20:04:48 1.9 C 4.19 g/m*3 1.9 C 0 km/h
2136 21-12-2005 20:14:48 1.9 C 4.19 g/m*3 1.9 C 0 km/h
2137 21-12-2005 20:24:48 1.9 C 4.19 g/m*3 1.9 C 0 km/h
2138 21-12-2005 20:34:48 2 C 4.17 g/m*3 2 C 0 km/h
2139 21-12-2005 20:44:48 2.1 C 4.2 g/m*3 2.1 C 0 km/h
2140 21-12-2005 20:54:48 2 C 4.17 g/m*3 2 C 0 km/h
2141 21-12-2005 21:04:48 2.1 C 4.2 g/m*3 2.1 C 0 km/h
2142 21-12-2005 21:14:48 2.1 C 4.2 g/m*3 2.1 C 0 km/h
2143 21-12-2005 21:24:48 2.2 C 4.22 g/m*3 2.2 C 0 km/h
2144 21-12-2005 21:34:49 2.2 C 4.22 g/m*3 2.2 C 0 km/h
2145 21-12-2005 21:44:49 2.2 C 4.28 g/m*3 2.2 C 0 km/h
2146 21-12-2005 21:54:48 2.2 C 4.22 g/m*3 2.2 C 0 km/h
2147 21-12-2005 22:04:48 2.1 C 4.25 g/m*3 2.1 C 0 km/h
2148 21-12-2005 22:14:48 2.2 C 4.28 g/m*3 2.2 C 0 km/h
2149 21-12-2005 22:24:48 2.3 C 4.31 g/m*3 2.3 C 0 km/h
2150 21-12-2005 22:34:48 2.3 C 4.31 g/m*3 2.3 C 0 km/h
Sensor: Nr:Datum:Temp:Abs-Feuchte:Windchill:Wind:
Aussen-T/F 2151 21-12-2005 22:44:48 2.3 C 4.31 g/m*3 2.3 C 0 km/h
2152 21-12-2005 22:54:49 2.3 C 4.31 g/m*3 2.3 C 0 km/h
2153 21-12-2005 23:04:48 2.3 C 4.31 g/m*3 2.3 C 0 km/h
2154 21-12-2005 23:14:48 2.4 C 4.34 g/m*3 2.4 C 0 km/h
2155 21-12-2005 23:24:48 2.3 C 4.31 g/m*3 2.3 C 0 km/h
2156 21-12-2005 23:34:48 2.4 C 4.34 g/m*3 2.4 C 0 km/h
2157 21-12-2005 23:44:48 2.4 C 4.34 g/m*3 2.4 C 0 km/h
2158 21-12-2005 23:54:48 2.4 C 4.34 g/m*3 2.4 C 0 km/h
2159 22-12-2005 00:04:48 2.3 C 4.31 g/m*3 2.3 C 0 km/h
2160 22-12-2005 00:14:48 2.2 C 4.34 g/m*3 2.2 C 0 km/h
2161 22-12-2005 00:24:48 2.2 C 4.34 g/m*3 2.2 C 0 km/h
2162 22-12-2005 00:34:49 2.2 C 4.34 g/m*3 2.2 C 0 km/h
2163 22-12-2005 00:44:49 2.3 C 4.37 g/m*3 2.3 C 0 km/h
2164 22-12-2005 00:54:48 2.3 C 4.31 g/m*3 2.3 C 0 km/h
2165 22-12-2005 01:04:48 2.3 C 4.31 g/m*3 2.3 C 0 km/h
2166 22-12-2005 01:14:48 2.3 C 4.31 g/m*3 2.3 C 0 km/h
2167 22-12-2005 01:24:48 2.3 C 4.31 g/m*3 2.3 C 0 km/h
2168 22-12-2005 01:34:48 2.2 C 4.28 g/m*3 2.2 C 0 km/h
2169 22-12-2005 01:44:48 2.3 C 4.31 g/m*3 2.3 C 0 km/h
2170 22-12-2005 01:54:48 2.3 C 4.31 g/m*3 2.3 C 0 km/h
2171 22-12-2005 02:04:48 2.3 C 4.31 g/m*3 2.3 C 0 km/h
2172 22-12-2005 02:14:48 2.4 C 4.34 g/m*3 2.4 C 0 km/h
2173 22-12-2005 02:24:48 2.4 C 4.34 g/m*3 2.4 C 0 km/h
2174 22-12-2005 02:34:48 2.4 C 4.34 g/m*3 2.4 C 0 km/h
2175 22-12-2005 02:44:48 2.5 C 4.43 g/m*3 2.5 C 0 km/h
Sensor: Nr:Datum:Temp:Abs-Feuchte:Windchill:Wind:
Aussen-T/F 2176 22-12-2005 02:55:50 2.5 C 4.37 g/m*3 2.5 C 0 km/h
2177 22-12-2005 03:05:50 2.6 C 4.4 g/m*3 2.6 C 0 km/h
2178 22-12-2005 03:15:50 2.7 C 4.43 g/m*3 2.7 C 0 km/h
2179 22-12-2005 03:25:50 2.7 C 4.37 g/m*3 2.7 C 0 km/h
2180 22-12-2005 03:35:50 2.7 C 4.37 g/m*3 2.7 C 0 km/h
2181 22-12-2005 03:45:50 2.7 C 4.43 g/m*3 2.7 C 0 km/h
2182 22-12-2005 03:55:50 2.8 C 4.46 g/m*3 2.8 C 0 km/h
2183 22-12-2005 04:05:50 2.9 C 4.49 g/m*3 2.9 C 0 km/h
2184 22-12-2005 04:15:50 3 C 4.46 g/m*3 3 C 0 km/h
2185 22-12-2005 04:25:50 3 C 4.46 g/m*3 3 C 0 km/h
2186 22-12-2005 04:35:50 3 C 4.52 g/m*3 3 C 0 km/h
2187 22-12-2005 04:45:50 3 C 4.52 g/m*3 3 C 0 km/h
2188 22-12-2005 04:55:50 3 C 4.52 g/m*3 3 C 0 km/h
2189 22-12-2005 05:05:50 3 C 4.58 g/m*3 3 C 0 km/h
2190 22-12-2005 05:15:51 3 C 4.64 g/m*3 3 C 0 km/h
2191 22-12-2005 05:25:51 2.9 C 4.67 g/m*3 2.9 C 0 km/h
2192 22-12-2005 05:35:51 2.7 C 4.66 g/m*3 2.7 C 0 km/h
2193 22-12-2005 05:45:50 2.6 C 4.75 g/m*3 2.6 C 0 km/h
2194 22-12-2005 05:55:50 2.3 C 4.76 g/m*3 2.3 C 0 km/h
2195 22-12-2005 06:05:51 2.3 C 4.88 g/m*3 2.3 C 0 km/h
2196 22-12-2005 06:15:51 2.3 C 4.88 g/m*3 2.3 C 0 km/h
2197 22-12-2005 06:25:51 2.3 C 4.88 g/m*3 2.3 C 0 km/h
2198 22-12-2005 06:35:50 2.3 C 4.88 g/m*3 2.3 C 0 km/h
2199 22-12-2005 06:45:51 2.2 C 4.9 g/m*3 2.2 C 0 km/h
2200 22-12-2005 06:55:51 2.3 C 4.93 g/m*3 2.3 C 0 km/h
Sensor: Nr:Datum:Temp:Abs-Feuchte:Windchill:Wind:
Aussen-T/F 2201 22-12-2005 07:05:50 2.3 C 4.93 g/m*3 2.3 C 0 km/h
2202 22-12-2005 07:15:50 2.3 C 4.93 g/m*3 2.3 C 0 km/h
2203 22-12-2005 07:25:50 2.3 C 4.99 g/m*3 2.3 C 0 km/h
2204 22-12-2005 07:35:50 2.3 C 4.99 g/m*3 2.3 C 0 km/h
2205 22-12-2005 07:45:51 2.3 C 4.99 g/m*3 2.3 C 0 km/h
2206 22-12-2005 07:55:51 2.3 C 4.99 g/m*3 2.3 C 0 km/h
2207 22-12-2005 08:05:50 2.4 C 5.02 g/m*3 2.4 C 0 km/h
2208 22-12-2005 08:15:50 2.4 C 5.02 g/m*3 2.4 C 0 km/h
2209 22-12-2005 08:25:50 2.4 C 5.02 g/m*3 2.4 C 0 km/h
2210 22-12-2005 08:35:51 2.4 C 5.02 g/m*3 2.4 C 0 km/h
2211 22-12-2005 08:45:50 2.4 C 5.08 g/m*3 2.4 C 0 km/h
2212 22-12-2005 08:55:50 2.4 C 5.02 g/m*3 2.4 C 0 km/h
2213 22-12-2005 09:05:51 2.4 C 5.02 g/m*3 2.4 C 0 km/h
2214 22-12-2005 09:15:51 2.5 C 5.06 g/m*3 2.5 C 0 km/h
2215 22-12-2005 09:25:52 2.5 C 5.06 g/m*3 2.5 C 0 km/h
2216 22-12-2005 09:35:51 2.5 C 5.06 g/m*3 2.5 C 0 km/h
2217 22-12-2005 09:45:51 2.5 C 5.06 g/m*3 2.5 C 0 km/h
2218 22-12-2005 09:55:51 2.5 C 5.06 g/m*3 2.5 C 0 km/h
2219 22-12-2005 10:05:51 2.4 C 5.08 g/m*3 2.4 C 0 km/h
2220 22-12-2005 10:15:51 2.5 C 5.12 g/m*3 2.5 C 0 km/h
2221 22-12-2005 10:25:51 2.6 C 5.15 g/m*3 2.6 C 0 km/h
2222 22-12-2005 10:35:51 2.7 C 5.19 g/m*3 2.7 C 0 km/h
2223 22-12-2005 10:45:51 2.7 C 5.19 g/m*3 2.7 C 0 km/h
2224 22-12-2005 10:55:51 2.7 C 5.19 g/m*3 2.7 C 0 km/h
2225 22-12-2005 11:05:51 2.7 C 5.19 g/m*3 2.7 C 0 km/h
Sensor: Nr:Datum:Temp:Abs-Feuchte:Windchill:Wind:
Aussen-T/F 2226 22-12-2005 11:15:51 2.8 C 5.22 g/m*3 2.8 C 0 km/h
2227 22-12-2005 11:25:51 2.8 C 5.22 g/m*3 2.8 C 0 km/h
2228 22-12-2005 11:35:51 2.9 C 5.26 g/m*3 2.9 C 0 km/h
2229 22-12-2005 11:45:51 2.9 C 5.32 g/m*3 2.9 C 0 km/h
2230 22-12-2005 11:55:51 2.9 C 5.32 g/m*3 2.9 C 0 km/h
2231 22-12-2005 12:05:51 3 C 5.29 g/m*3 3 C 0 km/h
2232 22-12-2005 12:15:51 3 C 5.29 g/m*3 3 C 0 km/h
2233 22-12-2005 12:25:51 3 C 5.29 g/m*3 3 C 0 km/h
2234 22-12-2005 12:35:51 3.1 C 5.33 g/m*3 3.1 C 0 km/h
2235 22-12-2005 12:45:51 3.2 C 5.36 g/m*3 3.2 C 0 km/h
2236 22-12-2005 12:55:51 3.2 C 5.36 g/m*3 3.2 C 0 km/h
2237 22-12-2005 13:05:52 3.3 C 5.4 g/m*3 3.3 C 0 km/h
2238 22-12-2005 13:15:51 3.3 C 5.4 g/m*3 3.3 C 0 km/h
2239 22-12-2005 13:25:51 3.3 C 5.4 g/m*3 3.3 C 0 km/h
2240 22-12-2005 13:35:51 3.2 C 5.36 g/m*3 3.2 C 0 km/h
2241 22-12-2005 13:45:51 3.3 C 5.46 g/m*3 3.3 C 0 km/h
2242 22-12-2005 13:55:51 3.3 C 5.46 g/m*3 3.3 C 0 km/h
2243 22-12-2005 14:05:51 3.3 C 5.46 g/m*3 3.3 C 0 km/h
2244 22-12-2005 14:15:51 3.3 C 5.52 g/m*3 3.3 C 0 km/h
2245 22-12-2005 14:25:51 3.3 C 5.52 g/m*3 3.3 C 0 km/h
2246 22-12-2005 14:35:52 3.5 C 5.6 g/m*3 3.5 C 0 km/h
2247 22-12-2005 14:45:52 3.4 C 5.56 g/m*3 3.4 C 0 km/h
2248 22-12-2005 14:55:52 3.5 C 5.6 g/m*3 3.5 C 0 km/h
2249 22-12-2005 15:05:51 3.6 C 5.63 g/m*3 3.6 C 0 km/h
2250 22-12-2005 15:15:51 3.6 C 5.57 g/m*3 3.6 C 0 km/h
Sensor: Nr:Datum:Temp:Abs-Feuchte:Windchill:Wind:
Aussen-T/F 2251 22-12-2005 15:25:51 3.6 C 5.57 g/m*3 3.6 C 0 km/h
2252 22-12-2005 15:35:51 3.7 C 5.61 g/m*3 3.7 C 0 km/h
2253 22-12-2005 15:45:52 3.9 C 5.68 g/m*3 3.9 C 0 km/h
2254 22-12-2005 15:55:52 3.8 C 5.65 g/m*3 3.8 C 0 km/h
2255 22-12-2005 16:05:52 3.7 C 5.55 g/m*3 3.7 C 0 km/h
2256 22-12-2005 16:15:51 3.7 C 5.55 g/m*3 3.7 C 0 km/h
2257 22-12-2005 16:25:51 3.8 C 5.58 g/m*3 3.8 C 0 km/h
2258 22-12-2005 16:35:51 3.7 C 5.55 g/m*3 3.7 C 0 km/h
2259 22-12-2005 16:45:51 3.7 C 5.55 g/m*3 3.7 C 0 km/h
2260 22-12-2005 16:55:51 3.7 C 5.55 g/m*3 3.7 C 0 km/h
2261 22-12-2005 17:05:52 3.7 C 5.55 g/m*3 3.7 C 0 km/h
2262 22-12-2005 17:15:52 3.6 C 5.51 g/m*3 3.6 C 0 km/h
2263 22-12-2005 17:25:52 3.6 C 5.51 g/m*3 3.6 C 0 km/h
2264 22-12-2005 17:35:52 3.6 C 5.45 g/m*3 3.6 C 0 km/h
2265 22-12-2005 17:45:52 3.5 C 5.41 g/m*3 3.5 C 0 km/h
2266 22-12-2005 17:55:52 3.6 C 5.45 g/m*3 3.6 C 0 km/h
2267 22-12-2005 18:05:52 3.6 C 5.45 g/m*3 3.6 C 0 km/h
2268 22-12-2005 18:15:52 3.5 C 5.41 g/m*3 3.5 C 0 km/h
2269 22-12-2005 18:25:52 3.5 C 5.41 g/m*3 3.5 C 0 km/h
2270 22-12-2005 18:35:51 3.5 C 5.35 g/m*3 3.5 C 0 km/h
2271 22-12-2005 18:45:51 3.4 C 5.31 g/m*3 3.4 C 0 km/h
2272 22-12-2005 18:55:51 3.5 C 5.35 g/m*3 3.5 C 0 km/h
2273 22-12-2005 19:05:52 3.4 C 5.31 g/m*3 3.4 C 0 km/h
2274 22-12-2005 19:15:52 3.5 C 5.35 g/m*3 3.5 C 0 km/h
2275 22-12-2005 19:25:52 3.4 C 5.31 g/m*3 3.4 C 0 km/h
Sensor: Nr:Datum:Temp:Abs-Feuchte:Windchill:Wind:
Aussen-T/F 2276 22-12-2005 19:35:52 3.4 C 5.31 g/m*3 3.4 C 0 km/h
2277 22-12-2005 19:45:52 3.4 C 5.31 g/m*3 3.4 C 0 km/h
2278 22-12-2005 19:55:52 3.4 C 5.31 g/m*3 3.4 C 0 km/h
2279 22-12-2005 20:05:52 3.4 C 5.31 g/m*3 3.4 C 0 km/h
2280 22-12-2005 20:15:52 3.4 C 5.31 g/m*3 3.4 C 0 km/h
2281 22-12-2005 20:25:52 3.4 C 5.31 g/m*3 3.4 C 0 km/h
2282 22-12-2005 20:35:52 3.4 C 5.31 g/m*3 3.4 C 0 km/h
2283 22-12-2005 20:45:51 3.4 C 5.31 g/m*3 3.4 C 0 km/h
2284 22-12-2005 20:55:51 3.5 C 5.35 g/m*3 3.5 C 0 km/h
2285 22-12-2005 21:05:52 3.5 C 5.35 g/m*3 3.5 C 0 km/h
2286 22-12-2005 21:15:52 3.4 C 5.25 g/m*3 3.4 C 0 km/h
2287 22-12-2005 21:25:52 3.5 C 5.29 g/m*3 3.5 C 0 km/h
2288 22-12-2005 21:35:52 3.5 C 5.29 g/m*3 3.5 C 0 km/h
2289 22-12-2005 21:45:52 3.5 C 5.29 g/m*3 3.5 C 0 km/h
2290 22-12-2005 21:55:52 3.5 C 5.29 g/m*3 3.5 C 0 km/h
2291 22-12-2005 22:05:52 3.5 C 5.29 g/m*3 3.5 C 0 km/h
2292 22-12-2005 22:15:52 3.3 C 5.22 g/m*3 3.3 C 0 km/h
2293 22-12-2005 22:25:52 3.2 C 5.24 g/m*3 3.2 C 0 km/h
2294 22-12-2005 22:35:52 3.1 C 5.27 g/m*3 3.1 C 0 km/h
2295 22-12-2005 22:45:52 3.2 C 5.3 g/m*3 3.2 C 0 km/h
2296 22-12-2005 22:55:52 3.1 C 5.33 g/m*3 3.1 C 0 km/h
2297 22-12-2005 23:05:53 3.2 C 5.36 g/m*3 3.2 C 0 km/h
2298 22-12-2005 23:15:52 3.2 C 5.36 g/m*3 3.2 C 0 km/h
2299 22-12-2005 23:25:52 3.1 C 5.33 g/m*3 3.1 C 0 km/h
2300 22-12-2005 23:35:52 3.1 C 5.33 g/m*3 3.1 C 0 km/h
Sensor: Nr:Datum:Temp:Abs-Feuchte:Windchill:Wind:
Aussen-T/F 2301 22-12-2005 23:45:52 3.1 C 5.39 g/m*3 3.1 C 0 km/h
2302 22-12-2005 23:55:52 3.2 C 5.42 g/m*3 3.2 C 0 km/h
2303 23-12-2005 00:05:52 3.2 C 5.42 g/m*3 3.2 C 0 km/h
2304 23-12-2005 00:15:53 3.2 C 5.42 g/m*3 3.2 C 0 km/h
2305 23-12-2005 00:25:53 3.3 C 5.46 g/m*3 3.3 C 0 km/h
2306 23-12-2005 00:35:52 3.3 C 5.46 g/m*3 3.3 C 0 km/h
2307 23-12-2005 00:45:52 3.3 C 5.46 g/m*3 3.3 C 0 km/h
2308 23-12-2005 00:55:52 3.3 C 5.46 g/m*3 3.3 C 0 km/h
2309 23-12-2005 01:05:52 3.3 C 5.46 g/m*3 3.3 C 0 km/h
2310 23-12-2005 01:15:53 3.3 C 5.46 g/m*3 3.3 C 0 km/h
2311 23-12-2005 01:25:53 3.5 C 5.53 g/m*3 3.5 C 0 km/h
2312 23-12-2005 01:35:53 3.4 C 5.5 g/m*3 3.4 C 0 km/h
2313 23-12-2005 01:45:52 3.5 C 5.53 g/m*3 3.5 C 0 km/h
2314 23-12-2005 01:55:52 3.5 C 5.47 g/m*3 3.5 C 0 km/h
2315 23-12-2005 02:05:52 3.6 C 5.51 g/m*3 3.6 C 0 km/h
2316 23-12-2005 02:15:52 3.5 C 5.47 g/m*3 3.5 C 0 km/h
2317 23-12-2005 02:25:52 3.6 C 5.51 g/m*3 3.6 C 0 km/h
2318 23-12-2005 02:35:52 3.6 C 5.51 g/m*3 3.6 C 0 km/h
2319 23-12-2005 02:46:54 3.6 C 5.51 g/m*3 3.6 C 0 km/h
2320 23-12-2005 02:56:54 3.7 C 5.55 g/m*3 3.7 C 0 km/h
2321 23-12-2005 03:06:54 3.7 C 5.55 g/m*3 3.7 C 0 km/h
2322 23-12-2005 03:16:54 3.7 C 5.48 g/m*3 3.7 C 0 km/h
2323 23-12-2005 03:26:55 3.8 C 5.52 g/m*3 3.8 C 0 km/h
2324 23-12-2005 03:36:54 3.8 C 5.52 g/m*3 3.8 C 0 km/h
2325 23-12-2005 03:46:54 3.9 C 5.56 g/m*3 3.9 C 0 km/h
Sensor: Nr:Datum:Temp:Abs-Feuchte:Windchill:Wind:
Aussen-T/F 2326 23-12-2005 03:56:54 3.8 C 5.52 g/m*3 3.8 C 0 km/h
2327 23-12-2005 04:06:55 3.8 C 5.58 g/m*3 3.8 C 0 km/h
2328 23-12-2005 04:16:54 3.8 C 5.58 g/m*3 3.8 C 0 km/h
2329 23-12-2005 04:26:54 3.8 C 5.58 g/m*3 3.8 C 0 km/h
2330 23-12-2005 04:36:54 3.8 C 5.58 g/m*3 3.8 C 0 km/h
2331 23-12-2005 04:46:54 3.8 C 5.65 g/m*3 3.8 C 0 km/h
2332 23-12-2005 04:56:54 3.9 C 5.68 g/m*3 3.9 C 0 km/h
2333 23-12-2005 05:06:54 3.8 C 5.65 g/m*3 3.8 C 0 km/h
2334 23-12-2005 05:16:54 3.8 C 5.65 g/m*3 3.8 C 0 km/h
2335 23-12-2005 05:26:54 3.9 C 5.68 g/m*3 3.9 C 0 km/h
2336 23-12-2005 05:36:54 3.9 C 5.68 g/m*3 3.9 C 0 km/h
2337 23-12-2005 05:46:54 3.9 C 5.68 g/m*3 3.9 C 0 km/h
2338 23-12-2005 05:56:54 4 C 5.72 g/m*3 4 C 0 km/h
2339 23-12-2005 06:06:54 4 C 5.66 g/m*3 4 C 0 km/h
2340 23-12-2005 06:16:54 4 C 5.66 g/m*3 4 C 0 km/h
2341 23-12-2005 06:26:54 4.1 C 5.7 g/m*3 4.1 C 0 km/h
2342 23-12-2005 06:36:55 4.1 C 5.7 g/m*3 4.1 C 0 km/h
2343 23-12-2005 06:46:55 4.1 C 5.7 g/m*3 4.1 C 0 km/h
2344 23-12-2005 06:56:55 4.1 C 5.7 g/m*3 4.1 C 0 km/h
2345 23-12-2005 07:06:55 4.1 C 5.7 g/m*3 4.1 C 0 km/h
2346 23-12-2005 07:16:54 4.2 C 5.73 g/m*3 4.2 C 0 km/h
2347 23-12-2005 07:26:54 4.2 C 5.73 g/m*3 4.2 C 0 km/h
2348 23-12-2005 07:36:54 4.2 C 5.67 g/m*3 4.2 C 0 km/h
2349 23-12-2005 07:46:54 4.2 C 5.67 g/m*3 4.2 C 0 km/h
2350 23-12-2005 07:56:54 4.2 C 5.67 g/m*3 4.2 C 0 km/h
Sensor: Nr:Datum:Temp:Abs-Feuchte:Windchill:Wind:
Aussen-T/F 2351 23-12-2005 08:06:54 4.2 C 5.67 g/m*3 4.2 C 0 km/h
2352 23-12-2005 08:16:55 4.3 C 5.64 g/m*3 4.3 C 0 km/h
2353 23-12-2005 08:26:55 4.3 C 5.64 g/m*3 4.3 C 0 km/h
2354 23-12-2005 08:36:55 4.4 C 5.62 g/m*3 4.4 C 0 km/h
2355 23-12-2005 08:46:55 4.4 C 5.62 g/m*3 4.4 C 0 km/h
2356 23-12-2005 08:56:55 4.4 C 5.62 g/m*3 4.4 C 0 km/h
2357 23-12-2005 09:06:55 4.4 C 5.62 g/m*3 4.4 C 0 km/h
2358 23-12-2005 09:16:55 4.4 C 5.62 g/m*3 4.4 C 0 km/h
2359 23-12-2005 09:26:55 4.5 C 5.65 g/m*3 4.5 C 0 km/h
2360 23-12-2005 09:36:54 4.6 C 5.62 g/m*3 4.6 C 0 km/h
2361 23-12-2005 09:46:54 4.6 C 5.62 g/m*3 4.6 C 0 km/h
2362 23-12-2005 09:56:54 4.7 C 5.6 g/m*3 4.7 C 0 km/h
2363 23-12-2005 10:06:55 4.8 C 5.63 g/m*3 4.8 C 0 km/h
2364 23-12-2005 10:16:55 4.8 C 5.63 g/m*3 4.8 C 0 km/h
2365 23-12-2005 10:26:55 4.9 C 5.6 g/m*3 4.9 C 0 km/h
2366 23-12-2005 10:36:55 5 C 5.57 g/m*3 5 C 0 km/h
2367 23-12-2005 10:46:55 5 C 5.57 g/m*3 5 C 0 km/h
2368 23-12-2005 10:56:55 5.1 C 5.61 g/m*3 5.1 C 0 km/h
2369 23-12-2005 11:06:55 5.1 C 5.61 g/m*3 5.1 C 0 km/h
2370 23-12-2005 11:16:55 5.1 C 5.61 g/m*3 5.1 C 0 km/h
2371 23-12-2005 11:26:55 5 C 5.57 g/m*3 5 C 0 km/h
2372 23-12-2005 11:36:55 5.1 C 5.61 g/m*3 5.1 C 0 km/h
2373 23-12-2005 11:46:55 5.1 C 5.61 g/m*3 5.1 C 0 km/h
2374 23-12-2005 11:56:55 5.2 C 5.58 g/m*3 5.2 C 0 km/h
2375 23-12-2005 12:06:55 5.3 C 5.61 g/m*3 5.3 C 0 km/h
Sensor: Nr:Datum:Temp:Abs-Feuchte:Windchill:Wind:
Aussen-T/F 2376 23-12-2005 12:16:55 5.4 C 5.65 g/m*3 5.4 C 0 km/h
2377 23-12-2005 12:26:55 5.4 C 5.58 g/m*3 5.4 C 0 km/h
2378 23-12-2005 12:36:55 5.6 C 5.66 g/m*3 5.6 C 0 km/h
2379 23-12-2005 12:46:55 5.6 C 5.59 g/m*3 5.6 C 0 km/h
2380 23-12-2005 12:56:55 5.5 C 5.55 g/m*3 5.5 C 0 km/h
2381 23-12-2005 13:06:55 5.5 C 5.55 g/m*3 5.5 C 0 km/h
2382 23-12-2005 13:16:55 5.5 C 5.55 g/m*3 5.5 C 0 km/h
2383 23-12-2005 13:26:55 5.6 C 5.66 g/m*3 5.6 C 0 km/h
2384 23-12-2005 13:36:55 5.6 C 5.59 g/m*3 5.6 C 0 km/h
2385 23-12-2005 13:46:55 5.7 C 5.69 g/m*3 5.7 C 0 km/h
2386 23-12-2005 13:56:55 5.8 C 5.66 g/m*3 5.8 C 0 km/h
2387 23-12-2005 14:06:55 5.8 C 5.66 g/m*3 5.8 C 0 km/h
2388 23-12-2005 14:16:55 5.8 C 5.66 g/m*3 5.8 C 0 km/h
2389 23-12-2005 14:26:55 5.8 C 5.66 g/m*3 5.8 C 0 km/h
2390 23-12-2005 14:36:55 5.7 C 5.62 g/m*3 5.7 C 0 km/h
2391 23-12-2005 14:46:56 5.8 C 5.66 g/m*3 5.8 C 0 km/h
2392 23-12-2005 14:56:56 5.8 C 5.66 g/m*3 5.8 C 0 km/h
2393 23-12-2005 15:06:56 5.8 C 5.66 g/m*3 5.8 C 0 km/h
2394 23-12-2005 15:16:55 5.8 C 5.66 g/m*3 5.8 C 0 km/h
2395 23-12-2005 15:26:55 5.8 C 5.66 g/m*3 5.8 C 0 km/h
2396 23-12-2005 15:36:55 5.8 C 5.66 g/m*3 5.8 C 0 km/h
2397 23-12-2005 15:46:55 5.9 C 5.62 g/m*3 5.9 C 0 km/h
2398 23-12-2005 15:56:55 5.9 C 5.62 g/m*3 5.9 C 0 km/h
2399 23-12-2005 16:06:55 5.9 C 5.62 g/m*3 5.9 C 0 km/h
2400 23-12-2005 16:16:56 5.8 C 5.59 g/m*3 5.8 C 0 km/h
Sensor: Nr:Datum:Temp:Abs-Feuchte:Windchill:Wind:
Aussen-T/F 2401 23-12-2005 16:26:56 5.8 C 5.59 g/m*3 5.8 C 0 km/h
2402 23-12-2005 16:36:56 5.8 C 5.59 g/m*3 5.8 C 0 km/h
2403 23-12-2005 16:46:56 5.8 C 5.59 g/m*3 5.8 C 0 km/h
2404 23-12-2005 16:56:56 5.9 C 5.62 g/m*3 5.9 C 0 km/h
2405 23-12-2005 17:06:56 5.9 C 5.62 g/m*3 5.9 C 0 km/h
2406 23-12-2005 17:16:55 5.9 C 5.62 g/m*3 5.9 C 0 km/h
2407 23-12-2005 17:26:55 5.9 C 5.62 g/m*3 5.9 C 0 km/h
2408 23-12-2005 17:36:55 5.9 C 5.62 g/m*3 5.9 C 0 km/h
2409 23-12-2005 17:46:55 5.8 C 5.59 g/m*3 5.8 C 0 km/h
2410 23-12-2005 17:56:55 5.8 C 5.59 g/m*3 5.8 C 0 km/h
2411 23-12-2005 18:06:55 5.8 C 5.66 g/m*3 5.8 C 0 km/h
2412 23-12-2005 18:16:56 5.7 C 5.62 g/m*3 5.7 C 0 km/h
2413 23-12-2005 18:26:56 5.6 C 5.59 g/m*3 5.6 C 0 km/h
2414 23-12-2005 18:36:56 5.6 C 5.59 g/m*3 5.6 C 0 km/h
2415 23-12-2005 18:46:56 5.6 C 5.59 g/m*3 5.6 C 0 km/h
2416 23-12-2005 18:56:56 5.6 C 5.59 g/m*3 5.6 C 0 km/h
2417 23-12-2005 19:06:56 5.6 C 5.59 g/m*3 5.6 C 0 km/h
2418 23-12-2005 19:16:56 5.7 C 5.62 g/m*3 5.7 C 0 km/h
2419 23-12-2005 19:26:56 5.8 C 5.59 g/m*3 5.8 C 0 km/h
2420 23-12-2005 19:36:55 5.8 C 5.59 g/m*3 5.8 C 0 km/h
2421 23-12-2005 19:46:56 5.8 C 5.52 g/m*3 5.8 C 0 km/h
2422 23-12-2005 19:56:56 5.8 C 5.52 g/m*3 5.8 C 0 km/h
2423 23-12-2005 20:06:55 5.8 C 5.52 g/m*3 5.8 C 0 km/h
2424 23-12-2005 20:16:56 5.8 C 5.52 g/m*3 5.8 C 0 km/h
2425 23-12-2005 20:26:56 5.8 C 5.44 g/m*3 5.8 C 0 km/h
Sensor: Nr:Datum:Temp:Abs-Feuchte:Windchill:Wind:
Aussen-T/F 2426 23-12-2005 20:36:56 5.8 C 5.52 g/m*3 5.8 C 0 km/h
2427 23-12-2005 20:46:56 5.8 C 5.52 g/m*3 5.8 C 0 km/h
2428 23-12-2005 20:56:56 5.8 C 5.52 g/m*3 5.8 C 0 km/h
2429 23-12-2005 21:06:56 5.8 C 5.52 g/m*3 5.8 C 0 km/h
2430 23-12-2005 21:16:56 5.8 C 5.52 g/m*3 5.8 C 0 km/h
2431 23-12-2005 21:26:56 5.8 C 5.52 g/m*3 5.8 C 0 km/h
2432 23-12-2005 21:36:56 5.8 C 5.52 g/m*3 5.8 C 0 km/h
2433 23-12-2005 21:46:56 5.7 C 5.48 g/m*3 5.7 C 0 km/h
2434 23-12-2005 21:56:56 5.6 C 5.44 g/m*3 5.6 C 0 km/h
2435 23-12-2005 22:06:56 5.7 C 5.48 g/m*3 5.7 C 0 km/h
2436 23-12-2005 22:16:56 5.7 C 5.41 g/m*3 5.7 C 0 km/h
2437 23-12-2005 22:26:56 5.7 C 5.41 g/m*3 5.7 C 0 km/h
2438 23-12-2005 22:36:56 5.6 C 5.37 g/m*3 5.6 C 0 km/h
2439 23-12-2005 22:46:56 5.6 C 5.37 g/m*3 5.6 C 0 km/h
2440 23-12-2005 22:56:56 5.6 C 5.37 g/m*3 5.6 C 0 km/h
2441 23-12-2005 23:06:56 5.6 C 5.37 g/m*3 5.6 C 0 km/h
2442 23-12-2005 23:16:56 5.6 C 5.44 g/m*3 5.6 C 0 km/h
2443 23-12-2005 23:26:56 5.6 C 5.44 g/m*3 5.6 C 0 km/h
2444 23-12-2005 23:36:56 5.6 C 5.44 g/m*3 5.6 C 0 km/h
2445 23-12-2005 23:46:56 5.6 C 5.37 g/m*3 5.6 C 0 km/h
2446 23-12-2005 23:56:56 5.6 C 5.37 g/m*3 5.6 C 0 km/h
2447 24-12-2005 00:06:56 5.6 C 5.3 g/m*3 5.6 C 0 km/h
2448 24-12-2005 00:16:56 5.7 C 5.34 g/m*3 5.7 C 0 km/h
2449 24-12-2005 00:26:56 5.6 C 5.3 g/m*3 5.6 C 0 km/h
2450 24-12-2005 00:36:57 5.6 C 5.3 g/m*3 5.6 C 0 km/h
Sensor: Nr:Datum:Temp:Abs-Feuchte:Windchill:Wind:
Aussen-T/F 2451 24-12-2005 00:46:57 5.5 C 5.27 g/m*3 5.5 C 0 km/h
2452 24-12-2005 00:56:57 5.5 C 5.27 g/m*3 5.5 C 0 km/h
2453 24-12-2005 01:06:56 5.6 C 5.3 g/m*3 5.6 C 0 km/h
2454 24-12-2005 01:16:56 5.6 C 5.23 g/m*3 5.6 C 0 km/h
2455 24-12-2005 01:26:56 5.6 C 5.23 g/m*3 5.6 C 0 km/h
2456 24-12-2005 01:36:56 5.5 C 5.2 g/m*3 5.5 C 0 km/h
2457 24-12-2005 01:46:56 5.6 C 5.23 g/m*3 5.6 C 0 km/h
2458 24-12-2005 01:56:56 5.6 C 5.23 g/m*3 5.6 C 0 km/h
2459 24-12-2005 02:06:56 5.6 C 5.23 g/m*3 5.6 C 0 km/h
2460 24-12-2005 02:16:56 5.6 C 5.23 g/m*3 5.6 C 0 km/h
2461 24-12-2005 02:26:56 5.6 C 5.23 g/m*3 5.6 C 0 km/h
2462 24-12-2005 02:36:56 5.7 C 5.19 g/m*3 5.7 C 0 km/h
2463 24-12-2005 02:47:59 5.6 C 5.23 g/m*3 5.6 C 0 km/h
2464 24-12-2005 02:57:59 5.5 C 5.27 g/m*3 5.5 C 0 km/h
2465 24-12-2005 03:07:59 5.6 C 5.23 g/m*3 5.6 C 0 km/h
2466 24-12-2005 03:17:58 5.6 C 5.23 g/m*3 5.6 C 0 km/h
2467 24-12-2005 03:27:58 5.6 C 5.23 g/m*3 5.6 C 0 km/h
2468 24-12-2005 03:37:58 5.5 C 5.27 g/m*3 5.5 C 0 km/h
2469 24-12-2005 03:47:58 5.5 C 5.27 g/m*3 5.5 C 0 km/h
2470 24-12-2005 03:57:58 5.4 C 5.3 g/m*3 5.4 C 0 km/h
2471 24-12-2005 04:07:58 5.4 C 5.3 g/m*3 5.4 C 0 km/h
2472 24-12-2005 04:17:58 5.4 C 5.3 g/m*3 5.4 C 0 km/h
2473 24-12-2005 04:27:58 5.3 C 5.34 g/m*3 5.3 C 0 km/h
2474 24-12-2005 04:37:58 5.1 C 5.47 g/m*3 5.1 C 0 km/h
2475 24-12-2005 04:47:58 5 C 5.57 g/m*3 5 C 0 km/h
Sensor: Nr:Datum:Temp:Abs-Feuchte:Windchill:Wind:
Aussen-T/F 2476 24-12-2005 04:57:58 5.1 C 5.61 g/m*3 5.1 C 0 km/h
2477 24-12-2005 05:07:58 5.1 C 5.61 g/m*3 5.1 C 0 km/h
2478 24-12-2005 05:17:58 5.1 C 5.61 g/m*3 5.1 C 0 km/h
2479 24-12-2005 05:27:58 5.2 C 5.65 g/m*3 5.2 C 0 km/h
2480 24-12-2005 05:37:59 5.2 C 5.58 g/m*3 5.2 C 0 km/h
2481 24-12-2005 05:47:58 5.2 C 5.58 g/m*3 5.2 C 0 km/h
2482 24-12-2005 05:57:58 5.2 C 5.58 g/m*3 5.2 C 0 km/h
2483 24-12-2005 06:07:58 5.2 C 5.58 g/m*3 5.2 C 0 km/h
2484 24-12-2005 06:17:59 5.3 C 5.54 g/m*3 5.3 C 0 km/h
2485 24-12-2005 06:27:59 5.4 C 5.58 g/m*3 5.4 C 0 km/h
2486 24-12-2005 06:37:59 5.3 C 5.48 g/m*3 5.3 C 0 km/h
2487 24-12-2005 06:47:59 5.3 C 5.48 g/m*3 5.3 C 0 km/h
2488 24-12-2005 06:57:59 5.4 C 5.51 g/m*3 5.4 C 0 km/h
2489 24-12-2005 07:07:58 5.3 C 5.48 g/m*3 5.3 C 0 km/h
2490 24-12-2005 07:17:58 5.3 C 5.48 g/m*3 5.3 C 0 km/h
2491 24-12-2005 07:27:58 5.3 C 5.48 g/m*3 5.3 C 0 km/h
2492 24-12-2005 07:37:58 5.3 C 5.48 g/m*3 5.3 C 0 km/h
2493 24-12-2005 07:47:58 5.3 C 5.48 g/m*3 5.3 C 0 km/h
2494 24-12-2005 07:57:58 5.3 C 5.48 g/m*3 5.3 C 0 km/h
2495 24-12-2005 08:07:58 5.3 C 5.48 g/m*3 5.3 C 0 km/h
2496 24-12-2005 08:17:59 5.4 C 5.44 g/m*3 5.4 C 0 km/h
2497 24-12-2005 08:27:59 5.4 C 5.44 g/m*3 5.4 C 0 km/h
2498 24-12-2005 08:37:59 5.4 C 5.44 g/m*3 5.4 C 0 km/h
2499 24-12-2005 08:47:59 5.4 C 5.44 g/m*3 5.4 C 0 km/h
2500 24-12-2005 08:57:59 5.4 C 5.44 g/m*3 5.4 C 0 km/h
Sensor: Nr:Datum:Temp:Abs-Feuchte:Windchill:Wind:
Aussen-T/F 2501 24-12-2005 09:07:59 5.5 C 5.48 g/m*3 5.5 C 0 km/h
2502 24-12-2005 09:17:59 5.5 C 5.48 g/m*3 5.5 C 0 km/h
2503 24-12-2005 09:28:00 5.6 C 5.51 g/m*3 5.6 C 0 km/h
2504 24-12-2005 09:37:59 5.7 C 5.55 g/m*3 5.7 C 0 km/h
2505 24-12-2005 09:47:59 5.9 C 5.55 g/m*3 5.9 C 0 km/h
2506 24-12-2005 09:57:59 5.8 C 5.52 g/m*3 5.8 C 0 km/h
2507 24-12-2005 10:07:59 5.8 C 5.52 g/m*3 5.8 C 0 km/h
2508 24-12-2005 10:17:59 5.9 C 5.48 g/m*3 5.9 C 0 km/h
2509 24-12-2005 10:27:59 6 C 5.44 g/m*3 6 C 0 km/h
2510 24-12-2005 10:37:59 6.3 C 5.48 g/m*3 6.3 C 0 km/h
2511 24-12-2005 10:47:59 6.3 C 5.48 g/m*3 6.3 C 0 km/h
2512 24-12-2005 10:57:59 6.3 C 5.48 g/m*3 6.3 C 0 km/h
2513 24-12-2005 11:07:00 6.3 C 5.48 g/m*3 6.3 C 0 km/h
2514 24-12-2005 11:17:59 6.2 C 5.52 g/m*3 6.2 C 0 km/h
2515 24-12-2005 11:27:59 6.5 C 5.55 g/m*3 6.5 C 0 km/h
2516 24-12-2005 11:37:59 6.6 C 5.59 g/m*3 6.6 C 0 km/h
2517 24-12-2005 11:47:59 6.7 C 5.62 g/m*3 6.7 C 0 km/h
2518 24-12-2005 11:57:59 6.7 C 5.55 g/m*3 6.7 C 0 km/h
2519 24-12-2005 12:07:59 6.8 C 5.58 g/m*3 6.8 C 0 km/h
2520 24-12-2005 12:17:59 6.8 C 5.58 g/m*3 6.8 C 0 km/h
2521 24-12-2005 12:27:59 6.8 C 5.58 g/m*3 6.8 C 0 km/h
2522 24-12-2005 12:36:59 6.9 C 5.62 g/m*3 6.9 C 0 km/h
2523 24-12-2005 12:47:59 7 C 5.58 g/m*3 7 C 0 km/h
2524 24-12-2005 12:57:59 6.9 C 5.62 g/m*3 6.9 C 0 km/h
2525 24-12-2005 13:07:59 6.9 C 5.62 g/m*3 6.9 C 0 km/h
Sensor: Nr:Datum:Temp:Abs-Feuchte:Windchill:Wind:
Aussen-T/F 2526 24-12-2005 13:16:59 6.8 C 5.58 g/m*3 6.8 C 0 km/h
2527 24-12-2005 13:26:59 6.7 C 5.55 g/m*3 6.7 C 0 km/h
2528 24-12-2005 13:37:59 6.7 C 5.62 g/m*3 6.7 C 0 km/h
2529 24-12-2005 13:47:59 6.7 C 5.62 g/m*3 6.7 C 0 km/h
2530 24-12-2005 13:57:59 6.7 C 5.62 g/m*3 6.7 C 0 km/h
2531 24-12-2005 14:07:59 6.7 C 5.62 g/m*3 6.7 C 0 km/h
2532 24-12-2005 14:17:59 6.7 C 5.62 g/m*3 6.7 C 0 km/h
2533 24-12-2005 14:27:59 6.7 C 5.62 g/m*3 6.7 C 0 km/h
2534 24-12-2005 14:37:59 6.7 C 5.62 g/m*3 6.7 C 0 km/h
2535 24-12-2005 14:47:59 6.7 C 5.62 g/m*3 6.7 C 0 km/h
2536 24-12-2005 14:57:59 6.7 C 5.62 g/m*3 6.7 C 0 km/h
2537 24-12-2005 15:07:59 6.6 C 5.66 g/m*3 6.6 C 0 km/h
2538 24-12-2005 15:17:00 6.6 C 5.74 g/m*3 6.6 C 0 km/h
2539 24-12-2005 15:27:00 6.6 C 5.74 g/m*3 6.6 C 0 km/h
2540 24-12-2005 15:36:59 6.5 C 5.7 g/m*3 6.5 C 0 km/h
2541 24-12-2005 15:47:59 6.5 C 5.7 g/m*3 6.5 C 0 km/h
2542 24-12-2005 15:57:59 6.5 C 5.7 g/m*3 6.5 C 0 km/h
2543 24-12-2005 16:07:00 6.4 C 5.74 g/m*3 6.4 C 0 km/h
2544 24-12-2005 16:16:59 6.3 C 5.77 g/m*3 6.3 C 0 km/h
2545 24-12-2005 16:26:59 6.2 C 5.81 g/m*3 6.2 C 0 km/h
2546 24-12-2005 16:37:59 6.2 C 5.88 g/m*3 6.2 C 0 km/h
2547 24-12-2005 16:47:00 6.2 C 5.88 g/m*3 6.2 C 0 km/h
2548 24-12-2005 16:57:00 6.3 C 5.92 g/m*3 6.3 C 0 km/h
2549 24-12-2005 17:07:00 6.3 C 5.85 g/m*3 6.3 C 0 km/h
2550 24-12-2005 17:17:00 6.3 C 5.85 g/m*3 6.3 C 0 km/h
Sensor: Nr:Datum:Temp:Abs-Feuchte:Windchill:Wind:
Aussen-T/F 2551 24-12-2005 17:27:00 6.3 C 5.85 g/m*3 6.3 C 0 km/h
2552 24-12-2005 17:37:00 6.3 C 5.85 g/m*3 6.3 C 0 km/h
2553 24-12-2005 17:47:00 6.3 C 5.85 g/m*3 6.3 C 0 km/h
2554 24-12-2005 17:57:00 6.3 C 5.85 g/m*3 6.3 C 0 km/h
2555 24-12-2005 18:07:00 6.2 C 5.81 g/m*3 6.2 C 0 km/h
2556 24-12-2005 18:17:59 6.2 C 5.88 g/m*3 6.2 C 0 km/h
2557 24-12-2005 18:26:59 6.1 C 5.84 g/m*3 6.1 C 0 km/h
2558 24-12-2005 18:37:59 6.1 C 5.84 g/m*3 6.1 C 0 km/h
2559 24-12-2005 18:47:59 6.2 C 5.88 g/m*3 6.2 C 0 km/h
2560 24-12-2005 18:56:59 6.2 C 5.81 g/m*3 6.2 C 0 km/h
2561 24-12-2005 19:07:59 6.2 C 5.81 g/m*3 6.2 C 0 km/h
2562 24-12-2005 19:17:00 6.2 C 5.81 g/m*3 6.2 C 0 km/h
2563 24-12-2005 19:27:00 6.2 C 5.74 g/m*3 6.2 C 0 km/h
2564 24-12-2005 19:37:00 6.1 C 5.77 g/m*3 6.1 C 0 km/h
2565 24-12-2005 19:47:00 6 C 5.73 g/m*3 6 C 0 km/h
2566 24-12-2005 19:57:00 6 C 5.73 g/m*3 6 C 0 km/h
2567 24-12-2005 20:07:00 6.1 C 5.7 g/m*3 6.1 C 0 km/h
2568 24-12-2005 20:17:00 6.1 C 5.7 g/m*3 6.1 C 0 km/h
2569 24-12-2005 20:27:00 6 C 5.73 g/m*3 6 C 0 km/h
2570 24-12-2005 20:37:00 6 C 5.73 g/m*3 6 C 0 km/h
2571 24-12-2005 20:47:00 6.1 C 5.7 g/m*3 6.1 C 0 km/h
2572 24-12-2005 20:57:00 6.1 C 5.7 g/m*3 6.1 C 0 km/h
2573 24-12-2005 21:07:00 6.1 C 5.7 g/m*3 6.1 C 0 km/h
2574 24-12-2005 21:17:00 6 C 5.66 g/m*3 6 C 0 km/h
2575 24-12-2005 21:27:00 6 C 5.73 g/m*3 6 C 0 km/h
Sensor: Nr:Datum:Temp:Abs-Feuchte:Windchill:Wind:
Aussen-T/F 2576 24-12-2005 21:37:00 6 C 5.73 g/m*3 6 C 0 km/h
2577 24-12-2005 21:47:00 5.9 C 5.77 g/m*3 5.9 C 0 km/h
2578 24-12-2005 21:57:00 5.9 C 5.77 g/m*3 5.9 C 0 km/h
2579 24-12-2005 22:07:00 5.9 C 5.77 g/m*3 5.9 C 0 km/h
2580 24-12-2005 22:17:00 5.9 C 5.7 g/m*3 5.9 C 0 km/h
2581 24-12-2005 22:27:00 5.8 C 5.73 g/m*3 5.8 C 0 km/h
2582 24-12-2005 22:37:00 5.8 C 5.73 g/m*3 5.8 C 0 km/h
2583 24-12-2005 22:47:00 5.8 C 5.66 g/m*3 5.8 C 0 km/h
2584 24-12-2005 22:57:00 5.9 C 5.62 g/m*3 5.9 C 0 km/h
2585 24-12-2005 23:07:00 5.9 C 5.55 g/m*3 5.9 C 0 km/h
2586 24-12-2005 23:17:00 5.8 C 5.59 g/m*3 5.8 C 0 km/h
2587 24-12-2005 23:27:00 5.9 C 5.55 g/m*3 5.9 C 0 km/h
2588 24-12-2005 23:37:00 5.8 C 5.44 g/m*3 5.8 C 0 km/h
2589 24-12-2005 23:47:00 5.9 C 5.62 g/m*3 5.9 C 0 km/h
2590 24-12-2005 23:57:00 5.6 C 5.44 g/m*3 5.6 C 0 km/h
2591 25-12-2005 00:07:01 5.7 C 5.48 g/m*3 5.7 C 0 km/h
2592 25-12-2005 00:17:00 5.8 C 5.44 g/m*3 5.8 C 0 km/h
2593 25-12-2005 00:27:00 5.8 C 5.37 g/m*3 5.8 C 0 km/h
2594 25-12-2005 00:37:01 5.9 C 5.41 g/m*3 5.9 C 0 km/h
2595 25-12-2005 00:47:01 5.9 C 5.48 g/m*3 5.9 C 0 km/h
2596 25-12-2005 00:57:01 5.9 C 5.48 g/m*3 5.9 C 0 km/h
2597 25-12-2005 01:07:01 5.9 C 5.48 g/m*3 5.9 C 0 km/h
2598 25-12-2005 01:17:01 5.8 C 5.52 g/m*3 5.8 C 0 km/h
2599 25-12-2005 01:27:01 5.9 C 5.55 g/m*3 5.9 C 0 km/h
2600 25-12-2005 01:37:00 5.6 C 5.51 g/m*3 5.6 C 0 km/h
Sensor: Nr:Datum:Temp:Abs-Feuchte:Windchill:Wind:
Aussen-T/F 2601 25-12-2005 01:47:01 5.5 C 5.48 g/m*3 5.5 C 0 km/h
2602 25-12-2005 01:57:01 5.5 C 5.48 g/m*3 5.5 C 0 km/h
2603 25-12-2005 02:07:00 5.7 C 5.55 g/m*3 5.7 C 0 km/h
2604 25-12-2005 02:17:01 5.9 C 5.62 g/m*3 5.9 C 0 km/h
2605 25-12-2005 02:27:01 5.9 C 5.48 g/m*3 5.9 C 0 km/h
2606 25-12-2005 02:37:00 5.9 C 5.48 g/m*3 5.9 C 0 km/h
2607 25-12-2005 02:48:02 5.9 C 5.41 g/m*3 5.9 C 0 km/h
2608 25-12-2005 02:58:02 5.9 C 5.41 g/m*3 5.9 C 0 km/h
2609 25-12-2005 03:08:02 5.9 C 5.41 g/m*3 5.9 C 0 km/h
2610 25-12-2005 03:18:02 5.9 C 5.34 g/m*3 5.9 C 0 km/h
2611 25-12-2005 03:28:03 5.9 C 5.34 g/m*3 5.9 C 0 km/h
2612 25-12-2005 03:38:02 5.8 C 5.3 g/m*3 5.8 C 0 km/h
2613 25-12-2005 03:48:02 5.8 C 5.3 g/m*3 5.8 C 0 km/h
2614 25-12-2005 03:58:02 5.3 C 5.2 g/m*3 5.3 C 0 km/h
2615 25-12-2005 04:08:02 5.1 C 5.2 g/m*3 5.1 C 0 km/h
2616 25-12-2005 04:18:02 5.1 C 5.27 g/m*3 5.1 C 0 km/h
2617 25-12-2005 04:28:02 5.3 C 5.27 g/m*3 5.3 C 0 km/h
2618 25-12-2005 04:38:02 5.4 C 5.23 g/m*3 5.4 C 0 km/h
2619 25-12-2005 04:48:02 5.3 C 5.2 g/m*3 5.3 C 0 km/h
2620 25-12-2005 04:58:02 5.3 C 5.2 g/m*3 5.3 C 0 km/h
2621 25-12-2005 05:08:02 5.2 C 5.16 g/m*3 5.2 C 0 km/h
2622 25-12-2005 05:18:02 5 C 5.23 g/m*3 5 C 0 km/h
2623 25-12-2005 05:28:02 5 C 5.23 g/m*3 5 C 0 km/h
2624 25-12-2005 05:38:02 5 C 5.3 g/m*3 5 C 0 km/h
2625 25-12-2005 05:48:02 4.9 C 5.33 g/m*3 4.9 C 0 km/h
Sensor: Nr:Datum:Temp:Abs-Feuchte:Windchill:Wind:
Aussen-T/F 2626 25-12-2005 05:58:02 4.8 C 5.3 g/m*3 4.8 C 0 km/h
2627 25-12-2005 06:08:01 4.8 C 5.36 g/m*3 4.8 C 0 km/h
2628 25-12-2005 06:18:02 4.7 C 5.4 g/m*3 4.7 C 0 km/h
2629 25-12-2005 06:28:02 4.7 C 5.4 g/m*3 4.7 C 0 km/h
2630 25-12-2005 06:38:02 4.8 C 5.36 g/m*3 4.8 C 0 km/h
2631 25-12-2005 06:48:02 4.8 C 5.36 g/m*3 4.8 C 0 km/h
2632 25-12-2005 06:58:02 4.7 C 5.33 g/m*3 4.7 C 0 km/h
2633 25-12-2005 07:08:02 4.8 C 5.36 g/m*3 4.8 C 0 km/h
2634 25-12-2005 07:18:02 4.8 C 5.36 g/m*3 4.8 C 0 km/h
2635 25-12-2005 07:28:02 4.7 C 5.33 g/m*3 4.7 C 0 km/h
2636 25-12-2005 07:38:02 4.7 C 5.33 g/m*3 4.7 C 0 km/h
2637 25-12-2005 07:48:02 4.6 C 5.36 g/m*3 4.6 C 0 km/h
2638 25-12-2005 07:58:02 4.5 C 5.32 g/m*3 4.5 C 0 km/h
2639 25-12-2005 08:08:02 4.5 C 5.39 g/m*3 4.5 C 0 km/h
2640 25-12-2005 08:18:02 4.4 C 5.35 g/m*3 4.4 C 0 km/h
2641 25-12-2005 08:28:02 4.5 C 5.32 g/m*3 4.5 C 0 km/h
2642 25-12-2005 08:38:02 4.5 C 5.32 g/m*3 4.5 C 0 km/h
2643 25-12-2005 08:48:02 4.5 C 5.26 g/m*3 4.5 C 0 km/h
2644 25-12-2005 08:58:02 4.6 C 5.23 g/m*3 4.6 C 0 km/h
2645 25-12-2005 09:08:02 4.5 C 5.26 g/m*3 4.5 C 0 km/h
2646 25-12-2005 09:18:03 4.5 C 5.32 g/m*3 4.5 C 0 km/h
2647 25-12-2005 09:28:03 4.5 C 5.39 g/m*3 4.5 C 0 km/h
2648 25-12-2005 09:38:02 4.4 C 5.35 g/m*3 4.4 C 0 km/h
2649 25-12-2005 09:48:03 4.5 C 5.46 g/m*3 4.5 C 0 km/h
2650 25-12-2005 09:58:03 4.5 C 5.52 g/m*3 4.5 C 0 km/h
Sensor: Nr:Datum:Temp:Abs-Feuchte:Windchill:Wind:
Aussen-T/F 2651 25-12-2005 10:08:02 4.5 C 5.59 g/m*3 4.5 C 0 km/h
2652 25-12-2005 10:18:02 4.4 C 5.62 g/m*3 4.4 C 0 km/h
2653 25-12-2005 10:28:02 4.5 C 5.72 g/m*3 4.5 C 0 km/h
2654 25-12-2005 10:38:02 4.6 C 5.76 g/m*3 4.6 C 0 km/h
2655 25-12-2005 10:48:02 4.7 C 5.8 g/m*3 4.7 C 0 km/h
2656 25-12-2005 10:58:02 4.8 C 5.83 g/m*3 4.8 C 0 km/h
2657 25-12-2005 11:08:02 4.8 C 5.83 g/m*3 4.8 C 0 km/h
2658 25-12-2005 11:18:02 4.8 C 5.83 g/m*3 4.8 C 0 km/h
2659 25-12-2005 11:28:02 4.9 C 5.87 g/m*3 4.9 C 0 km/h
2660 25-12-2005 11:38:03 5.1 C 5.95 g/m*3 5.1 C 0 km/h
2661 25-12-2005 11:48:03 5.2 C 5.92 g/m*3 5.2 C 0 km/h
2662 25-12-2005 11:58:03 5.2 C 5.85 g/m*3 5.2 C 0 km/h
2663 25-12-2005 12:08:03 5.7 C 6.12 g/m*3 5.7 C 0 km/h
2664 25-12-2005 12:18:02 5.7 C 5.98 g/m*3 5.7 C 0 km/h
2665 25-12-2005 12:28:02 6 C 6.02 g/m*3 6 C 0 km/h
2666 25-12-2005 12:38:02 6.1 C 5.99 g/m*3 6.1 C 0 km/h
2667 25-12-2005 12:48:02 6.3 C 6 g/m*3 6.3 C 0 km/h
2668 25-12-2005 12:58:02 6.4 C 5.89 g/m*3 6.4 C 0 km/h
2669 25-12-2005 13:08:02 6.4 C 5.81 g/m*3 6.4 C 0 km/h
2670 25-12-2005 13:18:03 6.4 C 5.81 g/m*3 6.4 C 0 km/h
2671 25-12-2005 13:28:03 6.4 C 5.59 g/m*3 6.4 C 0 km/h
2672 25-12-2005 13:38:03 6.4 C 5.51 g/m*3 6.4 C 0 km/h
2673 25-12-2005 13:48:02 6.3 C 5.33 g/m*3 6.3 C 0 km/h
2674 25-12-2005 13:58:02 6.2 C 5.29 g/m*3 6.2 C 0 km/h
2675 25-12-2005 14:08:03 6.1 C 5.19 g/m*3 6.1 C 0 km/h
Sensor: Nr:Datum:Temp:Abs-Feuchte:Windchill:Wind:
Aussen-T/F 2676 25-12-2005 14:18:03 6 C 5.15 g/m*3 6 C 0 km/h
2677 25-12-2005 14:28:03 6 C 5.3 g/m*3 6 C 0 km/h
2678 25-12-2005 14:38:03 5.8 C 5.23 g/m*3 5.8 C 0 km/h
2679 25-12-2005 14:48:03 5.6 C 5.3 g/m*3 5.6 C 0 km/h
2680 25-12-2005 14:58:03 5.4 C 5.23 g/m*3 5.4 C 0 km/h
2681 25-12-2005 15:08:03 5.2 C 5.16 g/m*3 5.2 C 0 km/h
2682 25-12-2005 15:18:03 5 C 5.1 g/m*3 5 C 0 km/h
2683 25-12-2005 15:28:03 4.9 C 5.06 g/m*3 4.9 C 0 km/h
2684 25-12-2005 15:38:03 4.8 C 5.1 g/m*3 4.8 C 0 km/h
2685 25-12-2005 15:48:03 5.2 C 5.1 g/m*3 5.2 C 0 km/h
2686 25-12-2005 15:58:03 5.4 C 5.16 g/m*3 5.4 C 0 km/h
2687 25-12-2005 16:08:03 5 C 4.89 g/m*3 5 C 0 km/h
2688 25-12-2005 16:18:02 4.6 C 4.83 g/m*3 4.6 C 0 km/h
2689 25-12-2005 16:28:02 4.2 C 4.77 g/m*3 4.2 C 0 km/h
2690 25-12-2005 16:38:03 3.8 C 4.77 g/m*3 3.8 C 0 km/h
2691 25-12-2005 16:48:03 3.3 C 4.73 g/m*3 3.3 C 0 km/h
2692 25-12-2005 16:58:03 3.1 C 4.79 g/m*3 3.1 C 0 km/h
2693 25-12-2005 17:08:03 3 C 4.76 g/m*3 3 C 0 km/h
2694 25-12-2005 17:18:03 2.7 C 4.72 g/m*3 2.7 C 0 km/h
2695 25-12-2005 17:28:03 2.5 C 4.71 g/m*3 2.5 C 0 km/h
2696 25-12-2005 17:38:03 2.3 C 4.65 g/m*3 2.3 C 0 km/h
2697 25-12-2005 17:48:03 2.2 C 4.62 g/m*3 2.2 C 0 km/h
2698 25-12-2005 17:58:03 2.3 C 4.65 g/m*3 2.3 C 0 km/h
2699 25-12-2005 18:08:03 2.3 C 4.65 g/m*3 2.3 C 0 km/h
2700 25-12-2005 18:18:03 2.2 C 4.68 g/m*3 2.2 C 0 km/h
Sensor: Nr:Datum:Temp:Abs-Feuchte:Windchill:Wind:
Aussen-T/F 2701 25-12-2005 18:28:03 2 C 4.61 g/m*3 2 C 0 km/h
2702 25-12-2005 18:38:04 1.8 C 4.6 g/m*3 1.8 C 0 km/h
2703 25-12-2005 18:48:03 1.6 C 4.54 g/m*3 1.6 C 0 km/h
2704 25-12-2005 18:58:03 1.6 C 4.6 g/m*3 1.6 C 0 km/h
2705 25-12-2005 19:08:04 1.5 C 4.62 g/m*3 1.5 C 0 km/h
2706 25-12-2005 19:18:03 1.3 C 4.56 g/m*3 1.3 C 0 km/h
2707 25-12-2005 19:28:03 1.2 C 4.53 g/m*3 1.2 C 0 km/h
2708 25-12-2005 19:38:03 1.2 C 4.53 g/m*3 1.2 C 0 km/h
2709 25-12-2005 19:48:03 1.1 C 4.55 g/m*3 1.1 C 0 km/h
2710 25-12-2005 19:58:03 1.1 C 4.55 g/m*3 1.1 C 0 km/h
2711 25-12-2005 20:08:03 1.1 C 4.6 g/m*3 1.1 C 0 km/h
2712 25-12-2005 20:18:03 1.1 C 4.6 g/m*3 1.1 C 0 km/h
2713 25-12-2005 20:28:03 1.2 C 4.63 g/m*3 1.2 C 0 km/h
2714 25-12-2005 20:38:04 1.3 C 4.72 g/m*3 1.3 C 0 km/h
2715 25-12-2005 20:48:03 1.5 C 4.78 g/m*3 1.5 C 0 km/h
2716 25-12-2005 20:58:03 1.5 C 4.78 g/m*3 1.5 C 0 km/h
2717 25-12-2005 21:08:04 1.5 C 4.83 g/m*3 1.5 C 0 km/h
2718 25-12-2005 21:18:03 1.3 C 4.72 g/m*3 1.3 C 0 km/h
2719 25-12-2005 21:28:03 1.3 C 4.72 g/m*3 1.3 C 0 km/h
2720 25-12-2005 21:38:03 1.2 C 4.68 g/m*3 1.2 C 0 km/h
2721 25-12-2005 21:48:03 1.1 C 4.65 g/m*3 1.1 C 0 km/h
2722 25-12-2005 21:58:03 0.9 C 4.64 g/m*3 0.9 C 0 km/h
2723 25-12-2005 22:08:03 1.2 C 4.74 g/m*3 1.2 C 0 km/h
2724 25-12-2005 22:18:03 1.2 C 4.74 g/m*3 1.2 C 0 km/h
2725 25-12-2005 22:28:03 0.9 C 4.64 g/m*3 0.9 C 0 km/h
Sensor: Nr:Datum:Temp:Abs-Feuchte:Windchill:Wind:
Aussen-T/F 2726 25-12-2005 22:38:04 1.1 C 4.7 g/m*3 1.1 C 0 km/h
2727 25-12-2005 22:48:03 1.4 C 4.85 g/m*3 1.4 C 0 km/h
2728 25-12-2005 22:58:03 1.5 C 4.89 g/m*3 1.5 C 0 km/h
2729 25-12-2005 23:08:03 1.4 C 4.85 g/m*3 1.4 C 0 km/h
2730 25-12-2005 23:18:03 1.2 C 4.74 g/m*3 1.2 C 0 km/h
2731 25-12-2005 23:28:03 1.3 C 4.77 g/m*3 1.3 C 0 km/h
2732 25-12-2005 23:38:04 1.3 C 4.82 g/m*3 1.3 C 0 km/h
2733 25-12-2005 23:48:03 1.3 C 4.77 g/m*3 1.3 C 0 km/h
2734 25-12-2005 23:58:03 1.3 C 4.77 g/m*3 1.3 C 0 km/h
2735 26-12-2005 00:08:04 1.4 C 4.85 g/m*3 1.4 C 0 km/h
2736 26-12-2005 00:18:04 1.3 C 4.77 g/m*3 1.3 C 0 km/h
2737 26-12-2005 00:28:04 1.3 C 4.77 g/m*3 1.3 C 0 km/h
2738 26-12-2005 00:38:03 1.4 C 4.75 g/m*3 1.4 C 0 km/h
2739 26-12-2005 00:48:04 1.4 C 4.75 g/m*3 1.4 C 0 km/h
2740 26-12-2005 00:58:04 1.4 C 4.69 g/m*3 1.4 C 0 km/h
2741 26-12-2005 01:08:04 1.4 C 4.64 g/m*3 1.4 C 0 km/h
2742 26-12-2005 01:18:04 1.4 C 4.64 g/m*3 1.4 C 0 km/h
2743 26-12-2005 01:28:04 1.3 C 4.61 g/m*3 1.3 C 0 km/h
2744 26-12-2005 01:38:04 1.3 C 4.61 g/m*3 1.3 C 0 km/h
2745 26-12-2005 01:48:04 1.2 C 4.63 g/m*3 1.2 C 0 km/h
2746 26-12-2005 01:58:04 1.3 C 4.66 g/m*3 1.3 C 0 km/h
2747 26-12-2005 02:08:04 1.3 C 4.66 g/m*3 1.3 C 0 km/h
2748 26-12-2005 02:18:04 1.4 C 4.69 g/m*3 1.4 C 0 km/h
2749 26-12-2005 02:28:04 1.5 C 4.67 g/m*3 1.5 C 0 km/h
2750 26-12-2005 02:38:04 1.5 C 4.67 g/m*3 1.5 C 0 km/h
Sensor: Nr:Datum:Temp:Abs-Feuchte:Windchill:Wind:
Aussen-T/F 2751 26-12-2005 02:49:05 1.5 C 4.62 g/m*3 1.5 C 0 km/h
2752 26-12-2005 02:59:05 1.6 C 4.65 g/m*3 1.6 C 0 km/h
2753 26-12-2005 03:09:05 1.6 C 4.65 g/m*3 1.6 C 0 km/h
2754 26-12-2005 03:19:05 1.6 C 4.6 g/m*3 1.6 C 0 km/h
2755 26-12-2005 03:29:06 1.7 C 4.57 g/m*3 1.7 C 0 km/h
2756 26-12-2005 03:39:06 1.7 C 4.57 g/m*3 1.7 C 0 km/h
2757 26-12-2005 03:49:06 1.7 C 4.57 g/m*3 1.7 C 0 km/h
2758 26-12-2005 03:59:06 1.7 C 4.57 g/m*3 1.7 C 0 km/h
2759 26-12-2005 04:09:05 1.7 C 4.57 g/m*3 1.7 C 0 km/h
2760 26-12-2005 04:19:06 1.8 C 4.6 g/m*3 1.8 C 0 km/h
2761 26-12-2005 04:29:06 1.8 C 4.6 g/m*3 1.8 C 0 km/h
2762 26-12-2005 04:39:06 1.8 C 4.6 g/m*3 1.8 C 0 km/h
2763 26-12-2005 04:49:06 1.8 C 4.6 g/m*3 1.8 C 0 km/h
2764 26-12-2005 04:59:06 1.8 C 4.6 g/m*3 1.8 C 0 km/h
2765 26-12-2005 05:09:06 1.8 C 4.66 g/m*3 1.8 C 0 km/h
2766 26-12-2005 05:19:06 1.7 C 4.63 g/m*3 1.7 C 0 km/h
2767 26-12-2005 05:29:06 1.7 C 4.68 g/m*3 1.7 C 0 km/h
2768 26-12-2005 05:39:06 1.6 C 4.65 g/m*3 1.6 C 0 km/h
2769 26-12-2005 05:49:06 1.7 C 4.74 g/m*3 1.7 C 0 km/h
2770 26-12-2005 05:59:06 1.7 C 4.74 g/m*3 1.7 C 0 km/h
2771 26-12-2005 06:09:05 1.8 C 4.82 g/m*3 1.8 C 0 km/h
2772 26-12-2005 06:19:06 1.7 C 4.79 g/m*3 1.7 C 0 km/h
2773 26-12-2005 06:29:06 1.8 C 4.82 g/m*3 1.8 C 0 km/h
2774 26-12-2005 06:39:06 2 C 4.89 g/m*3 2 C 0 km/h
2775 26-12-2005 06:49:06 2.1 C 4.87 g/m*3 2.1 C 0 km/h
Sensor: Nr:Datum:Temp:Abs-Feuchte:Windchill:Wind:
Aussen-T/F 2776 26-12-2005 06:59:06 2.1 C 4.87 g/m*3 2.1 C 0 km/h
2777 26-12-2005 07:09:06 2.3 C 4.93 g/m*3 2.3 C 0 km/h
2778 26-12-2005 07:19:05 2.4 C 4.91 g/m*3 2.4 C 0 km/h
2779 26-12-2005 07:29:05 2.4 C 4.85 g/m*3 2.4 C 0 km/h
2780 26-12-2005 07:39:06 2.5 C 4.89 g/m*3 2.5 C 0 km/h
2781 26-12-2005 07:49:06 2.5 C 4.89 g/m*3 2.5 C 0 km/h
2782 26-12-2005 07:59:06 2.5 C 4.83 g/m*3 2.5 C 0 km/h
2783 26-12-2005 08:09:06 2.5 C 4.83 g/m*3 2.5 C 0 km/h
2784 26-12-2005 08:19:06 2.5 C 4.77 g/m*3 2.5 C 0 km/h
2785 26-12-2005 08:29:06 2.5 C 4.77 g/m*3 2.5 C 0 km/h
2786 26-12-2005 08:39:06 2.5 C 4.77 g/m*3 2.5 C 0 km/h
2787 26-12-2005 08:49:06 2.4 C 4.74 g/m*3 2.4 C 0 km/h
2788 26-12-2005 08:59:06 2.1 C 4.64 g/m*3 2.1 C 0 km/h
2789 26-12-2005 09:09:06 1.9 C 4.64 g/m*3 1.9 C 0 km/h
2790 26-12-2005 09:19:06 2 C 4.67 g/m*3 2 C 0 km/h
2791 26-12-2005 09:29:06 1.9 C 4.64 g/m*3 1.9 C 0 km/h
2792 26-12-2005 09:39:07 1.8 C 4.6 g/m*3 1.8 C 0 km/h
2793 26-12-2005 09:49:06 1.6 C 4.54 g/m*3 1.6 C 0 km/h
2794 26-12-2005 09:59:06 1.3 C 4.45 g/m*3 1.3 C 0 km/h
2795 26-12-2005 10:09:06 1.2 C 4.42 g/m*3 1.2 C 0 km/h
2796 26-12-2005 10:19:07 1.2 C 4.47 g/m*3 1.2 C 0 km/h
2797 26-12-2005 10:29:07 1.2 C 4.47 g/m*3 1.2 C 0 km/h
2798 26-12-2005 10:39:06 1.8 C 4.71 g/m*3 1.8 C 0 km/h
2799 26-12-2005 10:49:06 2.3 C 4.65 g/m*3 2.3 C 0 km/h
2800 26-12-2005 10:59:06 2.2 C 4.45 g/m*3 2.2 C 0 km/h
Sensor: Nr:Datum:Temp:Abs-Feuchte:Windchill:Wind:
Aussen-T/F 2801 26-12-2005 11:09:06 2 C 4.39 g/m*3 2 C 0 km/h
2802 26-12-2005 11:19:07 2.3 C 4.37 g/m*3 2.3 C 0 km/h
2803 26-12-2005 11:29:07 2.6 C 4.28 g/m*3 2.6 C 0 km/h
2804 26-12-2005 11:39:06 2.8 C 4.34 g/m*3 2.8 C 0 km/h
2805 26-12-2005 11:49:07 3 C 4.28 g/m*3 3 C 0 km/h
2806 26-12-2005 11:59:07 3 C 4.16 g/m*3 3 C 0 km/h
2807 26-12-2005 12:09:06 3 C 4.1 g/m*3 3 C 0 km/h
2808 26-12-2005 12:19:06 3.1 C 4.01 g/m*3 3.1 C 0 km/h
2809 26-12-2005 12:29:06 3.2 C 3.98 g/m*3 3.2 C 0 km/h
2810 26-12-2005 12:39:06 3 C 3.92 g/m*3 3 C 0 km/h
2811 26-12-2005 12:49:06 2.8 C 3.81 g/m*3 2.8 C 0 km/h
2812 26-12-2005 12:59:06 3.1 C 3.65 g/m*3 3.1 C 0 km/h
2813 26-12-2005 13:09:07 3.1 C 3.59 g/m*3 3.1 C 0 km/h
2814 26-12-2005 13:19:07 2.9 C 3.84 g/m*3 2.9 C 0 km/h
2815 26-12-2005 13:29:07 2.7 C 3.61 g/m*3 2.7 C 0 km/h
2816 26-12-2005 13:39:07 2.3 C 3.63 g/m*3 2.3 C 0 km/h
2817 26-12-2005 13:49:06 2.1 C 3.64 g/m*3 2.1 C 0 km/h
2818 26-12-2005 13:59:06 2.2 C 3.55 g/m*3 2.2 C 0 km/h
2819 26-12-2005 14:09:07 2.3 C 3.52 g/m*3 2.3 C 0 km/h
2820 26-12-2005 14:19:07 2.2 C 3.55 g/m*3 2.2 C 0 km/h
2821 26-12-2005 14:29:07 1.9 C 3.48 g/m*3 1.9 C 0 km/h
2822 26-12-2005 14:39:07 1.7 C 3.54 g/m*3 1.7 C 0 km/h
2823 26-12-2005 14:49:07 1.6 C 3.62 g/m*3 1.6 C 0 km/h
2824 26-12-2005 14:59:07 1.9 C 3.7 g/m*3 1.9 C 0 km/h
2825 26-12-2005 15:09:06 2.2 C 3.66 g/m*3 2.2 C 0 km/h
Sensor: Nr:Datum:Temp:Abs-Feuchte:Windchill:Wind:
Aussen-T/F 2826 26-12-2005 15:19:07 2.4 C 3.54 g/m*3 2.4 C 0 km/h
2827 26-12-2005 15:29:07 2.5 C 3.56 g/m*3 2.5 C 0 km/h
2828 26-12-2005 15:39:08 2.5 C 3.62 g/m*3 2.5 C 0 km/h
2829 26-12-2005 15:49:07 2.5 C 3.62 g/m*3 2.5 C 0 km/h
2830 26-12-2005 15:59:07 2.6 C 3.53 g/m*3 2.6 C 0 km/h
2831 26-12-2005 16:09:08 2.6 C 3.47 g/m*3 2.6 C 0 km/h
2832 26-12-2005 16:19:07 2.6 C 3.47 g/m*3 2.6 C 0 km/h
2833 26-12-2005 16:29:07 2.3 C 3.46 g/m*3 2.3 C 0 km/h
2834 26-12-2005 16:39:09 1.9 C 3.59 g/m*3 1.9 C 0 km/h
2835 26-12-2005 16:49:07 1.9 C 3.64 g/m*3 1.9 C 0 km/h
2836 26-12-2005 16:59:07 1.8 C 3.67 g/m*3 1.8 C 0 km/h
2837 26-12-2005 17:09:09 2.2 C 3.66 g/m*3 2.2 C 0 km/h
2838 26-12-2005 17:19:07 2.1 C 3.64 g/m*3 2.1 C 0 km/h
2839 26-12-2005 17:29:07 2 C 3.67 g/m*3 2 C 0 km/h
2840 26-12-2005 17:39:08 2 C 3.67 g/m*3 2 C 0 km/h
2841 26-12-2005 17:49:07 1.8 C 3.73 g/m*3 1.8 C 0 km/h
2842 26-12-2005 17:59:08 1.8 C 3.78 g/m*3 1.8 C 0 km/h
2843 26-12-2005 18:09:07 1.8 C 3.78 g/m*3 1.8 C 0 km/h
2844 26-12-2005 18:19:07 1.8 C 3.78 g/m*3 1.8 C 0 km/h
2845 26-12-2005 18:29:08 1.8 C 3.78 g/m*3 1.8 C 0 km/h
2846 26-12-2005 18:39:07 1.9 C 3.81 g/m*3 1.9 C 0 km/h
2847 26-12-2005 18:49:08 1.2 C 4 g/m*3 1.2 C 0 km/h
2848 26-12-2005 18:59:08 0.8 C 4.15 g/m*3 0.8 C 0 km/h
2849 26-12-2005 19:09:07 0.5 C 4.11 g/m*3 0.5 C 0 km/h
2850 26-12-2005 19:19:07 0.4 C 4.18 g/m*3 0.4 C 0 km/h
Sensor: Nr:Datum:Temp:Abs-Feuchte:Windchill:Wind:
Aussen-T/F 2851 26-12-2005 19:29:08 0.3 C 4.2 g/m*3 0.3 C 0 km/h
2852 26-12-2005 19:39:07 0.3 C 4.25 g/m*3 0.3 C 0 km/h
2853 26-12-2005 19:49:07 0.3 C 4.3 g/m*3 0.3 C 0 km/h
2854 26-12-2005 19:59:08 0.3 C 4.3 g/m*3 0.3 C 0 km/h
2855 26-12-2005 20:09:08 0.2 C 4.32 g/m*3 0.2 C 0 km/h
2856 26-12-2005 20:19:07 0.2 C 4.32 g/m*3 0.2 C 0 km/h
2857 26-12-2005 20:29:07 0 C 4.26 g/m*3 0 C 0 km/h
2858 26-12-2005 20:39:09 -0.1 C 4.23 g/m*3 -0.1 C 0 km/h
2859 26-12-2005 20:49:08 -0.2 C 4.16 g/m*3 -0.2 C 0 km/h
2860 26-12-2005 20:59:08 -0.2 C 4.06 g/m*3 -0.2 C 0 km/h
2861 26-12-2005 21:09:11 -0.3 C 3.99 g/m*3 -0.3 C 0 km/h
2862 26-12-2005 21:19:08 -0.4 C 3.91 g/m*3 -0.4 C 0 km/h
2863 26-12-2005 21:29:08 -0.4 C 3.91 g/m*3 -0.4 C 0 km/h
2864 26-12-2005 21:39:09 -0.4 C 3.91 g/m*3 -0.4 C 0 km/h
2865 26-12-2005 21:49:08 -0.5 C 3.88 g/m*3 -0.5 C 0 km/h
2866 26-12-2005 21:59:08 -0.5 C 3.88 g/m*3 -0.5 C 0 km/h
2867 26-12-2005 22:09:10 -0.4 C 3.91 g/m*3 -0.4 C 0 km/h
2868 26-12-2005 22:19:08 -0.6 C 3.76 g/m*3 -0.6 C 0 km/h
2869 26-12-2005 22:29:08 -0.8 C 3.58 g/m*3 -0.8 C 0 km/h
2870 26-12-2005 22:39:08 -1 C 3.44 g/m*3 -1 C 0 km/h
2871 26-12-2005 22:49:07 -1 C 3.39 g/m*3 -1 C 0 km/h
2872 26-12-2005 22:59:07 -1.1 C 3.37 g/m*3 -1.1 C 0 km/h
2873 26-12-2005 23:09:07 -1.1 C 3.32 g/m*3 -1.1 C 0 km/h
2874 26-12-2005 23:19:08 -1.2 C 3.3 g/m*3 -1.2 C 0 km/h
2875 26-12-2005 23:29:08 -1.2 C 3.34 g/m*3 -1.2 C 0 km/h
Sensor: Nr:Datum:Temp:Abs-Feuchte:Windchill:Wind:
Aussen-T/F 2876 26-12-2005 23:39:08 -1.3 C 3.36 g/m*3 -1.3 C 0 km/h
2877 26-12-2005 23:49:07 -1.3 C 3.32 g/m*3 -1.3 C 0 km/h
2878 26-12-2005 23:59:07 -1.4 C 3.3 g/m*3 -1.4 C 0 km/h
2879 27-12-2005 00:09:08 -1.4 C 3.34 g/m*3 -1.4 C 0 km/h
2880 27-12-2005 00:19:08 -1.5 C 3.27 g/m*3 -1.5 C 0 km/h
2881 27-12-2005 00:29:08 -1.5 C 3.27 g/m*3 -1.5 C 0 km/h
2882 27-12-2005 00:39:08 -1.6 C 3.21 g/m*3 -1.6 C 0 km/h
2883 27-12-2005 00:49:08 -1.7 C 3.14 g/m*3 -1.7 C 0 km/h
2884 27-12-2005 00:59:08 -1.8 C 3.12 g/m*3 -1.8 C 0 km/h
2885 27-12-2005 01:09:08 -1.9 C 3.14 g/m*3 -1.9 C 0 km/h
2886 27-12-2005 01:19:08 -2 C 3.08 g/m*3 -2 C 0 km/h
2887 27-12-2005 01:29:08 -2.1 C 3.06 g/m*3 -2.1 C 0 km/h
2888 27-12-2005 01:39:08 -2.3 C 3.05 g/m*3 -2.3 C 0 km/h
2889 27-12-2005 01:49:08 -2.3 C 3.05 g/m*3 -2.3 C 0 km/h
2890 27-12-2005 01:59:09 -2.4 C 3.07 g/m*3 -2.4 C 0 km/h
2891 27-12-2005 02:09:08 -2.5 C 3.09 g/m*3 -2.5 C 0 km/h
2892 27-12-2005 02:19:08 -2.6 C 3.11 g/m*3 -2.6 C 0 km/h
2893 27-12-2005 02:29:08 -2.6 C 3.11 g/m*3 -2.6 C 0 km/h
2894 27-12-2005 02:39:08 -2.6 C 3.15 g/m*3 -2.6 C 0 km/h
2895 27-12-2005 02:50:09 -2.6 C 3.15 g/m*3 -2.6 C 0 km/h
2896 27-12-2005 03:00:09 -2.8 C 3.11 g/m*3 -2.8 C 0 km/h
2897 27-12-2005 03:10:09 -2.8 C 3.11 g/m*3 -2.8 C 0 km/h
2898 27-12-2005 03:20:09 -2.8 C 3.11 g/m*3 -2.8 C 0 km/h
2899 27-12-2005 03:30:09 -2.8 C 3.11 g/m*3 -2.8 C 0 km/h
2900 27-12-2005 03:40:10 -2.6 C 3.19 g/m*3 -2.6 C 0 km/h
Sensor: Nr:Datum:Temp:Abs-Feuchte:Windchill:Wind:
Aussen-T/F 2901 27-12-2005 03:50:10 -2.5 C 3.21 g/m*3 -2.5 C 0 km/h
2902 27-12-2005 04:00:10 -2.4 C 3.24 g/m*3 -2.4 C 0 km/h
2903 27-12-2005 04:10:10 -2.3 C 3.26 g/m*3 -2.3 C 0 km/h
2904 27-12-2005 04:20:10 -2.3 C 3.26 g/m*3 -2.3 C 0 km/h
2905 27-12-2005 04:30:10 -2.3 C 3.26 g/m*3 -2.3 C 0 km/h
2906 27-12-2005 04:40:10 -2.3 C 3.26 g/m*3 -2.3 C 0 km/h
2907 27-12-2005 04:50:10 -2.3 C 3.26 g/m*3 -2.3 C 0 km/h
2908 27-12-2005 05:00:10 -2.2 C 3.28 g/m*3 -2.2 C 0 km/h
2909 27-12-2005 05:10:09 -2.3 C 3.26 g/m*3 -2.3 C 0 km/h
2910 27-12-2005 05:20:09 -2.2 C 3.28 g/m*3 -2.2 C 0 km/h
2911 27-12-2005 05:30:09 -2.2 C 3.28 g/m*3 -2.2 C 0 km/h
2912 27-12-2005 05:40:09 -2.3 C 3.26 g/m*3 -2.3 C 0 km/h
2913 27-12-2005 05:50:10 -2.4 C 3.16 g/m*3 -2.4 C 0 km/h
2914 27-12-2005 06:00:10 -2.4 C 3.11 g/m*3 -2.4 C 0 km/h
2915 27-12-2005 06:10:10 -2.3 C 3.18 g/m*3 -2.3 C 0 km/h
2916 27-12-2005 06:20:10 -2.4 C 3.11 g/m*3 -2.4 C 0 km/h
2917 27-12-2005 06:30:10 -2.4 C 3.11 g/m*3 -2.4 C 0 km/h
2918 27-12-2005 06:40:09 -2.4 C 3.16 g/m*3 -2.4 C 0 km/h
2919 27-12-2005 06:50:10 -2.5 C 3.09 g/m*3 -2.5 C 0 km/h
2920 27-12-2005 07:00:10 -2.4 C 3.16 g/m*3 -2.4 C 0 km/h
2921 27-12-2005 07:10:09 -2.4 C 3.16 g/m*3 -2.4 C 0 km/h
2922 27-12-2005 07:20:10 -2.3 C 3.22 g/m*3 -2.3 C 0 km/h
2923 27-12-2005 07:30:10 -2.3 C 3.26 g/m*3 -2.3 C 0 km/h
2924 27-12-2005 07:40:10 -2.3 C 3.26 g/m*3 -2.3 C 0 km/h
2925 27-12-2005 07:50:10 -2.3 C 3.26 g/m*3 -2.3 C 0 km/h
Sensor: Nr:Datum:Temp:Abs-Feuchte:Windchill:Wind:
Aussen-T/F 2926 27-12-2005 08:00:10 -2.4 C 3.24 g/m*3 -2.4 C 0 km/h
2927 27-12-2005 08:10:10 -2.4 C 3.24 g/m*3 -2.4 C 0 km/h
2928 27-12-2005 08:20:10 -2.4 C 3.2 g/m*3 -2.4 C 0 km/h
2929 27-12-2005 08:30:10 -2.4 C 3.24 g/m*3 -2.4 C 0 km/h
2930 27-12-2005 08:40:10 -2.3 C 3.26 g/m*3 -2.3 C 0 km/h
2931 27-12-2005 08:50:10 -2.3 C 3.26 g/m*3 -2.3 C 0 km/h
2932 27-12-2005 09:00:10 -2.2 C 3.28 g/m*3 -2.2 C 0 km/h
2933 27-12-2005 09:10:10 -2.3 C 3.3 g/m*3 -2.3 C 0 km/h
2934 27-12-2005 09:20:11 -2.3 C 3.3 g/m*3 -2.3 C 0 km/h
2935 27-12-2005 09:30:11 -2.3 C 3.3 g/m*3 -2.3 C 0 km/h
2936 27-12-2005 09:40:11 -2.2 C 3.37 g/m*3 -2.2 C 0 km/h
2937 27-12-2005 09:50:11 -2.2 C 3.37 g/m*3 -2.2 C 0 km/h
2938 27-12-2005 10:00:11 -2.2 C 3.33 g/m*3 -2.2 C 0 km/h
2939 27-12-2005 10:10:11 -2.2 C 3.33 g/m*3 -2.2 C 0 km/h
2940 27-12-2005 10:20:11 -2.1 C 3.35 g/m*3 -2.1 C 0 km/h
2941 27-12-2005 10:30:11 -2 C 3.37 g/m*3 -2 C 0 km/h
2942 27-12-2005 10:40:11 -2 C 3.37 g/m*3 -2 C 0 km/h
2943 27-12-2005 10:50:10 -1.8 C 3.42 g/m*3 -1.8 C 0 km/h
2944 27-12-2005 11:00:10 -2 C 3.33 g/m*3 -2 C 0 km/h
2945 27-12-2005 11:10:10 -1.9 C 3.35 g/m*3 -1.9 C 0 km/h
2946 27-12-2005 11:20:10 -1.7 C 3.4 g/m*3 -1.7 C 0 km/h
2947 27-12-2005 11:30:10 -1.6 C 3.42 g/m*3 -1.6 C 0 km/h
2948 27-12-2005 11:40:11 -1.3 C 3.5 g/m*3 -1.3 C 0 km/h
2949 27-12-2005 11:50:10 -1.3 C 3.5 g/m*3 -1.3 C 0 km/h
2950 27-12-2005 12:00:10 -1.2 C 3.52 g/m*3 -1.2 C 0 km/h
Sensor: Nr:Datum:Temp:Abs-Feuchte:Windchill:Wind:
Aussen-T/F 2951 27-12-2005 12:10:11 -1 C 3.57 g/m*3 -1 C 0 km/h
2952 27-12-2005 12:20:11 -1 C 3.53 g/m*3 -1 C 0 km/h
2953 27-12-2005 12:30:11 -0.9 C 3.55 g/m*3 -0.9 C 0 km/h
2954 27-12-2005 12:40:11 -0.7 C 3.6 g/m*3 -0.7 C 0 km/h
2955 27-12-2005 12:50:11 -0.6 C 3.58 g/m*3 -0.6 C 0 km/h
2956 27-12-2005 13:00:11 -0.5 C 3.56 g/m*3 -0.5 C 0 km/h
2957 27-12-2005 13:10:11 -0.4 C 3.44 g/m*3 -0.4 C 0 km/h
2958 27-12-2005 13:20:11 -0.3 C 3.46 g/m*3 -0.3 C 0 km/h
2959 27-12-2005 13:30:11 -0.2 C 3.49 g/m*3 -0.2 C 0 km/h
2960 27-12-2005 13:40:10 -0.3 C 3.46 g/m*3 -0.3 C 0 km/h
2961 27-12-2005 13:50:11 -0.3 C 3.46 g/m*3 -0.3 C 0 km/h
2962 27-12-2005 14:00:11 -0.3 C 3.51 g/m*3 -0.3 C 0 km/h
2963 27-12-2005 14:10:10 -0.3 C 3.51 g/m*3 -0.3 C 0 km/h
2964 27-12-2005 14:20:10 -0.3 C 3.51 g/m*3 -0.3 C 0 km/h
2965 27-12-2005 14:30:10 -0.4 C 3.49 g/m*3 -0.4 C 0 km/h
2966 27-12-2005 14:40:11 -0.4 C 3.53 g/m*3 -0.4 C 0 km/h
2967 27-12-2005 14:50:10 -0.5 C 3.46 g/m*3 -0.5 C 0 km/h
2968 27-12-2005 15:00:10 -0.4 C 3.53 g/m*3 -0.4 C 0 km/h
2969 27-12-2005 15:10:10 -0.4 C 3.53 g/m*3 -0.4 C 0 km/h
2970 27-12-2005 15:20:11 -0.4 C 3.53 g/m*3 -0.4 C 0 km/h
2971 27-12-2005 15:30:11 -0.5 C 3.51 g/m*3 -0.5 C 0 km/h
2972 27-12-2005 15:40:11 -0.5 C 3.51 g/m*3 -0.5 C 0 km/h
2973 27-12-2005 15:50:11 -0.5 C 3.56 g/m*3 -0.5 C 0 km/h
2974 27-12-2005 16:00:11 -0.5 C 3.56 g/m*3 -0.5 C 0 km/h
2975 27-12-2005 16:10:11 -0.5 C 3.56 g/m*3 -0.5 C 0 km/h
Sensor: Nr:Datum:Temp:Abs-Feuchte:Windchill:Wind:
Aussen-T/F 2976 27-12-2005 16:20:11 -0.5 C 3.6 g/m*3 -0.5 C 0 km/h
2977 27-12-2005 16:30:12 -0.5 C 3.6 g/m*3 -0.5 C 0 km/h
2978 27-12-2005 16:40:11 -0.6 C 3.58 g/m*3 -0.6 C 0 km/h
2979 27-12-2005 16:50:11 -0.6 C 3.58 g/m*3 -0.6 C 0 km/h
2980 27-12-2005 17:00:11 -0.6 C 3.58 g/m*3 -0.6 C 0 km/h
2981 27-12-2005 17:10:11 -0.6 C 3.63 g/m*3 -0.6 C 0 km/h
2982 27-12-2005 17:20:11 -0.7 C 3.6 g/m*3 -0.7 C 0 km/h
2983 27-12-2005 17:30:11 -0.7 C 3.6 g/m*3 -0.7 C 0 km/h
2984 27-12-2005 17:40:11 -0.7 C 3.65 g/m*3 -0.7 C 0 km/h
2985 27-12-2005 17:50:12 -0.7 C 3.65 g/m*3 -0.7 C 0 km/h
2986 27-12-2005 18:00:12 -0.7 C 3.65 g/m*3 -0.7 C 0 km/h
2987 27-12-2005 18:10:12 -0.8 C 3.67 g/m*3 -0.8 C 0 km/h
2988 27-12-2005 18:20:11 -0.8 C 3.67 g/m*3 -0.8 C 0 km/h
2989 27-12-2005 18:30:12 -0.8 C 3.67 g/m*3 -0.8 C 0 km/h
2990 27-12-2005 18:40:11 -0.8 C 3.71 g/m*3 -0.8 C 0 km/h
2991 27-12-2005 18:50:11 -0.8 C 3.67 g/m*3 -0.8 C 0 km/h
2992 27-12-2005 19:00:12 -0.8 C 3.67 g/m*3 -0.8 C 0 km/h
2993 27-12-2005 19:10:11 -0.8 C 3.67 g/m*3 -0.8 C 0 km/h
2994 27-12-2005 19:20:11 -0.9 C 3.6 g/m*3 -0.9 C 0 km/h
2995 27-12-2005 19:30:11 -0.9 C 3.6 g/m*3 -0.9 C 0 km/h
2996 27-12-2005 19:40:11 -0.9 C 3.55 g/m*3 -0.9 C 0 km/h
2997 27-12-2005 19:50:11 -0.9 C 3.55 g/m*3 -0.9 C 0 km/h
2998 27-12-2005 20:00:11 -1 C 3.53 g/m*3 -1 C 0 km/h
2999 27-12-2005 20:10:12 -1 C 3.53 g/m*3 -1 C 0 km/h
3000 27-12-2005 20:20:11 -0.9 C 3.51 g/m*3 -0.9 C 0 km/h
Sensor: Nr:Datum:Temp:Abs-Feuchte:Windchill:Wind:
Aussen-T/F 3001 27-12-2005 20:30:11 -0.9 C 3.51 g/m*3 -0.9 C 0 km/h
3002 27-12-2005 20:40:11 -0.9 C 3.55 g/m*3 -0.9 C 0 km/h
3003 27-12-2005 20:50:11 -0.9 C 3.6 g/m*3 -0.9 C 0 km/h
3004 27-12-2005 21:00:12 -0.9 C 3.6 g/m*3 -0.9 C 0 km/h
3005 27-12-2005 21:10:11 -0.9 C 3.64 g/m*3 -0.9 C 0 km/h
3006 27-12-2005 21:20:11 -0.9 C 3.6 g/m*3 -0.9 C 0 km/h
3007 27-12-2005 21:30:11 -0.9 C 3.6 g/m*3 -0.9 C 0 km/h
3008 27-12-2005 21:40:12 -0.9 C 3.6 g/m*3 -0.9 C 0 km/h
3009 27-12-2005 21:50:11 -0.9 C 3.55 g/m*3 -0.9 C 0 km/h
3010 27-12-2005 22:00:11 -1 C 3.48 g/m*3 -1 C 0 km/h
3011 27-12-2005 22:10:12 -1 C 3.44 g/m*3 -1 C 0 km/h
3012 27-12-2005 22:20:12 -1 C 3.44 g/m*3 -1 C 0 km/h
3013 27-12-2005 22:30:12 -1.1 C 3.37 g/m*3 -1.1 C 0 km/h
3014 27-12-2005 22:40:11 -1.1 C 3.37 g/m*3 -1.1 C 0 km/h
3015 27-12-2005 22:50:11 -1 C 3.39 g/m*3 -1 C 0 km/h
3016 27-12-2005 23:00:11 -1.1 C 3.32 g/m*3 -1.1 C 0 km/h
3017 27-12-2005 23:10:12 -1.1 C 3.32 g/m*3 -1.1 C 0 km/h
3018 27-12-2005 23:20:12 -1.1 C 3.37 g/m*3 -1.1 C 0 km/h
3019 27-12-2005 23:30:12 -1.1 C 3.41 g/m*3 -1.1 C 0 km/h
3020 27-12-2005 23:40:11 -1.2 C 3.39 g/m*3 -1.2 C 0 km/h
3021 27-12-2005 23:50:12 -1.2 C 3.43 g/m*3 -1.2 C 0 km/h
3022 28-12-2005 00:00:12 -1.2 C 3.43 g/m*3 -1.2 C 0 km/h
3023 28-12-2005 00:10:11 -1.2 C 3.48 g/m*3 -1.2 C 0 km/h
3024 28-12-2005 00:20:12 -1.1 C 3.5 g/m*3 -1.1 C 0 km/h
3025 28-12-2005 00:30:12 -1.1 C 3.5 g/m*3 -1.1 C 0 km/h
Sensor: Nr:Datum:Temp:Abs-Feuchte:Windchill:Wind:
Aussen-T/F 3026 28-12-2005 00:40:12 -1.1 C 3.5 g/m*3 -1.1 C 0 km/h
3027 28-12-2005 00:50:12 -1.1 C 3.5 g/m*3 -1.1 C 0 km/h
3028 28-12-2005 01:00:12 -1.2 C 3.48 g/m*3 -1.2 C 0 km/h
3029 28-12-2005 01:10:12 -1.2 C 3.48 g/m*3 -1.2 C 0 km/h
3030 28-12-2005 01:20:12 -1.2 C 3.52 g/m*3 -1.2 C 0 km/h
3031 28-12-2005 01:30:12 -1.2 C 3.57 g/m*3 -1.2 C 0 km/h
3032 28-12-2005 01:40:12 -1.3 C 3.54 g/m*3 -1.3 C 0 km/h
3033 28-12-2005 01:50:12 -1.3 C 3.59 g/m*3 -1.3 C 0 km/h
3034 28-12-2005 02:00:12 -1.4 C 3.56 g/m*3 -1.4 C 0 km/h
3035 28-12-2005 02:10:12 -1.3 C 3.63 g/m*3 -1.3 C 0 km/h
3036 28-12-2005 02:20:12 -1.4 C 3.6 g/m*3 -1.4 C 0 km/h
3037 28-12-2005 02:30:12 -1.5 C 3.62 g/m*3 -1.5 C 0 km/h
3038 28-12-2005 02:40:12 -1.5 C 3.62 g/m*3 -1.5 C 0 km/h
3039 28-12-2005 02:51:13 -1.6 C 3.6 g/m*3 -1.6 C 0 km/h
3040 28-12-2005 03:01:13 -1.6 C 3.55 g/m*3 -1.6 C 0 km/h
3041 28-12-2005 03:11:13 -1.7 C 3.53 g/m*3 -1.7 C 0 km/h
3042 28-12-2005 03:21:14 -1.7 C 3.53 g/m*3 -1.7 C 0 km/h
3043 28-12-2005 03:31:14 -1.7 C 3.57 g/m*3 -1.7 C 0 km/h
3044 28-12-2005 03:41:14 -1.7 C 3.57 g/m*3 -1.7 C 0 km/h
3045 28-12-2005 03:51:14 -1.7 C 3.57 g/m*3 -1.7 C 0 km/h
3046 28-12-2005 04:01:14 -1.8 C 3.51 g/m*3 -1.8 C 0 km/h
3047 28-12-2005 04:11:14 -1.8 C 3.55 g/m*3 -1.8 C 0 km/h
3048 28-12-2005 04:21:13 -1.8 C 3.55 g/m*3 -1.8 C 0 km/h
3049 28-12-2005 04:31:13 -1.8 C 3.55 g/m*3 -1.8 C 0 km/h
3050 28-12-2005 04:41:13 -1.8 C 3.55 g/m*3 -1.8 C 0 km/h
Sensor: Nr:Datum:Temp:Abs-Feuchte:Windchill:Wind:
Aussen-T/F 3051 28-12-2005 04:51:14 -1.8 C 3.55 g/m*3 -1.8 C 0 km/h
3052 28-12-2005 05:01:14 -1.8 C 3.55 g/m*3 -1.8 C 0 km/h
3053 28-12-2005 05:11:14 -1.9 C 3.52 g/m*3 -1.9 C 0 km/h
3054 28-12-2005 05:21:13 -1.8 C 3.51 g/m*3 -1.8 C 0 km/h
3055 28-12-2005 05:31:13 -1.9 C 3.48 g/m*3 -1.9 C 0 km/h
3056 28-12-2005 05:41:14 -1.9 C 3.48 g/m*3 -1.9 C 0 km/h
3057 28-12-2005 05:51:13 -1.8 C 3.51 g/m*3 -1.8 C 0 km/h
3058 28-12-2005 06:01:13 -1.9 C 3.48 g/m*3 -1.9 C 0 km/h
3059 28-12-2005 06:11:14 -1.9 C 3.44 g/m*3 -1.9 C 0 km/h
3060 28-12-2005 06:21:14 -1.9 C 3.44 g/m*3 -1.9 C 0 km/h
3061 28-12-2005 06:31:14 -1.8 C 3.46 g/m*3 -1.8 C 0 km/h
3062 28-12-2005 06:41:14 -1.8 C 3.42 g/m*3 -1.8 C 0 km/h
3063 28-12-2005 06:51:14 -1.8 C 3.42 g/m*3 -1.8 C 0 km/h
3064 28-12-2005 07:01:14 -1.9 C 3.4 g/m*3 -1.9 C 0 km/h
3065 28-12-2005 07:11:14 -2 C 3.37 g/m*3 -2 C 0 km/h
3066 28-12-2005 07:21:14 -2.1 C 3.35 g/m*3 -2.1 C 0 km/h
3067 28-12-2005 07:31:14 -2.1 C 3.35 g/m*3 -2.1 C 0 km/h
3068 28-12-2005 07:41:14 -2.1 C 3.35 g/m*3 -2.1 C 0 km/h
3069 28-12-2005 07:51:14 -2.1 C 3.39 g/m*3 -2.1 C 0 km/h
3070 28-12-2005 08:01:14 -2.1 C 3.39 g/m*3 -2.1 C 0 km/h
3071 28-12-2005 08:11:14 -2 C 3.41 g/m*3 -2 C 0 km/h
3072 28-12-2005 08:21:14 -1.9 C 3.44 g/m*3 -1.9 C 0 km/h
3073 28-12-2005 08:31:14 -1.8 C 3.46 g/m*3 -1.8 C 0 km/h
3074 28-12-2005 08:41:14 -1.8 C 3.46 g/m*3 -1.8 C 0 km/h
3075 28-12-2005 08:51:14 -1.7 C 3.49 g/m*3 -1.7 C 0 km/h
Sensor: Nr:Datum:Temp:Abs-Feuchte:Windchill:Wind:
Aussen-T/F 3076 28-12-2005 09:01:14 -1.7 C 3.49 g/m*3 -1.7 C 0 km/h
3077 28-12-2005 09:11:14 -1.7 C 3.49 g/m*3 -1.7 C 0 km/h
3078 28-12-2005 09:21:14 -1.7 C 3.44 g/m*3 -1.7 C 0 km/h
3079 28-12-2005 09:31:14 -1.5 C 3.54 g/m*3 -1.5 C 0 km/h
3080 28-12-2005 09:41:14 -1.3 C 3.59 g/m*3 -1.3 C 0 km/h
3081 28-12-2005 09:51:14 -1.2 C 3.61 g/m*3 -1.2 C 0 km/h
3082 28-12-2005 10:01:14 -1.1 C 3.64 g/m*3 -1.1 C 0 km/h
3083 28-12-2005 10:11:14 -1 C 3.62 g/m*3 -1 C 0 km/h
3084 28-12-2005 10:21:14 -0.9 C 3.64 g/m*3 -0.9 C 0 km/h
3085 28-12-2005 10:31:14 -0.8 C 3.67 g/m*3 -0.8 C 0 km/h
3086 28-12-2005 10:41:15 -0.7 C 3.65 g/m*3 -0.7 C 0 km/h
3087 28-12-2005 10:51:14 -0.7 C 3.65 g/m*3 -0.7 C 0 km/h
3088 28-12-2005 11:01:14 -0.7 C 3.6 g/m*3 -0.7 C 0 km/h
3089 28-12-2005 11:11:14 -0.6 C 3.63 g/m*3 -0.6 C 0 km/h
3090 28-12-2005 11:21:15 -0.4 C 3.63 g/m*3 -0.4 C 0 km/h
3091 28-12-2005 11:31:15 -0.4 C 3.58 g/m*3 -0.4 C 0 km/h
3092 28-12-2005 11:41:14 -0.3 C 3.56 g/m*3 -0.3 C 0 km/h
3093 28-12-2005 11:51:15 -0.4 C 3.49 g/m*3 -0.4 C 0 km/h
3094 28-12-2005 12:01:15 -0.1 C 3.61 g/m*3 -0.1 C 0 km/h
3095 28-12-2005 12:11:14 -0.1 C 3.61 g/m*3 -0.1 C 0 km/h
3096 28-12-2005 12:21:14 0.1 C 3.66 g/m*3 0.1 C 0 km/h
3097 28-12-2005 12:31:14 0.1 C 3.66 g/m*3 0.1 C 0 km/h
3098 28-12-2005 12:41:14 0.1 C 3.61 g/m*3 0.1 C 0 km/h
3099 28-12-2005 12:51:14 0.2 C 3.64 g/m*3 0.2 C 0 km/h
3100 28-12-2005 13:01:14 0.2 C 3.64 g/m*3 0.2 C 0 km/h
Sensor: Nr:Datum:Temp:Abs-Feuchte:Windchill:Wind:
Aussen-T/F 3101 28-12-2005 13:11:14 0.3 C 3.61 g/m*3 0.3 C 0 km/h
3102 28-12-2005 13:21:14 0.1 C 3.56 g/m*3 0.1 C 0 km/h
3103 28-12-2005 13:31:14 -0.1 C 3.56 g/m*3 -0.1 C 0 km/h
3104 28-12-2005 13:41:15 -0.3 C 3.51 g/m*3 -0.3 C 0 km/h
3105 28-12-2005 13:51:14 -0.4 C 3.53 g/m*3 -0.4 C 0 km/h
3106 28-12-2005 14:01:15 -0.3 C 3.61 g/m*3 -0.3 C 0 km/h
3107 28-12-2005 14:11:15 -0.2 C 3.63 g/m*3 -0.2 C 0 km/h
3108 28-12-2005 14:21:15 -0.4 C 3.53 g/m*3 -0.4 C 0 km/h
3109 28-12-2005 14:31:15 -0.5 C 3.32 g/m*3 -0.5 C 0 km/h
3110 28-12-2005 14:41:14 -0.6 C 3.3 g/m*3 -0.6 C 0 km/h
3111 28-12-2005 14:51:14 -0.8 C 3.16 g/m*3 -0.8 C 0 km/h
3112 28-12-2005 15:01:14 -0.9 C 3.19 g/m*3 -0.9 C 0 km/h
3113 28-12-2005 15:11:15 -0.8 C 3.21 g/m*3 -0.8 C 0 km/h
3114 28-12-2005 15:21:15 -0.7 C 3.23 g/m*3 -0.7 C 0 km/h
3115 28-12-2005 15:31:15 -0.7 C 3.14 g/m*3 -0.7 C 0 km/h
3116 28-12-2005 15:41:15 -0.8 C 3.12 g/m*3 -0.8 C 0 km/h
3117 28-12-2005 15:51:15 -1.3 C 3.28 g/m*3 -1.3 C 0 km/h
3118 28-12-2005 16:01:15 -1.4 C 3.3 g/m*3 -1.4 C 0 km/h
3119 28-12-2005 16:11:15 -1.4 C 3.34 g/m*3 -1.4 C 0 km/h
3120 28-12-2005 16:21:15 -1.4 C 3.39 g/m*3 -1.4 C 0 km/h
3121 28-12-2005 16:31:16 -1.3 C 3.41 g/m*3 -1.3 C 0 km/h
3122 28-12-2005 16:41:15 -1.3 C 3.41 g/m*3 -1.3 C 0 km/h
3123 28-12-2005 16:51:15 -1.3 C 3.45 g/m*3 -1.3 C 0 km/h
3124 28-12-2005 17:01:15 -1.3 C 3.45 g/m*3 -1.3 C 0 km/h
3125 28-12-2005 17:11:15 -1.3 C 3.45 g/m*3 -1.3 C 0 km/h
Sensor: Nr:Datum:Temp:Abs-Feuchte:Windchill:Wind:
Aussen-T/F 3126 28-12-2005 17:21:15 -1.5 C 3.36 g/m*3 -1.5 C 0 km/h
3127 28-12-2005 17:31:16 -1.6 C 3.21 g/m*3 -1.6 C 0 km/h
3128 28-12-2005 17:41:15 -1.6 C 3.16 g/m*3 -1.6 C 0 km/h
3129 28-12-2005 17:51:15 -1.6 C 3.16 g/m*3 -1.6 C 0 km/h
3130 28-12-2005 18:01:15 -1.6 C 3.16 g/m*3 -1.6 C 0 km/h
3131 28-12-2005 18:11:15 -1.6 C 3.21 g/m*3 -1.6 C 0 km/h
3132 28-12-2005 18:21:15 -1.7 C 3.19 g/m*3 -1.7 C 0 km/h
3133 28-12-2005 18:31:16 -1.8 C 3.08 g/m*3 -1.8 C 0 km/h
3134 28-12-2005 18:41:15 -1.8 C 2.99 g/m*3 -1.8 C 0 km/h
3135 28-12-2005 18:51:15 -1.9 C 2.93 g/m*3 -1.9 C 0 km/h
3136 28-12-2005 19:01:15 -1.9 C 2.97 g/m*3 -1.9 C 0 km/h
3137 28-12-2005 19:11:15 -2 C 2.91 g/m*3 -2 C 0 km/h
3138 28-12-2005 19:21:15 -2 C 2.95 g/m*3 -2 C 0 km/h
3139 28-12-2005 19:31:15 -2 C 2.87 g/m*3 -2 C 0 km/h
3140 28-12-2005 19:41:15 -2 C 2.82 g/m*3 -2 C 0 km/h
3141 28-12-2005 19:51:15 -2 C 2.87 g/m*3 -2 C 0 km/h
3142 28-12-2005 20:01:15 -2 C 2.91 g/m*3 -2 C 0 km/h
3143 28-12-2005 20:11:15 -2 C 2.99 g/m*3 -2 C 0 km/h
3144 28-12-2005 20:21:15 -2.1 C 3.01 g/m*3 -2.1 C 0 km/h
3145 28-12-2005 20:31:15 -2.1 C 3.06 g/m*3 -2.1 C 0 km/h
3146 28-12-2005 20:41:15 -2.2 C 3.03 g/m*3 -2.2 C 0 km/h
3147 28-12-2005 20:51:15 -2.2 C 3.08 g/m*3 -2.2 C 0 km/h
3148 28-12-2005 21:01:15 -2.3 C 3.1 g/m*3 -2.3 C 0 km/h
3149 28-12-2005 21:11:15 -2.3 C 3.1 g/m*3 -2.3 C 0 km/h
3150 28-12-2005 21:21:16 -2.3 C 3.14 g/m*3 -2.3 C 0 km/h
Sensor: Nr:Datum:Temp:Abs-Feuchte:Windchill:Wind:
Aussen-T/F 3151 28-12-2005 21:31:16 -2.4 C 3.16 g/m*3 -2.4 C 0 km/h
3152 28-12-2005 21:41:15 -2.5 C 3.13 g/m*3 -2.5 C 0 km/h
3153 28-12-2005 21:51:15 -2.5 C 3.17 g/m*3 -2.5 C 0 km/h
3154 28-12-2005 22:01:15 -2.6 C 3.15 g/m*3 -2.6 C 0 km/h
3155 28-12-2005 22:11:16 -2.6 C 3.15 g/m*3 -2.6 C 0 km/h
3156 28-12-2005 22:21:16 -2.6 C 3.15 g/m*3 -2.6 C 0 km/h
3157 28-12-2005 22:31:16 -2.6 C 3.15 g/m*3 -2.6 C 0 km/h
3158 28-12-2005 22:41:15 -2.7 C 3.09 g/m*3 -2.7 C 0 km/h
3159 28-12-2005 22:51:16 -2.7 C 3.13 g/m*3 -2.7 C 0 km/h
3160 28-12-2005 23:01:16 -2.7 C 3.13 g/m*3 -2.7 C 0 km/h
3161 28-12-2005 23:11:15 -2.8 C 3.11 g/m*3 -2.8 C 0 km/h
3162 28-12-2005 23:21:15 -2.9 C 3.09 g/m*3 -2.9 C 0 km/h
3163 28-12-2005 23:31:15 -2.9 C 3.09 g/m*3 -2.9 C 0 km/h
3164 28-12-2005 23:41:15 -3 C 3.06 g/m*3 -3 C 0 km/h
3165 28-12-2005 23:51:15 -3.2 C 2.98 g/m*3 -3.2 C 0 km/h
3166 29-12-2005 00:01:15 -3.5 C 2.92 g/m*3 -3.5 C 0 km/h
3167 29-12-2005 00:11:16 -3.7 C 2.88 g/m*3 -3.7 C 0 km/h
3168 29-12-2005 00:21:15 -3.8 C 2.86 g/m*3 -3.8 C 0 km/h
3169 29-12-2005 00:31:15 -3.7 C 2.92 g/m*3 -3.7 C 0 km/h
3170 29-12-2005 00:41:16 -3.8 C 2.89 g/m*3 -3.8 C 0 km/h
3171 29-12-2005 00:51:16 -3.8 C 2.89 g/m*3 -3.8 C 0 km/h
3172 29-12-2005 01:01:16 -3.8 C 2.89 g/m*3 -3.8 C 0 km/h
3173 29-12-2005 01:11:16 -3.8 C 2.89 g/m*3 -3.8 C 0 km/h
3174 29-12-2005 01:21:16 -3.5 C 2.96 g/m*3 -3.5 C 0 km/h
3175 29-12-2005 01:31:16 -3.5 C 2.96 g/m*3 -3.5 C 0 km/h
Sensor: Nr:Datum:Temp:Abs-Feuchte:Windchill:Wind:
Aussen-T/F 3176 29-12-2005 01:41:16 -3.5 C 2.92 g/m*3 -3.5 C 0 km/h
3177 29-12-2005 01:51:16 -3.4 C 2.94 g/m*3 -3.4 C 0 km/h
3178 29-12-2005 02:01:16 -3.5 C 2.88 g/m*3 -3.5 C 0 km/h
3179 29-12-2005 02:11:16 -3.5 C 2.88 g/m*3 -3.5 C 0 km/h
3180 29-12-2005 02:21:16 -3.5 C 2.88 g/m*3 -3.5 C 0 km/h
3181 29-12-2005 02:31:16 -3.5 C 2.88 g/m*3 -3.5 C 0 km/h
3182 29-12-2005 02:41:16 -3.6 C 2.86 g/m*3 -3.6 C 0 km/h
3183 29-12-2005 02:52:17 -3.5 C 2.88 g/m*3 -3.5 C 0 km/h
3184 29-12-2005 03:02:17 -3.5 C 2.88 g/m*3 -3.5 C 0 km/h
3185 29-12-2005 03:12:18 -3.5 C 2.88 g/m*3 -3.5 C 0 km/h
3186 29-12-2005 03:22:18 -3.5 C 2.88 g/m*3 -3.5 C 0 km/h
3187 29-12-2005 03:32:17 -3.5 C 2.88 g/m*3 -3.5 C 0 km/h
3188 29-12-2005 03:42:18 -3.6 C 2.86 g/m*3 -3.6 C 0 km/h
3189 29-12-2005 03:52:18 -3.6 C 2.86 g/m*3 -3.6 C 0 km/h
3190 29-12-2005 04:02:17 -3.7 C 2.88 g/m*3 -3.7 C 0 km/h
3191 29-12-2005 04:12:17 -3.7 C 2.88 g/m*3 -3.7 C 0 km/h
3192 29-12-2005 04:22:18 -3.7 C 2.88 g/m*3 -3.7 C 0 km/h
3193 29-12-2005 04:32:18 -3.8 C 2.89 g/m*3 -3.8 C 0 km/h
3194 29-12-2005 04:42:18 -3.9 C 2.87 g/m*3 -3.9 C 0 km/h
3195 29-12-2005 04:52:18 -3.9 C 2.87 g/m*3 -3.9 C 0 km/h
3196 29-12-2005 05:02:17 -3.8 C 2.89 g/m*3 -3.8 C 0 km/h
3197 29-12-2005 05:12:17 -3.8 C 2.89 g/m*3 -3.8 C 0 km/h
3198 29-12-2005 05:22:18 -3.8 C 2.89 g/m*3 -3.8 C 0 km/h
3199 29-12-2005 05:32:18 -3.7 C 2.92 g/m*3 -3.7 C 0 km/h
3200 29-12-2005 05:42:18 -3.7 C 2.88 g/m*3 -3.7 C 0 km/h
Sensor: Nr:Datum:Temp:Abs-Feuchte:Windchill:Wind:
Aussen-T/F 3201 29-12-2005 05:52:17 -3.7 C 2.88 g/m*3 -3.7 C 0 km/h
3202 29-12-2005 06:02:18 -3.7 C 2.88 g/m*3 -3.7 C 0 km/h
3203 29-12-2005 06:12:18 -3.7 C 2.92 g/m*3 -3.7 C 0 km/h
3204 29-12-2005 06:22:18 -3.7 C 2.92 g/m*3 -3.7 C 0 km/h
3205 29-12-2005 06:32:18 -3.7 C 2.95 g/m*3 -3.7 C 0 km/h
3206 29-12-2005 06:42:19 -3.7 C 2.99 g/m*3 -3.7 C 0 km/h
3207 29-12-2005 06:52:18 -3.6 C 3.01 g/m*3 -3.6 C 0 km/h
3208 29-12-2005 07:02:18 -3.5 C 2.99 g/m*3 -3.5 C 0 km/h
3209 29-12-2005 07:12:19 -3.5 C 2.99 g/m*3 -3.5 C 0 km/h
3210 29-12-2005 07:22:18 -3.4 C 3.02 g/m*3 -3.4 C 0 km/h
3211 29-12-2005 07:32:17 -3.4 C 3.05 g/m*3 -3.4 C 0 km/h
3212 29-12-2005 07:42:17 -3.4 C 3.05 g/m*3 -3.4 C 0 km/h
3213 29-12-2005 07:52:18 -3.4 C 3.05 g/m*3 -3.4 C 0 km/h
3214 29-12-2005 08:02:18 -3.4 C 3.09 g/m*3 -3.4 C 0 km/h
3215 29-12-2005 08:12:18 -3.4 C 3.09 g/m*3 -3.4 C 0 km/h
3216 29-12-2005 08:22:17 -3.4 C 3.09 g/m*3 -3.4 C 0 km/h
3217 29-12-2005 08:32:18 -3.4 C 3.09 g/m*3 -3.4 C 0 km/h
3218 29-12-2005 08:42:18 -3.4 C 3.09 g/m*3 -3.4 C 0 km/h
3219 29-12-2005 08:52:18 -3.3 C 3.11 g/m*3 -3.3 C 0 km/h
3220 29-12-2005 09:02:17 -3.3 C 3.11 g/m*3 -3.3 C 0 km/h
3221 29-12-2005 09:12:17 -3.2 C 3.14 g/m*3 -3.2 C 0 km/h
3222 29-12-2005 09:22:18 -3.2 C 3.14 g/m*3 -3.2 C 0 km/h
3223 29-12-2005 09:32:18 -3.2 C 3.14 g/m*3 -3.2 C 0 km/h
3224 29-12-2005 09:42:18 -3 C 3.14 g/m*3 -3 C 0 km/h
3225 29-12-2005 09:52:18 -2.9 C 3.13 g/m*3 -2.9 C 0 km/h
Sensor: Nr:Datum:Temp:Abs-Feuchte:Windchill:Wind:
Aussen-T/F 3226 29-12-2005 10:02:18 -2.9 C 3.13 g/m*3 -2.9 C 0 km/h
3227 29-12-2005 10:12:18 -2.9 C 3.13 g/m*3 -2.9 C 0 km/h
3228 29-12-2005 10:22:18 -2.8 C 3.11 g/m*3 -2.8 C 0 km/h
3229 29-12-2005 10:32:18 -2.7 C 3.13 g/m*3 -2.7 C 0 km/h
3230 29-12-2005 10:42:18 -2.7 C 3.09 g/m*3 -2.7 C 0 km/h
3231 29-12-2005 10:52:18 -2.7 C 3.09 g/m*3 -2.7 C 0 km/h
3232 29-12-2005 11:02:18 -2.6 C 3.11 g/m*3 -2.6 C 0 km/h
3233 29-12-2005 11:12:18 -2.5 C 3.09 g/m*3 -2.5 C 0 km/h
3234 29-12-2005 11:22:18 -2.5 C 3.09 g/m*3 -2.5 C 0 km/h
3235 29-12-2005 11:32:19 -2.4 C 3.11 g/m*3 -2.4 C 0 km/h
3236 29-12-2005 11:42:19 -2.3 C 3.14 g/m*3 -2.3 C 0 km/h
3237 29-12-2005 11:52:18 -2.4 C 3.07 g/m*3 -2.4 C 0 km/h
3238 29-12-2005 12:02:18 -2.3 C 3.1 g/m*3 -2.3 C 0 km/h
3239 29-12-2005 12:12:18 -2.1 C 3.1 g/m*3 -2.1 C 0 km/h
3240 29-12-2005 12:22:18 -1.9 C 3.1 g/m*3 -1.9 C 0 km/h
3241 29-12-2005 12:32:18 -1.7 C 3.14 g/m*3 -1.7 C 0 km/h
3242 29-12-2005 12:42:18 -1.6 C 3.21 g/m*3 -1.6 C